PWSweather.com
Personal Weather Stations
Station Observations
IW2DCW
Centro Citta', VimercateIT 20871

Centro Citta'VimercateIT 20871

Lat: 45.614405, Lon: 9.368358

Elevation: 610

Station Type: Davis Vantage Pro 2

vento.excalibur.it/meteo

High Low Average
Temperature 61.1°F16.2°C 43.5°F6.4°C 51.6°F10.9°C
Dew Point 44.6°F7.0°C 4.5°F-15.3°C 23.0°F-5.0°C
Winds 31.0 mph 49.9 kmh 1.0 mph 1.6 kmh 10.0 mph WNW16.1 kmh WNW
Wind Gusts 59.0 mph95.0 kmh -- 17.0 mph27.4 kmh
Humidity 87% 15% 37%
Pressure 30.14 in1020.7 mb 29.81 in1009.5 mb -
Precipitation 0.00 in0.0 mm - -
Hour Temp Dew Point Humidity Winds Wind Gusts Pressure Precip Precip Rate Daily Precip Total
12:00 AM 49.3°F9.6°C 44.3°F6.8°C 83% 5.0 mph WSW8.0 kmh WSW 8.0 mph12.9 kmh 29.85 in1010.8 mb 0.00 in0.0 mm 0.00 in0.0 mm 0.00 in0.0 mm
12:01 AM 49.3°F9.6°C 44.3°F6.8°C 83% 6.0 mph W9.7 kmh W 8.0 mph12.9 kmh 29.85 in1010.8 mb 0.00 in0.0 mm 0.00 in0.0 mm 0.00 in0.0 mm
12:02 AM 49.2°F9.6°C 44.3°F6.8°C 83% 7.0 mph W11.3 kmh W 8.0 mph12.9 kmh 29.85 in1010.8 mb 0.00 in0.0 mm 0.00 in0.0 mm 0.00 in0.0 mm
12:03 AM 49.1°F9.5°C 44.2°F6.8°C 83% 8.0 mph W12.9 kmh W 9.0 mph14.5 kmh 29.85 in1010.8 mb 0.00 in0.0 mm 0.00 in0.0 mm 0.00 in0.0 mm
12:04 AM 49.1°F9.5°C 44.1°F6.7°C 83% 8.0 mph W12.9 kmh W 11.0 mph17.7 kmh 29.85 in1010.8 mb 0.00 in0.0 mm 0.00 in0.0 mm 0.00 in0.0 mm
12:05 AM 49.0°F9.4°C 44.3°F6.8°C 84% 8.0 mph W12.9 kmh W 11.0 mph17.7 kmh 29.85 in1010.8 mb 0.00 in0.0 mm 0.00 in0.0 mm 0.00 in0.0 mm
12:06 AM 49.0°F9.4°C 44.4°F6.9°C 84% 9.0 mph W14.5 kmh W 10.0 mph16.1 kmh 29.85 in1010.8 mb 0.00 in0.0 mm 0.00 in0.0 mm 0.00 in0.0 mm
12:07 AM 49.0°F9.4°C 44.3°F6.8°C 84% 9.0 mph W14.5 kmh W 10.0 mph16.1 kmh 29.84 in1010.5 mb 0.00 in0.0 mm 0.00 in0.0 mm 0.00 in0.0 mm
12:08 AM 49.0°F9.4°C 44.4°F6.9°C 84% 8.0 mph W12.9 kmh W 10.0 mph16.1 kmh 29.85 in1010.8 mb 0.00 in0.0 mm 0.00 in0.0 mm 0.00 in0.0 mm
12:09 AM 49.0°F9.4°C 44.4°F6.9°C 84% 9.0 mph W14.5 kmh W 10.0 mph16.1 kmh 29.85 in1010.8 mb 0.00 in0.0 mm 0.00 in0.0 mm 0.00 in0.0 mm
12:10 AM 49.1°F9.5°C 44.5°F6.9°C 84% 8.0 mph W12.9 kmh W 10.0 mph16.1 kmh 29.84 in1010.5 mb 0.00 in0.0 mm 0.00 in0.0 mm 0.00 in0.0 mm
12:11 AM 49.1°F9.5°C 44.5°F6.9°C 84% 8.0 mph W12.9 kmh W 10.0 mph16.1 kmh 29.85 in1010.8 mb 0.00 in0.0 mm 0.00 in0.0 mm 0.00 in0.0 mm
12:12 AM 49.1°F9.5°C 44.5°F6.9°C 84% 8.0 mph W12.9 kmh W 10.0 mph16.1 kmh 29.84 in1010.5 mb 0.00 in0.0 mm 0.00 in0.0 mm 0.00 in0.0 mm
12:13 AM 49.1°F9.5°C 44.5°F6.9°C 84% 8.0 mph W12.9 kmh W 10.0 mph16.1 kmh 29.85 in1010.8 mb 0.00 in0.0 mm 0.00 in0.0 mm 0.00 in0.0 mm
12:14 AM 49.1°F9.5°C 44.5°F6.9°C 84% 8.0 mph W12.9 kmh W 10.0 mph16.1 kmh 29.84 in1010.5 mb 0.00 in0.0 mm 0.00 in0.0 mm 0.00 in0.0 mm
12:15 AM 49.1°F9.5°C 44.5°F6.9°C 84% 7.0 mph W11.3 kmh W 10.0 mph16.1 kmh 29.84 in1010.5 mb 0.00 in0.0 mm 0.00 in0.0 mm 0.00 in0.0 mm
12:16 AM 49.1°F9.5°C 44.5°F6.9°C 84% 6.0 mph W9.7 kmh W 9.0 mph14.5 kmh 29.85 in1010.8 mb 0.00 in0.0 mm 0.00 in0.0 mm 0.00 in0.0 mm
12:17 AM 49.1°F9.5°C 44.5°F6.9°C 84% 5.0 mph WNW8.0 kmh WNW 8.0 mph12.9 kmh 29.85 in1010.8 mb 0.00 in0.0 mm 0.00 in0.0 mm 0.00 in0.0 mm
12:18 AM 49.1°F9.5°C 44.5°F6.9°C 84% 3.0 mph WNW4.8 kmh WNW 8.0 mph12.9 kmh 29.85 in1010.8 mb 0.00 in0.0 mm 0.00 in0.0 mm 0.00 in0.0 mm
12:19 AM 49.1°F9.5°C 44.5°F6.9°C 84% 3.0 mph NW4.8 kmh NW 5.0 mph8.0 kmh 29.85 in1010.8 mb 0.00 in0.0 mm 0.00 in0.0 mm 0.00 in0.0 mm
12:20 AM 49.1°F9.5°C 44.5°F6.9°C 84% 3.0 mph NW4.8 kmh NW 5.0 mph8.0 kmh 29.85 in1010.8 mb 0.00 in0.0 mm 0.00 in0.0 mm 0.00 in0.0 mm
12:21 AM 49.1°F9.5°C 44.5°F6.9°C 84% 4.0 mph NW6.4 kmh NW 5.0 mph8.0 kmh 29.85 in1010.8 mb 0.00 in0.0 mm 0.00 in0.0 mm 0.00 in0.0 mm
12:22 AM 49.1°F9.5°C 44.5°F6.9°C 84% 4.0 mph NW6.4 kmh NW 5.0 mph8.0 kmh 29.84 in1010.5 mb 0.00 in0.0 mm 0.00 in0.0 mm 0.00 in0.0 mm
12:23 AM 49.2°F9.6°C 44.6°F7.0°C 84% 4.0 mph NW6.4 kmh NW 5.0 mph8.0 kmh 29.84 in1010.5 mb 0.00 in0.0 mm 0.00 in0.0 mm 0.00 in0.0 mm
12:24 AM 49.1°F9.5°C 44.5°F6.9°C 84% 4.0 mph WNW6.4 kmh WNW 6.0 mph9.7 kmh 29.84 in1010.5 mb 0.00 in0.0 mm 0.00 in0.0 mm 0.00 in0.0 mm
12:25 AM 49.1°F9.5°C 44.5°F6.9°C 84% 3.0 mph WNW4.8 kmh WNW 6.0 mph9.7 kmh 29.85 in1010.8 mb 0.00 in0.0 mm 0.00 in0.0 mm 0.00 in0.0 mm
12:26 AM 49.1°F9.5°C 44.5°F6.9°C 84% 4.0 mph W6.4 kmh W 6.0 mph9.7 kmh 29.84 in1010.5 mb 0.00 in0.0 mm 0.00 in0.0 mm 0.00 in0.0 mm
12:27 AM 49.0°F9.4°C 44.4°F6.9°C 84% 5.0 mph W8.0 kmh W 6.0 mph9.7 kmh 29.84 in1010.5 mb 0.00 in0.0 mm 0.00 in0.0 mm 0.00 in0.0 mm
12:28 AM 49.0°F9.4°C 44.4°F6.9°C 84% 4.0 mph W6.4 kmh W 6.0 mph9.7 kmh 29.85 in1010.8 mb 0.00 in0.0 mm 0.00 in0.0 mm 0.00 in0.0 mm
12:29 AM 49.0°F9.4°C 44.4°F6.9°C 84% 4.0 mph W6.4 kmh W 6.0 mph9.7 kmh 29.85 in1010.8 mb 0.00 in0.0 mm 0.00 in0.0 mm 0.00 in0.0 mm
12:30 AM 48.9°F9.4°C 44.3°F6.8°C 84% 3.0 mph W4.8 kmh W 6.0 mph9.7 kmh 29.85 in1010.8 mb 0.00 in0.0 mm 0.00 in0.0 mm 0.00 in0.0 mm
12:31 AM 48.8°F9.3°C 44.2°F6.8°C 84% 2.0 mph WNW3.2 kmh WNW 4.0 mph6.4 kmh 29.85 in1010.8 mb 0.00 in0.0 mm 0.00 in0.0 mm 0.00 in0.0 mm
12:32 AM 48.8°F9.3°C 44.2°F6.8°C 84% 3.0 mph NW4.8 kmh NW 4.0 mph6.4 kmh 29.84 in1010.5 mb 0.00 in0.0 mm 0.00 in0.0 mm 0.00 in0.0 mm
12:33 AM 48.7°F9.3°C 44.1°F6.7°C 84% 3.0 mph NW4.8 kmh NW 5.0 mph8.0 kmh 29.85 in1010.8 mb 0.00 in0.0 mm 0.00 in0.0 mm 0.00 in0.0 mm
12:34 AM 48.7°F9.3°C 44.1°F6.7°C 84% 4.0 mph NW6.4 kmh NW 5.0 mph8.0 kmh 29.85 in1010.8 mb 0.00 in0.0 mm 0.00 in0.0 mm 0.00 in0.0 mm
12:35 AM 48.7°F9.3°C 44.1°F6.7°C 84% 4.0 mph NW6.4 kmh NW 5.0 mph8.0 kmh 29.85 in1010.8 mb 0.00 in0.0 mm 0.00 in0.0 mm 0.00 in0.0 mm
12:36 AM 48.7°F9.3°C 44.1°F6.7°C 84% 4.0 mph NW6.4 kmh NW 7.0 mph11.3 kmh 29.84 in1010.5 mb 0.00 in0.0 mm 0.00 in0.0 mm 0.00 in0.0 mm
12:37 AM 48.6°F9.2°C 44.0°F6.7°C 84% 5.0 mph WNW8.0 kmh WNW 7.0 mph11.3 kmh 29.84 in1010.5 mb 0.00 in0.0 mm 0.00 in0.0 mm 0.00 in0.0 mm
12:38 AM 48.6°F9.2°C 44.0°F6.7°C 84% 4.0 mph WNW6.4 kmh WNW 7.0 mph11.3 kmh 29.84 in1010.5 mb 0.00 in0.0 mm 0.00 in0.0 mm 0.00 in0.0 mm
12:39 AM 48.6°F9.2°C 44.0°F6.7°C 84% 4.0 mph NW6.4 kmh NW 7.0 mph11.3 kmh 29.84 in1010.5 mb 0.00 in0.0 mm 0.00 in0.0 mm 0.00 in0.0 mm
12:40 AM 48.6°F9.2°C 44.0°F6.7°C 84% 4.0 mph NW6.4 kmh NW 7.0 mph11.3 kmh 29.84 in1010.5 mb 0.00 in0.0 mm 0.00 in0.0 mm 0.00 in0.0 mm
12:41 AM 48.6°F9.2°C 44.0°F6.7°C 84% 4.0 mph NW6.4 kmh NW 7.0 mph11.3 kmh 29.84 in1010.5 mb 0.00 in0.0 mm 0.00 in0.0 mm 0.00 in0.0 mm
12:42 AM 48.6°F9.2°C 44.0°F6.7°C 84% 4.0 mph WNW6.4 kmh WNW 7.0 mph11.3 kmh 29.84 in1010.5 mb 0.00 in0.0 mm 0.00 in0.0 mm 0.00 in0.0 mm
12:43 AM 48.6°F9.2°C 44.0°F6.7°C 84% 2.0 mph WNW3.2 kmh WNW 5.0 mph8.0 kmh 29.84 in1010.5 mb 0.00 in0.0 mm 0.00 in0.0 mm 0.00 in0.0 mm
12:44 AM 48.5°F9.2°C 43.9°F6.6°C 84% 3.0 mph NW4.8 kmh NW 4.0 mph6.4 kmh 29.84 in1010.5 mb 0.00 in0.0 mm 0.00 in0.0 mm 0.00 in0.0 mm
12:45 AM 48.5°F9.2°C 43.9°F6.6°C 84% 4.0 mph NW6.4 kmh NW 5.0 mph8.0 kmh 29.84 in1010.5 mb 0.00 in0.0 mm 0.00 in0.0 mm 0.00 in0.0 mm
12:46 AM 48.5°F9.2°C 43.9°F6.6°C 84% 4.0 mph NW6.4 kmh NW 5.0 mph8.0 kmh 29.85 in1010.8 mb 0.00 in0.0 mm 0.00 in0.0 mm 0.00 in0.0 mm
12:47 AM 48.5°F9.2°C 43.9°F6.6°C 84% 3.0 mph NNW4.8 kmh NNW 5.0 mph8.0 kmh 29.85 in1010.8 mb 0.00 in0.0 mm 0.00 in0.0 mm 0.00 in0.0 mm
12:48 AM 48.5°F9.2°C 43.9°F6.6°C 84% 3.0 mph NW4.8 kmh NW 4.0 mph6.4 kmh 29.85 in1010.8 mb 0.00 in0.0 mm 0.00 in0.0 mm 0.00 in0.0 mm
12:49 AM 48.4°F9.1°C 43.8°F6.6°C 84% 4.0 mph NW6.4 kmh NW 4.0 mph6.4 kmh 29.84 in1010.5 mb 0.00 in0.0 mm 0.00 in0.0 mm 0.00 in0.0 mm
12:50 AM 48.4°F9.1°C 43.8°F6.6°C 84% 3.0 mph NW4.8 kmh NW 4.0 mph6.4 kmh 29.84 in1010.5 mb 0.00 in0.0 mm 0.00 in0.0 mm 0.00 in0.0 mm
12:51 AM 48.3°F9.1°C 43.7°F6.5°C 84% 4.0 mph WNW6.4 kmh WNW 5.0 mph8.0 kmh 29.84 in1010.5 mb 0.00 in0.0 mm 0.00 in0.0 mm 0.00 in0.0 mm
12:52 AM 48.3°F9.1°C 43.7°F6.5°C 84% 4.0 mph WNW6.4 kmh WNW 5.0 mph8.0 kmh 29.84 in1010.5 mb 0.00 in0.0 mm 0.00 in0.0 mm 0.00 in0.0 mm
12:53 AM 48.3°F9.1°C 43.7°F6.5°C 84% 4.0 mph WNW6.4 kmh WNW 5.0 mph8.0 kmh 29.84 in1010.5 mb 0.00 in0.0 mm 0.00 in0.0 mm 0.00 in0.0 mm
12:54 AM 48.3°F9.1°C 44.0°F6.7°C 85% 4.0 mph WNW6.4 kmh WNW 5.0 mph8.0 kmh 29.84 in1010.5 mb 0.00 in0.0 mm 0.00 in0.0 mm 0.00 in0.0 mm
12:55 AM 48.3°F9.1°C 43.9°F6.6°C 85% 3.0 mph WNW4.8 kmh WNW 5.0 mph8.0 kmh 29.84 in1010.5 mb 0.00 in0.0 mm 0.00 in0.0 mm 0.00 in0.0 mm
12:56 AM 48.2°F9.0°C 43.6°F6.4°C 84% 4.0 mph W6.4 kmh W 4.0 mph6.4 kmh 29.84 in1010.5 mb 0.00 in0.0 mm 0.00 in0.0 mm 0.00 in0.0 mm
12:57 AM 48.2°F9.0°C 43.8°F6.6°C 85% 4.0 mph WSW6.4 kmh WSW 5.0 mph8.0 kmh 29.84 in1010.5 mb 0.00 in0.0 mm 0.00 in0.0 mm 0.00 in0.0 mm
12:58 AM 48.2°F9.0°C 43.9°F6.6°C 85% 2.0 mph WSW3.2 kmh WSW 5.0 mph8.0 kmh 29.85 in1010.8 mb 0.00 in0.0 mm 0.00 in0.0 mm 0.00 in0.0 mm
12:59 AM 48.2°F9.0°C 43.9°F6.6°C 85% 2.0 mph WSW3.2 kmh WSW 3.0 mph4.8 kmh 29.84 in1010.5 mb 0.00 in0.0 mm 0.00 in0.0 mm 0.00 in0.0 mm
01:00 AM 48.2°F9.0°C 43.9°F6.6°C 85% 2.0 mph WSW3.2 kmh WSW 2.0 mph3.2 kmh 29.84 in1010.5 mb 0.00 in0.0 mm 0.00 in0.0 mm 0.00 in0.0 mm
01:01 AM 48.3°F9.1°C 44.0°F6.7°C 85% 2.0 mph WSW3.2 kmh WSW 4.0 mph6.4 kmh 29.85 in1010.8 mb 0.00 in0.0 mm 0.00 in0.0 mm 0.00 in0.0 mm
01:02 AM 48.3°F9.1°C 44.0°F6.7°C 85% 3.0 mph W4.8 kmh W 4.0 mph6.4 kmh 29.85 in1010.8 mb 0.00 in0.0 mm 0.00 in0.0 mm 0.00 in0.0 mm
01:03 AM 48.3°F9.1°C 44.0°F6.7°C 85% 3.0 mph WNW4.8 kmh WNW 4.0 mph6.4 kmh 29.85 in1010.8 mb 0.00 in0.0 mm 0.00 in0.0 mm 0.00 in0.0 mm
01:04 AM 48.3°F9.1°C 44.0°F6.7°C 85% 3.0 mph W4.8 kmh W 4.0 mph6.4 kmh 29.85 in1010.8 mb 0.00 in0.0 mm 0.00 in0.0 mm 0.00 in0.0 mm
01:05 AM 48.3°F9.1°C 44.0°F6.7°C 85% 4.0 mph W6.4 kmh W 6.0 mph9.7 kmh 29.85 in1010.8 mb 0.00 in0.0 mm 0.00 in0.0 mm 0.00 in0.0 mm
01:06 AM 48.3°F9.1°C 44.0°F6.7°C 85% 5.0 mph W8.0 kmh W 6.0 mph9.7 kmh 29.85 in1010.8 mb 0.00 in0.0 mm 0.00 in0.0 mm 0.00 in0.0 mm
01:07 AM 48.2°F9.0°C 43.9°F6.6°C 85% 5.0 mph W8.0 kmh W 6.0 mph9.7 kmh 29.85 in1010.8 mb 0.00 in0.0 mm 0.00 in0.0 mm 0.00 in0.0 mm
01:08 AM 48.2°F9.0°C 43.9°F6.6°C 85% 5.0 mph W8.0 kmh W 6.0 mph9.7 kmh 29.85 in1010.8 mb 0.00 in0.0 mm 0.00 in0.0 mm 0.00 in0.0 mm
01:09 AM 48.2°F9.0°C 43.9°F6.6°C 85% 5.0 mph W8.0 kmh W 6.0 mph9.7 kmh 29.85 in1010.8 mb 0.00 in0.0 mm 0.00 in0.0 mm 0.00 in0.0 mm
01:10 AM 48.1°F8.9°C 43.8°F6.6°C 85% 5.0 mph W8.0 kmh W 6.0 mph9.7 kmh 29.85 in1010.8 mb 0.00 in0.0 mm 0.00 in0.0 mm 0.00 in0.0 mm
01:11 AM 48.1°F8.9°C 43.8°F6.6°C 85% 6.0 mph W9.7 kmh W 7.0 mph11.3 kmh 29.85 in1010.8 mb 0.00 in0.0 mm 0.00 in0.0 mm 0.00 in0.0 mm
01:12 AM 48.1°F8.9°C 43.8°F6.6°C 85% 6.0 mph W9.7 kmh W 7.0 mph11.3 kmh 29.85 in1010.8 mb 0.00 in0.0 mm 0.00 in0.0 mm 0.00 in0.0 mm
01:13 AM 48.1°F8.9°C 43.8°F6.6°C 85% 6.0 mph W9.7 kmh W 8.0 mph12.9 kmh 29.85 in1010.8 mb 0.00 in0.0 mm 0.00 in0.0 mm 0.00 in0.0 mm
01:14 AM 48.1°F8.9°C 43.8°F6.6°C 85% 7.0 mph WNW11.3 kmh WNW 8.0 mph12.9 kmh 29.85 in1010.8 mb 0.00 in0.0 mm 0.00 in0.0 mm 0.00 in0.0 mm
01:15 AM 48.1°F8.9°C 43.8°F6.6°C 85% 4.0 mph NW6.4 kmh NW 8.0 mph12.9 kmh 29.85 in1010.8 mb 0.00 in0.0 mm 0.00 in0.0 mm 0.00 in0.0 mm
01:16 AM 48.0°F8.9°C 43.7°F6.5°C 85% 5.0 mph WNW8.0 kmh WNW 8.0 mph12.9 kmh 29.84 in1010.5 mb 0.00 in0.0 mm 0.00 in0.0 mm 0.00 in0.0 mm
01:17 AM 48.0°F8.9°C 43.7°F6.5°C 85% 4.0 mph NW6.4 kmh NW 8.0 mph12.9 kmh 29.85 in1010.8 mb 0.00 in0.0 mm 0.00 in0.0 mm 0.00 in0.0 mm
01:18 AM 48.0°F8.9°C 43.7°F6.5°C 85% 5.0 mph WNW8.0 kmh WNW 7.0 mph11.3 kmh 29.84 in1010.5 mb 0.00 in0.0 mm 0.00 in0.0 mm 0.00 in0.0 mm
01:19 AM 48.0°F8.9°C 43.7°F6.5°C 85% 5.0 mph WNW8.0 kmh WNW 7.0 mph11.3 kmh 29.84 in1010.5 mb 0.00 in0.0 mm 0.00 in0.0 mm 0.00 in0.0 mm
01:20 AM 48.0°F8.9°C 43.7°F6.5°C 85% 5.0 mph WNW8.0 kmh WNW 8.0 mph12.9 kmh 29.84 in1010.5 mb 0.00 in0.0 mm 0.00 in0.0 mm 0.00 in0.0 mm
01:21 AM 48.0°F8.9°C 43.7°F6.5°C 85% 4.0 mph NW6.4 kmh NW 8.0 mph12.9 kmh 29.84 in1010.5 mb 0.00 in0.0 mm 0.00 in0.0 mm 0.00 in0.0 mm
01:22 AM 48.1°F8.9°C 43.8°F6.6°C 85% 4.0 mph WNW6.4 kmh WNW 8.0 mph12.9 kmh 29.84 in1010.5 mb 0.00 in0.0 mm 0.00 in0.0 mm 0.00 in0.0 mm
01:23 AM 48.1°F8.9°C 43.8°F6.6°C 85% 5.0 mph NW8.0 kmh NW 8.0 mph12.9 kmh 29.84 in1010.5 mb 0.00 in0.0 mm 0.00 in0.0 mm 0.00 in0.0 mm
01:24 AM 48.1°F8.9°C 43.8°F6.6°C 85% 5.0 mph WNW8.0 kmh WNW 10.0 mph16.1 kmh 29.84 in1010.5 mb 0.00 in0.0 mm 0.00 in0.0 mm 0.00 in0.0 mm
01:25 AM 48.1°F8.9°C 43.9°F6.6°C 85% 7.0 mph WNW11.3 kmh WNW 10.0 mph16.1 kmh 29.84 in1010.5 mb 0.00 in0.0 mm 0.00 in0.0 mm 0.00 in0.0 mm
01:26 AM 48.2°F9.0°C 44.2°F6.8°C 86% 5.0 mph WNW8.0 kmh WNW 9.0 mph14.5 kmh 29.84 in1010.5 mb 0.00 in0.0 mm 0.00 in0.0 mm 0.00 in0.0 mm
01:27 AM 48.3°F9.1°C 44.3°F6.8°C 86% 5.0 mph WNW8.0 kmh WNW 7.0 mph11.3 kmh 29.84 in1010.5 mb 0.00 in0.0 mm 0.00 in0.0 mm 0.00 in0.0 mm
01:28 AM 48.3°F9.1°C 44.1°F6.7°C 85% 5.0 mph W8.0 kmh W 7.0 mph11.3 kmh 29.84 in1010.5 mb 0.00 in0.0 mm 0.00 in0.0 mm 0.00 in0.0 mm
01:29 AM 48.3°F9.1°C 44.0°F6.7°C 85% 3.0 mph W4.8 kmh W 7.0 mph11.3 kmh 29.84 in1010.5 mb 0.00 in0.0 mm 0.00 in0.0 mm 0.00 in0.0 mm
01:30 AM 48.3°F9.1°C 44.0°F6.7°C 85% 3.0 mph WNW4.8 kmh WNW 3.0 mph4.8 kmh 29.84 in1010.5 mb 0.00 in0.0 mm 0.00 in0.0 mm 0.00 in0.0 mm
01:31 AM 48.3°F9.1°C 44.0°F6.7°C 85% 3.0 mph WNW4.8 kmh WNW 4.0 mph6.4 kmh 29.84 in1010.5 mb 0.00 in0.0 mm 0.00 in0.0 mm 0.00 in0.0 mm
01:32 AM 48.3°F9.1°C 44.0°F6.7°C 85% 3.0 mph W4.8 kmh W 4.0 mph6.4 kmh 29.84 in1010.5 mb 0.00 in0.0 mm 0.00 in0.0 mm 0.00 in0.0 mm
01:33 AM 48.3°F9.1°C 44.0°F6.7°C 85% 5.0 mph W8.0 kmh W 7.0 mph11.3 kmh 29.84 in1010.5 mb 0.00 in0.0 mm 0.00 in0.0 mm 0.00 in0.0 mm
01:34 AM 48.3°F9.1°C 44.0°F6.7°C 85% 4.0 mph WSW6.4 kmh WSW 7.0 mph11.3 kmh 29.84 in1010.5 mb 0.00 in0.0 mm 0.00 in0.0 mm 0.00 in0.0 mm
01:35 AM 48.3°F9.1°C 44.0°F6.7°C 85% 4.0 mph WSW6.4 kmh WSW 6.0 mph9.7 kmh 29.85 in1010.8 mb 0.00 in0.0 mm 0.00 in0.0 mm 0.00 in0.0 mm
01:36 AM 48.2°F9.0°C 43.9°F6.6°C 85% 4.0 mph WSW6.4 kmh WSW 5.0 mph8.0 kmh 29.85 in1010.8 mb 0.00 in0.0 mm 0.00 in0.0 mm 0.00 in0.0 mm
01:37 AM 48.2°F9.0°C 43.9°F6.6°C 85% 5.0 mph WSW8.0 kmh WSW 7.0 mph11.3 kmh 29.85 in1010.8 mb 0.00 in0.0 mm 0.00 in0.0 mm 0.00 in0.0 mm
01:38 AM 48.2°F9.0°C 43.9°F6.6°C 85% 4.0 mph SW6.4 kmh SW 7.0 mph11.3 kmh 29.85 in1010.8 mb 0.00 in0.0 mm 0.00 in0.0 mm 0.00 in0.0 mm
01:39 AM 48.2°F9.0°C 43.9°F6.6°C 85% 5.0 mph SW8.0 kmh SW 6.0 mph9.7 kmh 29.85 in1010.8 mb 0.00 in0.0 mm 0.00 in0.0 mm 0.00 in0.0 mm
01:40 AM 48.1°F8.9°C 43.8°F6.6°C 85% 5.0 mph SW8.0 kmh SW 6.0 mph9.7 kmh 29.85 in1010.8 mb 0.00 in0.0 mm 0.00 in0.0 mm 0.00 in0.0 mm
01:41 AM 48.0°F8.9°C 43.7°F6.5°C 85% 4.0 mph SW6.4 kmh SW 7.0 mph11.3 kmh 29.85 in1010.8 mb 0.00 in0.0 mm 0.00 in0.0 mm 0.00 in0.0 mm
01:42 AM 47.9°F8.8°C 43.6°F6.4°C 85% 6.0 mph WSW9.7 kmh WSW 7.0 mph11.3 kmh 29.85 in1010.8 mb 0.00 in0.0 mm 0.00 in0.0 mm 0.00 in0.0 mm
01:43 AM 47.7°F8.7°C 43.4°F6.3°C 85% 5.0 mph SW8.0 kmh SW 7.0 mph11.3 kmh 29.85 in1010.8 mb 0.00 in0.0 mm 0.00 in0.0 mm 0.00 in0.0 mm
01:44 AM 47.6°F8.7°C 43.3°F6.3°C 85% 6.0 mph SW9.7 kmh SW 7.0 mph11.3 kmh 29.85 in1010.8 mb 0.00 in0.0 mm 0.00 in0.0 mm 0.00 in0.0 mm
01:45 AM 47.5°F8.6°C 43.5°F6.4°C 86% 4.0 mph WSW6.4 kmh WSW 7.0 mph11.3 kmh 29.85 in1010.8 mb 0.00 in0.0 mm 0.00 in0.0 mm 0.00 in0.0 mm
01:46 AM 47.4°F8.6°C 43.4°F6.3°C 86% 6.0 mph SW9.7 kmh SW 7.0 mph11.3 kmh 29.85 in1010.8 mb 0.00 in0.0 mm 0.00 in0.0 mm 0.00 in0.0 mm
01:47 AM 47.3°F8.5°C 43.3°F6.3°C 86% 5.0 mph SW8.0 kmh SW 7.0 mph11.3 kmh 29.85 in1010.8 mb 0.00 in0.0 mm 0.00 in0.0 mm 0.00 in0.0 mm
01:48 AM 47.3°F8.5°C 43.3°F6.3°C 86% 5.0 mph SW8.0 kmh SW 7.0 mph11.3 kmh 29.85 in1010.8 mb 0.00 in0.0 mm 0.00 in0.0 mm 0.00 in0.0 mm
01:49 AM 47.2°F8.4°C 43.2°F6.2°C 86% 5.0 mph SW8.0 kmh SW 6.0 mph9.7 kmh 29.85 in1010.8 mb 0.00 in0.0 mm 0.00 in0.0 mm 0.00 in0.0 mm
01:50 AM 47.2°F8.4°C 43.2°F6.2°C 86% 6.0 mph SW9.7 kmh SW 8.0 mph12.9 kmh 29.85 in1010.8 mb 0.00 in0.0 mm 0.00 in0.0 mm 0.00 in0.0 mm
01:51 AM 47.1°F8.4°C 43.1°F6.2°C 86% 6.0 mph SW9.7 kmh SW 8.0 mph12.9 kmh 29.85 in1010.8 mb 0.00 in0.0 mm 0.00 in0.0 mm 0.00 in0.0 mm
01:52 AM 47.1°F8.4°C 43.1°F6.2°C 86% 6.0 mph WSW9.7 kmh WSW 8.0 mph12.9 kmh 29.85 in1010.8 mb 0.00 in0.0 mm 0.00 in0.0 mm 0.00 in0.0 mm
01:53 AM 47.1°F8.4°C 43.2°F6.2°C 86% 6.0 mph WSW9.7 kmh WSW 8.0 mph12.9 kmh 29.85 in1010.8 mb 0.00 in0.0 mm 0.00 in0.0 mm 0.00 in0.0 mm
01:54 AM 47.1°F8.4°C 43.4°F6.3°C 87% 5.0 mph SW8.0 kmh SW 9.0 mph14.5 kmh 29.85 in1010.8 mb 0.00 in0.0 mm 0.00 in0.0 mm 0.00 in0.0 mm
01:55 AM 47.1°F8.4°C 43.4°F6.3°C 87% 5.0 mph WSW8.0 kmh WSW 9.0 mph14.5 kmh 29.85 in1010.8 mb 0.00 in0.0 mm 0.00 in0.0 mm 0.00 in0.0 mm
01:56 AM 47.1°F8.4°C 43.4°F6.3°C 87% 5.0 mph WSW8.0 kmh WSW 7.0 mph11.3 kmh 29.85 in1010.8 mb 0.00 in0.0 mm 0.00 in0.0 mm 0.00 in0.0 mm
01:57 AM 47.1°F8.4°C 43.4°F6.3°C 87% 3.0 mph W4.8 kmh W 6.0 mph9.7 kmh 29.85 in1010.8 mb 0.00 in0.0 mm 0.00 in0.0 mm 0.00 in0.0 mm
01:58 AM 47.1°F8.4°C 43.4°F6.3°C 87% 5.0 mph WSW8.0 kmh WSW 7.0 mph11.3 kmh 29.85 in1010.8 mb 0.00 in0.0 mm 0.00 in0.0 mm 0.00 in0.0 mm
01:59 AM 47.1°F8.4°C 43.4°F6.3°C 87% 4.0 mph WSW6.4 kmh WSW 7.0 mph11.3 kmh 29.85 in1010.8 mb 0.00 in0.0 mm 0.00 in0.0 mm 0.00 in0.0 mm
02:00 AM 47.0°F8.3°C 43.4°F6.3°C 87% 5.0 mph WSW8.0 kmh WSW 7.0 mph11.3 kmh 29.85 in1010.8 mb 0.00 in0.0 mm 0.00 in0.0 mm 0.00 in0.0 mm
02:01 AM 47.1°F8.4°C 43.2°F6.2°C 86% 4.0 mph WSW6.4 kmh WSW 7.0 mph11.3 kmh 29.85 in1010.8 mb 0.00 in0.0 mm 0.00 in0.0 mm 0.00 in0.0 mm
02:02 AM 47.0°F8.3°C 43.1°F6.2°C 86% 4.0 mph WSW6.4 kmh WSW 6.0 mph9.7 kmh 29.85 in1010.8 mb 0.00 in0.0 mm 0.00 in0.0 mm 0.00 in0.0 mm
02:03 AM 47.0°F8.3°C 43.0°F6.1°C 86% 4.0 mph WSW6.4 kmh WSW 7.0 mph11.3 kmh 29.85 in1010.8 mb 0.00 in0.0 mm 0.00 in0.0 mm 0.00 in0.0 mm
02:04 AM 47.0°F8.3°C 43.0°F6.1°C 86% 5.0 mph WSW8.0 kmh WSW 8.0 mph12.9 kmh 29.85 in1010.8 mb 0.00 in0.0 mm 0.00 in0.0 mm 0.00 in0.0 mm
02:05 AM 47.0°F8.3°C 43.0°F6.1°C 86% 5.0 mph WSW8.0 kmh WSW 8.0 mph12.9 kmh 29.85 in1010.8 mb 0.00 in0.0 mm 0.00 in0.0 mm 0.00 in0.0 mm
02:06 AM 47.0°F8.3°C 43.0°F6.1°C 86% 6.0 mph WSW9.7 kmh WSW 8.0 mph12.9 kmh 29.85 in1010.8 mb 0.00 in0.0 mm 0.00 in0.0 mm 0.00 in0.0 mm
02:07 AM 47.0°F8.3°C 43.0°F6.1°C 86% 6.0 mph WSW9.7 kmh WSW 8.0 mph12.9 kmh 29.85 in1010.8 mb 0.00 in0.0 mm 0.00 in0.0 mm 0.00 in0.0 mm
02:08 AM 47.0°F8.3°C 43.0°F6.1°C 86% 7.0 mph WSW11.3 kmh WSW 8.0 mph12.9 kmh 29.85 in1010.8 mb 0.00 in0.0 mm 0.00 in0.0 mm 0.00 in0.0 mm
02:09 AM 47.0°F8.3°C 43.0°F6.1°C 86% 5.0 mph WSW8.0 kmh WSW 8.0 mph12.9 kmh 29.85 in1010.8 mb 0.00 in0.0 mm 0.00 in0.0 mm 0.00 in0.0 mm
02:10 AM 46.9°F8.3°C 43.0°F6.1°C 86% 7.0 mph WSW11.3 kmh WSW 9.0 mph14.5 kmh 29.85 in1010.8 mb 0.00 in0.0 mm 0.00 in0.0 mm 0.00 in0.0 mm
02:11 AM 46.9°F8.3°C 43.2°F6.2°C 87% 5.0 mph WSW8.0 kmh WSW 9.0 mph14.5 kmh 29.85 in1010.8 mb 0.00 in0.0 mm 0.00 in0.0 mm 0.00 in0.0 mm
02:12 AM 46.9°F8.3°C 43.2°F6.2°C 87% 7.0 mph WSW11.3 kmh WSW 9.0 mph14.5 kmh 29.85 in1010.8 mb 0.00 in0.0 mm 0.00 in0.0 mm 0.00 in0.0 mm
02:13 AM 46.9°F8.3°C 43.2°F6.2°C 87% 8.0 mph WSW12.9 kmh WSW 10.0 mph16.1 kmh 29.84 in1010.5 mb 0.00 in0.0 mm 0.00 in0.0 mm 0.00 in0.0 mm
02:14 AM 46.9°F8.3°C 43.2°F6.2°C 87% 9.0 mph WSW14.5 kmh WSW 11.0 mph17.7 kmh 29.84 in1010.5 mb 0.00 in0.0 mm 0.00 in0.0 mm 0.00 in0.0 mm
02:15 AM 47.0°F8.3°C 43.3°F6.3°C 87% 8.0 mph WSW12.9 kmh WSW 11.0 mph17.7 kmh 29.84 in1010.5 mb 0.00 in0.0 mm 0.00 in0.0 mm 0.00 in0.0 mm
02:16 AM 47.0°F8.3°C 43.3°F6.3°C 87% 8.0 mph WSW12.9 kmh WSW 10.0 mph16.1 kmh 29.84 in1010.5 mb 0.00 in0.0 mm 0.00 in0.0 mm 0.00 in0.0 mm
02:17 AM 47.0°F8.3°C 43.3°F6.3°C 87% 8.0 mph WSW12.9 kmh WSW 10.0 mph16.1 kmh 29.84 in1010.5 mb 0.00 in0.0 mm 0.00 in0.0 mm 0.00 in0.0 mm
02:18 AM 47.1°F8.4°C 43.1°F6.2°C 86% 7.0 mph WSW11.3 kmh WSW 10.0 mph16.1 kmh 29.84 in1010.5 mb 0.00 in0.0 mm 0.00 in0.0 mm 0.00 in0.0 mm
02:19 AM 47.1°F8.4°C 43.1°F6.2°C 86% 8.0 mph WSW12.9 kmh WSW 10.0 mph16.1 kmh 29.84 in1010.5 mb 0.00 in0.0 mm 0.00 in0.0 mm 0.00 in0.0 mm
02:20 AM 47.1°F8.4°C 43.1°F6.2°C 86% 9.0 mph WSW14.5 kmh WSW 10.0 mph16.1 kmh 29.84 in1010.5 mb 0.00 in0.0 mm 0.00 in0.0 mm 0.00 in0.0 mm
02:21 AM 47.1°F8.4°C 43.1°F6.2°C 86% 8.0 mph WSW12.9 kmh WSW 11.0 mph17.7 kmh 29.84 in1010.5 mb 0.00 in0.0 mm 0.00 in0.0 mm 0.00 in0.0 mm
02:22 AM 47.2°F8.4°C 43.2°F6.2°C 86% 8.0 mph WSW12.9 kmh WSW 11.0 mph17.7 kmh 29.84 in1010.5 mb 0.00 in0.0 mm 0.00 in0.0 mm 0.00 in0.0 mm
02:23 AM 47.2°F8.4°C 43.2°F6.2°C 86% 7.0 mph WSW11.3 kmh WSW 10.0 mph16.1 kmh 29.84 in1010.5 mb 0.00 in0.0 mm 0.00 in0.0 mm 0.00 in0.0 mm
02:24 AM 47.2°F8.4°C 42.9°F6.1°C 85% 7.0 mph WSW11.3 kmh WSW 9.0 mph14.5 kmh 29.84 in1010.5 mb 0.00 in0.0 mm 0.00 in0.0 mm 0.00 in0.0 mm
02:25 AM 47.3°F8.5°C 43.0°F6.1°C 85% 8.0 mph WSW12.9 kmh WSW 10.0 mph16.1 kmh 29.84 in1010.5 mb 0.00 in0.0 mm 0.00 in0.0 mm 0.00 in0.0 mm
02:26 AM 47.3°F8.5°C 43.0°F6.1°C 85% 7.0 mph WSW11.3 kmh WSW 10.0 mph16.1 kmh 29.84 in1010.5 mb 0.00 in0.0 mm 0.00 in0.0 mm 0.00 in0.0 mm
02:27 AM 47.3°F8.5°C 43.0°F6.1°C 85% 7.0 mph WSW11.3 kmh WSW 10.0 mph16.1 kmh 29.84 in1010.5 mb 0.00 in0.0 mm 0.00 in0.0 mm 0.00 in0.0 mm
02:28 AM 47.3°F8.5°C 43.0°F6.1°C 85% 8.0 mph WSW12.9 kmh WSW 10.0 mph16.1 kmh 29.84 in1010.5 mb 0.00 in0.0 mm 0.00 in0.0 mm 0.00 in0.0 mm
02:29 AM 47.4°F8.6°C 43.1°F6.2°C 85% 8.0 mph WSW12.9 kmh WSW 10.0 mph16.1 kmh 29.84 in1010.5 mb 0.00 in0.0 mm 0.00 in0.0 mm 0.00 in0.0 mm
02:30 AM 47.4°F8.6°C 43.0°F6.1°C 85% 8.0 mph WSW12.9 kmh WSW 10.0 mph16.1 kmh 29.84 in1010.5 mb 0.00 in0.0 mm 0.00 in0.0 mm 0.00 in0.0 mm
02:31 AM 47.5°F8.6°C 42.9°F6.1°C 84% 9.0 mph WSW14.5 kmh WSW 11.0 mph17.7 kmh 29.84 in1010.5 mb 0.00 in0.0 mm 0.00 in0.0 mm 0.00 in0.0 mm
02:32 AM 47.5°F8.6°C 42.9°F6.1°C 84% 9.0 mph WSW14.5 kmh WSW 11.0 mph17.7 kmh 29.84 in1010.5 mb 0.00 in0.0 mm 0.00 in0.0 mm 0.00 in0.0 mm
02:33 AM 47.6°F8.7°C 43.0°F6.1°C 84% 8.0 mph W12.9 kmh W 10.0 mph16.1 kmh 29.84 in1010.5 mb 0.00 in0.0 mm 0.00 in0.0 mm 0.00 in0.0 mm
02:34 AM 47.6°F8.7°C 43.0°F6.1°C 84% 7.0 mph WSW11.3 kmh WSW 9.0 mph14.5 kmh 29.84 in1010.5 mb 0.00 in0.0 mm 0.00 in0.0 mm 0.00 in0.0 mm
02:35 AM 47.6°F8.7°C 42.9°F6.1°C 84% 9.0 mph WSW14.5 kmh WSW 10.0 mph16.1 kmh 29.84 in1010.5 mb 0.00 in0.0 mm 0.00 in0.0 mm 0.00 in0.0 mm
02:36 AM 47.7°F8.7°C 42.8°F6.0°C 83% 8.0 mph W12.9 kmh W 12.0 mph19.3 kmh 29.84 in1010.5 mb 0.00 in0.0 mm 0.00 in0.0 mm 0.00 in0.0 mm
02:37 AM 47.7°F8.7°C 42.8°F6.0°C 83% 9.0 mph W14.5 kmh W 12.0 mph19.3 kmh 29.84 in1010.5 mb 0.00 in0.0 mm 0.00 in0.0 mm 0.00 in0.0 mm
02:38 AM 47.7°F8.7°C 42.8°F6.0°C 83% 8.0 mph W12.9 kmh W 11.0 mph17.7 kmh 29.84 in1010.5 mb 0.00 in0.0 mm 0.00 in0.0 mm 0.00 in0.0 mm
02:39 AM 47.7°F8.7°C 42.8°F6.0°C 83% 9.0 mph W14.5 kmh W 10.0 mph16.1 kmh 29.84 in1010.5 mb 0.00 in0.0 mm 0.00 in0.0 mm 0.00 in0.0 mm
02:40 AM 47.8°F8.8°C 42.6°F5.9°C 82% 9.0 mph W14.5 kmh W 10.0 mph16.1 kmh 29.84 in1010.5 mb 0.00 in0.0 mm 0.00 in0.0 mm 0.00 in0.0 mm
02:41 AM 47.8°F8.8°C 42.5°F5.8°C 82% 8.0 mph W12.9 kmh W 10.0 mph16.1 kmh 29.84 in1010.5 mb 0.00 in0.0 mm 0.00 in0.0 mm 0.00 in0.0 mm
02:42 AM 47.9°F8.8°C 42.3°F5.7°C 81% 8.0 mph W12.9 kmh W 10.0 mph16.1 kmh 29.84 in1010.5 mb 0.00 in0.0 mm 0.00 in0.0 mm 0.00 in0.0 mm
02:43 AM 47.9°F8.8°C 42.4°F5.8°C 81% 8.0 mph WNW12.9 kmh WNW 10.0 mph16.1 kmh 29.84 in1010.5 mb 0.00 in0.0 mm 0.00 in0.0 mm 0.00 in0.0 mm
02:44 AM 48.0°F8.9°C 42.4°F5.8°C 81% 8.0 mph WNW12.9 kmh WNW 10.0 mph16.1 kmh 29.84 in1010.5 mb 0.00 in0.0 mm 0.00 in0.0 mm 0.00 in0.0 mm
02:45 AM 48.0°F8.9°C 42.2°F5.7°C 80% 9.0 mph WNW14.5 kmh WNW 12.0 mph19.3 kmh 29.84 in1010.5 mb 0.00 in0.0 mm 0.00 in0.0 mm 0.00 in0.0 mm
02:46 AM 48.1°F8.9°C 42.2°F5.7°C 80% 5.0 mph WNW8.0 kmh WNW 12.0 mph19.3 kmh 29.84 in1010.5 mb 0.00 in0.0 mm 0.00 in0.0 mm 0.00 in0.0 mm
02:47 AM 48.2°F9.0°C 42.3°F5.7°C 80% 7.0 mph NW11.3 kmh NW 10.0 mph16.1 kmh 29.84 in1010.5 mb 0.00 in0.0 mm 0.00 in0.0 mm 0.00 in0.0 mm
02:48 AM 48.2°F9.0°C 42.2°F5.7°C 80% 8.0 mph WNW12.9 kmh WNW 10.0 mph16.1 kmh 29.84 in1010.5 mb 0.00 in0.0 mm 0.00 in0.0 mm 0.00 in0.0 mm
02:49 AM 48.3°F9.1°C 41.9°F5.5°C 78% 8.0 mph WNW12.9 kmh WNW 11.0 mph17.7 kmh 29.84 in1010.5 mb 0.00 in0.0 mm 0.00 in0.0 mm 0.00 in0.0 mm
02:50 AM 48.4°F9.1°C 41.9°F5.5°C 78% 7.0 mph NW11.3 kmh NW 11.0 mph17.7 kmh 29.83 in1010.2 mb 0.00 in0.0 mm 0.00 in0.0 mm 0.00 in0.0 mm
02:51 AM 48.5°F9.2°C 41.7°F5.4°C 77% 6.0 mph WNW9.7 kmh WNW 10.0 mph16.1 kmh 29.83 in1010.2 mb 0.00 in0.0 mm 0.00 in0.0 mm 0.00 in0.0 mm
02:52 AM 48.6°F9.2°C 41.7°F5.4°C 77% 6.0 mph WNW9.7 kmh WNW 10.0 mph16.1 kmh 29.84 in1010.5 mb 0.00 in0.0 mm 0.00 in0.0 mm 0.00 in0.0 mm
02:53 AM 48.7°F9.3°C 41.7°F5.4°C 77% 6.0 mph NW9.7 kmh NW 10.0 mph16.1 kmh 29.83 in1010.2 mb 0.00 in0.0 mm 0.00 in0.0 mm 0.00 in0.0 mm
02:54 AM 48.7°F9.3°C 41.5°F5.3°C 76% 8.0 mph WNW12.9 kmh WNW 12.0 mph19.3 kmh 29.83 in1010.2 mb 0.00 in0.0 mm 0.00 in0.0 mm 0.00 in0.0 mm
02:55 AM 48.8°F9.3°C 41.1°F5.1°C 75% 6.0 mph NW9.7 kmh NW 12.0 mph19.3 kmh 29.83 in1010.2 mb 0.00 in0.0 mm 0.00 in0.0 mm 0.00 in0.0 mm
02:56 AM 48.9°F9.4°C 41.0°F5.0°C 74% 6.0 mph NW9.7 kmh NW 11.0 mph17.7 kmh 29.83 in1010.2 mb 0.00 in0.0 mm 0.00 in0.0 mm 0.00 in0.0 mm
02:57 AM 49.0°F9.4°C 41.1°F5.1°C 74% 9.0 mph WNW14.5 kmh WNW 11.0 mph17.7 kmh 29.83 in1010.2 mb 0.00 in0.0 mm 0.00 in0.0 mm 0.00 in0.0 mm
02:58 AM 49.0°F9.4°C 41.0°F5.0°C 74% 7.0 mph WNW11.3 kmh WNW 11.0 mph17.7 kmh 29.83 in1010.2 mb 0.00 in0.0 mm 0.00 in0.0 mm 0.00 in0.0 mm
02:59 AM 49.1°F9.5°C 40.8°F4.9°C 73% 5.0 mph NW8.0 kmh NW 10.0 mph16.1 kmh 29.83 in1010.2 mb 0.00 in0.0 mm 0.00 in0.0 mm 0.00 in0.0 mm
03:00 AM 49.1°F9.5°C 40.7°F4.8°C 72% 8.0 mph NW12.9 kmh NW 11.0 mph17.7 kmh 29.83 in1010.2 mb 0.00 in0.0 mm 0.00 in0.0 mm 0.00 in0.0 mm
03:01 AM 49.2°F9.6°C 40.6°F4.8°C 72% 8.0 mph NW12.9 kmh NW 11.0 mph17.7 kmh 29.83 in1010.2 mb 0.00 in0.0 mm 0.00 in0.0 mm 0.00 in0.0 mm
03:02 AM 49.3°F9.6°C 40.3°F4.6°C 71% 9.0 mph NW14.5 kmh NW 10.0 mph16.1 kmh 29.83 in1010.2 mb 0.00 in0.0 mm 0.00 in0.0 mm 0.00 in0.0 mm
03:03 AM 49.3°F9.6°C 40.3°F4.6°C 71% 7.0 mph WNW11.3 kmh WNW 10.0 mph16.1 kmh 29.82 in1009.8 mb 0.00 in0.0 mm 0.00 in0.0 mm 0.00 in0.0 mm
03:04 AM 49.4°F9.7°C 39.9°F4.4°C 70% 7.0 mph NW11.3 kmh NW 10.0 mph16.1 kmh 29.82 in1009.8 mb 0.00 in0.0 mm 0.00 in0.0 mm 0.00 in0.0 mm
03:05 AM 49.5°F9.7°C 39.7°F4.3°C 69% 8.0 mph WNW12.9 kmh WNW 11.0 mph17.7 kmh 29.82 in1009.8 mb 0.00 in0.0 mm 0.00 in0.0 mm 0.00 in0.0 mm
03:06 AM 49.6°F9.8°C 39.6°F4.2°C 68% 5.0 mph WNW8.0 kmh WNW 11.0 mph17.7 kmh 29.82 in1009.8 mb 0.00 in0.0 mm 0.00 in0.0 mm 0.00 in0.0 mm
03:07 AM 49.7°F9.8°C 39.6°F4.2°C 68% 8.0 mph WNW12.9 kmh WNW 10.0 mph16.1 kmh 29.82 in1009.8 mb 0.00 in0.0 mm 0.00 in0.0 mm 0.00 in0.0 mm
03:08 AM 49.8°F9.9°C 39.0°F3.9°C 66% 7.0 mph NW11.3 kmh NW 10.0 mph16.1 kmh 29.82 in1009.8 mb 0.00 in0.0 mm 0.00 in0.0 mm 0.00 in0.0 mm
03:09 AM 49.9°F9.9°C 38.9°F3.8°C 66% 9.0 mph WNW14.5 kmh WNW 11.0 mph17.7 kmh 29.82 in1009.8 mb 0.00 in0.0 mm 0.00 in0.0 mm 0.00 in0.0 mm
03:10 AM 50.0°F10.0°C 38.7°F3.7°C 65% 8.0 mph NW12.9 kmh NW 11.0 mph17.7 kmh 29.82 in1009.8 mb 0.00 in0.0 mm 0.00 in0.0 mm 0.00 in0.0 mm
03:11 AM 50.1°F10.1°C 38.7°F3.7°C 65% 9.0 mph NW14.5 kmh NW 12.0 mph19.3 kmh 29.82 in1009.8 mb 0.00 in0.0 mm 0.00 in0.0 mm 0.00 in0.0 mm
03:12 AM 50.3°F10.2°C 38.3°F3.5°C 63% 9.0 mph NW14.5 kmh NW 13.0 mph20.9 kmh 29.82 in1009.8 mb 0.00 in0.0 mm 0.00 in0.0 mm 0.00 in0.0 mm
03:13 AM 50.4°F10.2°C 38.3°F3.5°C 63% 7.0 mph NW11.3 kmh NW 13.0 mph20.9 kmh 29.82 in1009.8 mb 0.00 in0.0 mm 0.00 in0.0 mm 0.00 in0.0 mm
03:14 AM 50.4°F10.2°C 37.6°F3.1°C 61% 8.0 mph WNW12.9 kmh WNW 12.0 mph19.3 kmh 29.82 in1009.8 mb 0.00 in0.0 mm 0.00 in0.0 mm 0.00 in0.0 mm
03:15 AM 50.6°F10.3°C 37.1°F2.8°C 60% 9.0 mph WNW14.5 kmh WNW 14.0 mph22.5 kmh 29.82 in1009.8 mb 0.00 in0.0 mm 0.00 in0.0 mm 0.00 in0.0 mm
03:16 AM 50.8°F10.4°C 36.7°F2.6°C 58% 8.0 mph WNW12.9 kmh WNW 14.0 mph22.5 kmh 29.82 in1009.8 mb 0.00 in0.0 mm 0.00 in0.0 mm 0.00 in0.0 mm
03:17 AM 51.0°F10.6°C 36.8°F2.7°C 58% 8.0 mph WNW12.9 kmh WNW 10.0 mph16.1 kmh 29.82 in1009.8 mb 0.00 in0.0 mm 0.00 in0.0 mm 0.00 in0.0 mm
03:18 AM 51.1°F10.6°C 36.2°F2.3°C 56% 8.0 mph WNW12.9 kmh WNW 12.0 mph19.3 kmh 29.82 in1009.8 mb 0.00 in0.0 mm 0.00 in0.0 mm 0.00 in0.0 mm
03:19 AM 51.3°F10.7°C 36.1°F2.3°C 56% 6.0 mph WNW9.7 kmh WNW 11.0 mph17.7 kmh 29.82 in1009.8 mb 0.00 in0.0 mm 0.00 in0.0 mm 0.00 in0.0 mm
03:20 AM 51.4°F10.8°C 35.8°F2.1°C 55% 8.0 mph WNW12.9 kmh WNW 10.0 mph16.1 kmh 29.82 in1009.8 mb 0.00 in0.0 mm 0.00 in0.0 mm 0.00 in0.0 mm
03:21 AM 51.5°F10.8°C 35.4°F1.9°C 54% 7.0 mph WNW11.3 kmh WNW 10.0 mph16.1 kmh 29.82 in1009.8 mb 0.00 in0.0 mm 0.00 in0.0 mm 0.00 in0.0 mm
03:22 AM 51.6°F10.9°C 35.4°F1.9°C 54% 7.0 mph WNW11.3 kmh WNW 9.0 mph14.5 kmh 29.82 in1009.8 mb 0.00 in0.0 mm 0.00 in0.0 mm 0.00 in0.0 mm
03:23 AM 51.8°F11.0°C 35.2°F1.8°C 53% 8.0 mph WNW12.9 kmh WNW 11.0 mph17.7 kmh 29.82 in1009.8 mb 0.00 in0.0 mm 0.00 in0.0 mm 0.00 in0.0 mm
03:24 AM 51.9°F11.1°C 35.0°F1.7°C 52% 6.0 mph WNW9.7 kmh WNW 11.0 mph17.7 kmh 29.82 in1009.8 mb 0.00 in0.0 mm 0.00 in0.0 mm 0.00 in0.0 mm
03:25 AM 52.0°F11.1°C 35.3°F1.8°C 53% 4.0 mph WNW6.4 kmh WNW 10.0 mph16.1 kmh 29.82 in1009.8 mb 0.00 in0.0 mm 0.00 in0.0 mm 0.00 in0.0 mm
03:26 AM 52.0°F11.1°C 34.5°F1.4°C 51% 3.0 mph WNW4.8 kmh WNW 7.0 mph11.3 kmh 29.82 in1009.8 mb 0.00 in0.0 mm 0.00 in0.0 mm 0.00 in0.0 mm
03:27 AM 52.0°F11.1°C 35.0°F1.7°C 52% 1.0 mph WNW1.6 kmh WNW 7.0 mph11.3 kmh 29.82 in1009.8 mb 0.00 in0.0 mm 0.00 in0.0 mm 0.00 in0.0 mm
03:28 AM 52.1°F11.2°C 35.0°F1.7°C 52% 2.0 mph WNW3.2 kmh WNW 3.0 mph4.8 kmh 29.82 in1009.8 mb 0.00 in0.0 mm 0.00 in0.0 mm 0.00 in0.0 mm
03:29 AM 52.1°F11.2°C 34.8°F1.6°C 52% 2.0 mph WNW3.2 kmh WNW 3.0 mph4.8 kmh 29.82 in1009.8 mb 0.00 in0.0 mm 0.00 in0.0 mm 0.00 in0.0 mm
03:30 AM 52.1°F11.2°C 34.5°F1.4°C 51% 2.0 mph WNW3.2 kmh WNW 3.0 mph4.8 kmh 29.82 in1009.8 mb 0.00 in0.0 mm 0.00 in0.0 mm 0.00 in0.0 mm
03:31 AM 52.1°F11.2°C 34.5°F1.4°C 51% 3.0 mph WNW4.8 kmh WNW 5.0 mph8.0 kmh 29.82 in1009.8 mb 0.00 in0.0 mm 0.00 in0.0 mm 0.00 in0.0 mm
03:32 AM 52.1°F11.2°C 34.1°F1.2°C 50% 2.0 mph WNW3.2 kmh WNW 5.0 mph8.0 kmh 29.82 in1009.8 mb 0.00 in0.0 mm 0.00 in0.0 mm 0.00 in0.0 mm
03:33 AM 52.1°F11.2°C 34.0°F1.1°C 50% 2.0 mph WNW3.2 kmh WNW 3.0 mph4.8 kmh 29.82 in1009.8 mb 0.00 in0.0 mm 0.00 in0.0 mm 0.00 in0.0 mm
03:34 AM 52.1°F11.2°C 34.0°F1.1°C 50% 3.0 mph WNW4.8 kmh WNW 4.0 mph6.4 kmh 29.82 in1009.8 mb 0.00 in0.0 mm 0.00 in0.0 mm 0.00 in0.0 mm
03:35 AM 52.1°F11.2°C 34.0°F1.1°C 50% 3.0 mph WNW4.8 kmh WNW 4.0 mph6.4 kmh 29.82 in1009.8 mb 0.00 in0.0 mm 0.00 in0.0 mm 0.00 in0.0 mm
03:36 AM 52.1°F11.2°C 34.0°F1.1°C 50% 2.0 mph W3.2 kmh W 4.0 mph6.4 kmh 29.82 in1009.8 mb 0.00 in0.0 mm 0.00 in0.0 mm 0.00 in0.0 mm
03:37 AM 52.0°F11.1°C 34.0°F1.1°C 50% 2.0 mph W3.2 kmh W 4.0 mph6.4 kmh 29.82 in1009.8 mb 0.00 in0.0 mm 0.00 in0.0 mm 0.00 in0.0 mm
03:38 AM 52.1°F11.2°C 34.0°F1.1°C 50% 2.0 mph W3.2 kmh W 3.0 mph4.8 kmh 29.82 in1009.8 mb 0.00 in0.0 mm 0.00 in0.0 mm 0.00 in0.0 mm
03:39 AM 52.0°F11.1°C 33.8°F1.0°C 50% 2.0 mph W3.2 kmh W 3.0 mph4.8 kmh 29.82 in1009.8 mb 0.00 in0.0 mm 0.00 in0.0 mm 0.00 in0.0 mm
03:40 AM 52.0°F11.1°C 33.8°F1.0°C 50% 1.0 mph W1.6 kmh W 3.0 mph4.8 kmh 29.82 in1009.8 mb 0.00 in0.0 mm 0.00 in0.0 mm 0.00 in0.0 mm
03:41 AM 52.0°F11.1°C 35.2°F1.8°C 53% 1.0 mph W1.6 kmh W 2.0 mph3.2 kmh 29.82 in1009.8 mb 0.00 in0.0 mm 0.00 in0.0 mm 0.00 in0.0 mm
03:42 AM 52.0°F11.1°C 36.2°F2.3°C 55% 2.0 mph W3.2 kmh W 3.0 mph4.8 kmh 29.82 in1009.8 mb 0.00 in0.0 mm 0.00 in0.0 mm 0.00 in0.0 mm
03:43 AM 51.9°F11.1°C 36.2°F2.3°C 55% 2.0 mph W3.2 kmh W 3.0 mph4.8 kmh 29.82 in1009.8 mb 0.00 in0.0 mm 0.00 in0.0 mm 0.00 in0.0 mm
03:44 AM 51.7°F10.9°C 36.6°F2.6°C 56% 3.0 mph SSW4.8 kmh SSW 4.0 mph6.4 kmh 29.82 in1009.8 mb 0.00 in0.0 mm 0.00 in0.0 mm 0.00 in0.0 mm
03:45 AM 51.6°F10.9°C 36.9°F2.7°C 57% 3.0 mph S4.8 kmh S 4.0 mph6.4 kmh 29.82 in1009.8 mb 0.00 in0.0 mm 0.00 in0.0 mm 0.00 in0.0 mm
03:46 AM 51.3°F10.7°C 37.4°F3.0°C 59% 4.0 mph S6.4 kmh S 5.0 mph8.0 kmh 29.81 in1009.5 mb 0.00 in0.0 mm 0.00 in0.0 mm 0.00 in0.0 mm
03:47 AM 51.0°F10.6°C 37.8°F3.2°C 61% 2.0 mph S3.2 kmh S 5.0 mph8.0 kmh 29.82 in1009.8 mb 0.00 in0.0 mm 0.00 in0.0 mm 0.00 in0.0 mm
03:48 AM 50.7°F10.4°C 38.0°F3.3°C 62% 3.0 mph S4.8 kmh S 5.0 mph8.0 kmh 29.82 in1009.8 mb 0.00 in0.0 mm 0.00 in0.0 mm 0.00 in0.0 mm
03:49 AM 50.3°F10.2°C 38.1°F3.4°C 63% 4.0 mph S6.4 kmh S 5.0 mph8.0 kmh 29.82 in1009.8 mb 0.00 in0.0 mm 0.00 in0.0 mm 0.00 in0.0 mm
03:50 AM 49.9°F9.9°C 37.8°F3.2°C 63% 4.0 mph S6.4 kmh S 6.0 mph9.7 kmh 29.82 in1009.8 mb 0.00 in0.0 mm 0.00 in0.0 mm 0.00 in0.0 mm
03:51 AM 49.5°F9.7°C 37.5°F3.1°C 63% 5.0 mph S8.0 kmh S 6.0 mph9.7 kmh 29.82 in1009.8 mb 0.00 in0.0 mm 0.00 in0.0 mm 0.00 in0.0 mm
03:52 AM 49.2°F9.6°C 37.6°F3.1°C 64% 4.0 mph S6.4 kmh S 6.0 mph9.7 kmh 29.82 in1009.8 mb 0.00 in0.0 mm 0.00 in0.0 mm 0.00 in0.0 mm
03:53 AM 49.0°F9.4°C 37.3°F2.9°C 64% 4.0 mph S6.4 kmh S 6.0 mph9.7 kmh 29.82 in1009.8 mb 0.00 in0.0 mm 0.00 in0.0 mm 0.00 in0.0 mm
03:54 AM 48.8°F9.3°C 37.5°F3.1°C 65% 4.0 mph S6.4 kmh S 6.0 mph9.7 kmh 29.82 in1009.8 mb 0.00 in0.0 mm 0.00 in0.0 mm 0.00 in0.0 mm
03:55 AM 48.6°F9.2°C 37.4°F3.0°C 65% 5.0 mph S8.0 kmh S 6.0 mph9.7 kmh 29.82 in1009.8 mb 0.00 in0.0 mm 0.00 in0.0 mm 0.00 in0.0 mm
03:56 AM 48.5°F9.2°C 37.2°F2.9°C 65% 5.0 mph S8.0 kmh S 6.0 mph9.7 kmh 29.82 in1009.8 mb 0.00 in0.0 mm 0.00 in0.0 mm 0.00 in0.0 mm
03:57 AM 48.3°F9.1°C 37.1°F2.8°C 65% 4.0 mph S6.4 kmh S 6.0 mph9.7 kmh 29.82 in1009.8 mb 0.00 in0.0 mm 0.00 in0.0 mm 0.00 in0.0 mm
03:58 AM 48.3°F9.1°C 37.0°F2.8°C 65% 5.0 mph S8.0 kmh S 6.0 mph9.7 kmh 29.82 in1009.8 mb 0.00 in0.0 mm 0.00 in0.0 mm 0.00 in0.0 mm
03:59 AM 48.2°F9.0°C 37.0°F2.8°C 65% 4.0 mph S6.4 kmh S 6.0 mph9.7 kmh 29.82 in1009.8 mb 0.00 in0.0 mm 0.00 in0.0 mm 0.00 in0.0 mm
04:00 AM 48.1°F8.9°C 36.9°F2.7°C 65% 4.0 mph S6.4 kmh S 5.0 mph8.0 kmh 29.82 in1009.8 mb 0.00 in0.0 mm 0.00 in0.0 mm 0.00 in0.0 mm
04:01 AM 48.1°F8.9°C 36.9°F2.7°C 65% 4.0 mph S6.4 kmh S 5.0 mph8.0 kmh 29.82 in1009.8 mb 0.00 in0.0 mm 0.00 in0.0 mm 0.00 in0.0 mm
04:02 AM 48.1°F8.9°C 36.9°F2.7°C 65% 4.0 mph S6.4 kmh S 6.0 mph9.7 kmh 29.82 in1009.8 mb 0.00 in0.0 mm 0.00 in0.0 mm 0.00 in0.0 mm
04:03 AM 48.1°F8.9°C 36.8°F2.7°C 65% 3.0 mph S4.8 kmh S 6.0 mph9.7 kmh 29.82 in1009.8 mb 0.00 in0.0 mm 0.00 in0.0 mm 0.00 in0.0 mm
04:04 AM 48.1°F8.9°C 36.5°F2.5°C 64% 4.0 mph S6.4 kmh S 6.0 mph9.7 kmh 29.82 in1009.8 mb 0.00 in0.0 mm 0.00 in0.0 mm 0.00 in0.0 mm
04:05 AM 48.2°F9.0°C 36.8°F2.7°C 65% 4.0 mph S6.4 kmh S 6.0 mph9.7 kmh 29.82 in1009.8 mb 0.00 in0.0 mm 0.00 in0.0 mm 0.00 in0.0 mm
04:06 AM 48.3°F9.1°C 36.8°F2.7°C 64% 5.0 mph S8.0 kmh S 7.0 mph11.3 kmh 29.82 in1009.8 mb 0.00 in0.0 mm 0.00 in0.0 mm 0.00 in0.0 mm
04:07 AM 48.4°F9.1°C 36.4°F2.4°C 63% 5.0 mph S8.0 kmh S 7.0 mph11.3 kmh 29.82 in1009.8 mb 0.00 in0.0 mm 0.00 in0.0 mm 0.00 in0.0 mm
04:08 AM 48.5°F9.2°C 36.3°F2.4°C 63% 5.0 mph SSW8.0 kmh SSW 6.0 mph9.7 kmh 29.82 in1009.8 mb 0.00 in0.0 mm 0.00 in0.0 mm 0.00 in0.0 mm
04:09 AM 48.6°F9.2°C 36.0°F2.2°C 62% 4.0 mph S6.4 kmh S 6.0 mph9.7 kmh 29.82 in1009.8 mb 0.00 in0.0 mm 0.00 in0.0 mm 0.00 in0.0 mm
04:10 AM 48.7°F9.3°C 35.8°F2.1°C 61% 5.0 mph S8.0 kmh S 6.0 mph9.7 kmh 29.82 in1009.8 mb 0.00 in0.0 mm 0.00 in0.0 mm 0.00 in0.0 mm
04:11 AM 48.8°F9.3°C 36.0°F2.2°C 61% 4.0 mph S6.4 kmh S 6.0 mph9.7 kmh 29.82 in1009.8 mb 0.00 in0.0 mm 0.00 in0.0 mm 0.00 in0.0 mm
04:12 AM 48.9°F9.4°C 36.0°F2.2°C 61% 5.0 mph SSW8.0 kmh SSW 6.0 mph9.7 kmh 29.82 in1009.8 mb 0.00 in0.0 mm 0.00 in0.0 mm 0.00 in0.0 mm
04:13 AM 49.0°F9.4°C 35.8°F2.1°C 60% 4.0 mph S6.4 kmh S 6.0 mph9.7 kmh 29.82 in1009.8 mb 0.00 in0.0 mm 0.00 in0.0 mm 0.00 in0.0 mm
04:14 AM 49.1°F9.5°C 36.2°F2.3°C 61% 3.0 mph S4.8 kmh S 6.0 mph9.7 kmh 29.82 in1009.8 mb 0.00 in0.0 mm 0.00 in0.0 mm 0.00 in0.0 mm
04:15 AM 49.1°F9.5°C 36.2°F2.3°C 61% 3.0 mph S4.8 kmh S 5.0 mph8.0 kmh 29.82 in1009.8 mb 0.00 in0.0 mm 0.00 in0.0 mm 0.00 in0.0 mm
04:16 AM 49.1°F9.5°C 36.1°F2.3°C 60% 4.0 mph SSW6.4 kmh SSW 6.0 mph9.7 kmh 29.82 in1009.8 mb 0.00 in0.0 mm 0.00 in0.0 mm 0.00 in0.0 mm
04:17 AM 49.2°F9.6°C 35.9°F2.2°C 60% 4.0 mph S6.4 kmh S 6.0 mph9.7 kmh 29.82 in1009.8 mb 0.00 in0.0 mm 0.00 in0.0 mm 0.00 in0.0 mm
04:18 AM 49.2°F9.6°C 35.9°F2.2°C 60% 2.0 mph S3.2 kmh S 5.0 mph8.0 kmh 29.82 in1009.8 mb 0.00 in0.0 mm 0.00 in0.0 mm 0.00 in0.0 mm
04:19 AM 49.2°F9.6°C 36.2°F2.3°C 61% 3.0 mph S4.8 kmh S 4.0 mph6.4 kmh 29.82 in1009.8 mb 0.00 in0.0 mm 0.00 in0.0 mm 0.00 in0.0 mm
04:20 AM 49.3°F9.6°C 35.1°F1.7°C 58% 4.0 mph SW6.4 kmh SW 5.0 mph8.0 kmh 29.82 in1009.8 mb 0.00 in0.0 mm 0.00 in0.0 mm 0.00 in0.0 mm
04:21 AM 49.4°F9.7°C 35.0°F1.7°C 58% 4.0 mph SSW6.4 kmh SSW 6.0 mph9.7 kmh 29.82 in1009.8 mb 0.00 in0.0 mm 0.00 in0.0 mm 0.00 in0.0 mm
04:22 AM 49.5°F9.7°C 34.7°F1.5°C 56% 4.0 mph SW6.4 kmh SW 6.0 mph9.7 kmh 29.82 in1009.8 mb 0.00 in0.0 mm 0.00 in0.0 mm 0.00 in0.0 mm
04:23 AM 49.7°F9.8°C 34.6°F1.4°C 56% 4.0 mph SW6.4 kmh SW 5.0 mph8.0 kmh 29.82 in1009.8 mb 0.00 in0.0 mm 0.00 in0.0 mm 0.00 in0.0 mm
04:24 AM 49.9°F9.9°C 34.4°F1.3°C 55% 4.0 mph SW6.4 kmh SW 5.0 mph8.0 kmh 29.83 in1010.2 mb 0.00 in0.0 mm 0.00 in0.0 mm 0.00 in0.0 mm
04:25 AM 50.1°F10.1°C 35.0°F1.7°C 56% 5.0 mph SW8.0 kmh SW 6.0 mph9.7 kmh 29.83 in1010.2 mb 0.00 in0.0 mm 0.00 in0.0 mm 0.00 in0.0 mm
04:26 AM 50.1°F10.1°C 35.2°F1.8°C 56% 5.0 mph SW8.0 kmh SW 6.0 mph9.7 kmh 29.83 in1010.2 mb 0.00 in0.0 mm 0.00 in0.0 mm 0.00 in0.0 mm
04:27 AM 50.1°F10.1°C 35.5°F1.9°C 57% 4.0 mph SW6.4 kmh SW 6.0 mph9.7 kmh 29.83 in1010.2 mb 0.00 in0.0 mm 0.00 in0.0 mm 0.00 in0.0 mm
04:28 AM 50.1°F10.1°C 35.4°F1.9°C 57% 4.0 mph SW6.4 kmh SW 5.0 mph8.0 kmh 29.83 in1010.2 mb 0.00 in0.0 mm 0.00 in0.0 mm 0.00 in0.0 mm
04:29 AM 50.0°F10.0°C 35.4°F1.9°C 57% 5.0 mph SW8.0 kmh SW 5.0 mph8.0 kmh 29.83 in1010.2 mb 0.00 in0.0 mm 0.00 in0.0 mm 0.00 in0.0 mm
04:30 AM 49.9°F9.9°C 35.3°F1.8°C 57% 5.0 mph SW8.0 kmh SW 5.0 mph8.0 kmh 29.83 in1010.2 mb 0.00 in0.0 mm 0.00 in0.0 mm 0.00 in0.0 mm
04:31 AM 50.0°F10.0°C 34.9°F1.6°C 56% 3.0 mph SW4.8 kmh SW 5.0 mph8.0 kmh 29.83 in1010.2 mb 0.00 in0.0 mm 0.00 in0.0 mm 0.00 in0.0 mm
04:32 AM 50.0°F10.0°C 35.1°F1.7°C 56% 2.0 mph SW3.2 kmh SW 4.0 mph6.4 kmh 29.83 in1010.2 mb 0.00 in0.0 mm 0.00 in0.0 mm 0.00 in0.0 mm
04:33 AM 50.1°F10.1°C 35.3°F1.8°C 57% 2.0 mph SW3.2 kmh SW 3.0 mph4.8 kmh 29.83 in1010.2 mb 0.00 in0.0 mm 0.00 in0.0 mm 0.00 in0.0 mm
04:34 AM 50.1°F10.1°C 34.5°F1.4°C 55% 2.0 mph SW3.2 kmh SW 3.0 mph4.8 kmh 29.83 in1010.2 mb 0.00 in0.0 mm 0.00 in0.0 mm 0.00 in0.0 mm
04:35 AM 50.1°F10.1°C 33.8°F1.0°C 53% 3.0 mph SW4.8 kmh SW 4.0 mph6.4 kmh 29.83 in1010.2 mb 0.00 in0.0 mm 0.00 in0.0 mm 0.00 in0.0 mm
04:36 AM 50.2°F10.1°C 33.3°F0.7°C 52% 3.0 mph SW4.8 kmh SW 5.0 mph8.0 kmh 29.83 in1010.2 mb 0.00 in0.0 mm 0.00 in0.0 mm 0.00 in0.0 mm
04:37 AM 50.4°F10.2°C 33.0°F0.6°C 51% 3.0 mph SW4.8 kmh SW 5.0 mph8.0 kmh 29.83 in1010.2 mb 0.00 in0.0 mm 0.00 in0.0 mm 0.00 in0.0 mm
04:38 AM 50.7°F10.4°C 32.7°F0.4°C 50% 4.0 mph SW6.4 kmh SW 4.0 mph6.4 kmh 29.83 in1010.2 mb 0.00 in0.0 mm 0.00 in0.0 mm 0.00 in0.0 mm
04:39 AM 51.1°F10.6°C 31.6°F-0.2°C 47% 4.0 mph SW6.4 kmh SW 5.0 mph8.0 kmh 29.83 in1010.2 mb 0.00 in0.0 mm 0.00 in0.0 mm 0.00 in0.0 mm
04:40 AM 51.4°F10.8°C 32.3°F0.2°C 48% 4.0 mph SW6.4 kmh SW 5.0 mph8.0 kmh 29.83 in1010.2 mb 0.00 in0.0 mm 0.00 in0.0 mm 0.00 in0.0 mm
04:41 AM 51.5°F10.8°C 33.4°F0.8°C 50% 4.0 mph SW6.4 kmh SW 5.0 mph8.0 kmh 29.83 in1010.2 mb 0.00 in0.0 mm 0.00 in0.0 mm 0.00 in0.0 mm
04:42 AM 51.6°F10.9°C 33.1°F0.6°C 49% 5.0 mph SW8.0 kmh SW 5.0 mph8.0 kmh 29.83 in1010.2 mb 0.00 in0.0 mm 0.00 in0.0 mm 0.00 in0.0 mm
04:43 AM 51.6°F10.9°C 33.2°F0.7°C 49% 4.0 mph SW6.4 kmh SW 5.0 mph8.0 kmh 29.83 in1010.2 mb 0.00 in0.0 mm 0.00 in0.0 mm 0.00 in0.0 mm
04:44 AM 51.4°F10.8°C 34.1°F1.2°C 51% 5.0 mph SW8.0 kmh SW 6.0 mph9.7 kmh 29.83 in1010.2 mb 0.00 in0.0 mm 0.00 in0.0 mm 0.00 in0.0 mm
04:45 AM 51.2°F10.7°C 34.4°F1.3°C 52% 4.0 mph SW6.4 kmh SW 6.0 mph9.7 kmh 29.83 in1010.2 mb 0.00 in0.0 mm 0.00 in0.0 mm 0.00 in0.0 mm
04:46 AM 51.0°F10.6°C 34.8°F1.6°C 54% 3.0 mph SW4.8 kmh SW 5.0 mph8.0 kmh 29.83 in1010.2 mb 0.00 in0.0 mm 0.00 in0.0 mm 0.00 in0.0 mm
04:47 AM 50.8°F10.4°C 34.4°F1.3°C 53% 4.0 mph SW6.4 kmh SW 5.0 mph8.0 kmh 29.84 in1010.5 mb 0.00 in0.0 mm 0.00 in0.0 mm 0.00 in0.0 mm
04:48 AM 50.7°F10.4°C 34.1°F1.2°C 53% 5.0 mph WSW8.0 kmh WSW 7.0 mph11.3 kmh 29.83 in1010.2 mb 0.00 in0.0 mm 0.00 in0.0 mm 0.00 in0.0 mm
04:49 AM 50.6°F10.3°C 33.4°F0.8°C 51% 3.0 mph WSW4.8 kmh WSW 7.0 mph11.3 kmh 29.83 in1010.2 mb 0.00 in0.0 mm 0.00 in0.0 mm 0.00 in0.0 mm
04:50 AM 50.6°F10.3°C 34.1°F1.2°C 53% 3.0 mph WSW4.8 kmh WSW 4.0 mph6.4 kmh 29.84 in1010.5 mb 0.00 in0.0 mm 0.00 in0.0 mm 0.00 in0.0 mm
04:51 AM 50.5°F10.3°C 33.8°F1.0°C 53% 3.0 mph WSW4.8 kmh WSW 4.0 mph6.4 kmh 29.84 in1010.5 mb 0.00 in0.0 mm 0.00 in0.0 mm 0.00 in0.0 mm
04:52 AM 50.5°F10.3°C 33.5°F0.8°C 52% 3.0 mph WSW4.8 kmh WSW 5.0 mph8.0 kmh 29.84 in1010.5 mb 0.00 in0.0 mm 0.00 in0.0 mm 0.00 in0.0 mm
04:53 AM 50.5°F10.3°C 34.3°F1.3°C 54% 6.0 mph WSW9.7 kmh WSW 9.0 mph14.5 kmh 29.84 in1010.5 mb 0.00 in0.0 mm 0.00 in0.0 mm 0.00 in0.0 mm
04:54 AM 50.4°F10.2°C 33.9°F1.1°C 53% 6.0 mph SW9.7 kmh SW 10.0 mph16.1 kmh 29.84 in1010.5 mb 0.00 in0.0 mm 0.00 in0.0 mm 0.00 in0.0 mm
04:55 AM 50.2°F10.1°C 34.4°F1.3°C 54% 4.0 mph WSW6.4 kmh WSW 10.0 mph16.1 kmh 29.84 in1010.5 mb 0.00 in0.0 mm 0.00 in0.0 mm 0.00 in0.0 mm
04:56 AM 50.1°F10.1°C 34.7°F1.5°C 55% 4.0 mph W6.4 kmh W 6.0 mph9.7 kmh 29.84 in1010.5 mb 0.00 in0.0 mm 0.00 in0.0 mm 0.00 in0.0 mm
04:57 AM 49.9°F9.9°C 35.1°F1.7°C 57% 4.0 mph W6.4 kmh W 6.0 mph9.7 kmh 29.84 in1010.5 mb 0.00 in0.0 mm 0.00 in0.0 mm 0.00 in0.0 mm
04:58 AM 49.7°F9.8°C 35.1°F1.7°C 57% 4.0 mph W6.4 kmh W 6.0 mph9.7 kmh 29.84 in1010.5 mb 0.00 in0.0 mm 0.00 in0.0 mm 0.00 in0.0 mm
04:59 AM 49.5°F9.7°C 34.9°F1.6°C 57% 5.0 mph WSW8.0 kmh WSW 7.0 mph11.3 kmh 29.84 in1010.5 mb 0.00 in0.0 mm 0.00 in0.0 mm 0.00 in0.0 mm
05:00 AM 49.3°F9.6°C 34.8°F1.6°C 57% 4.0 mph WSW6.4 kmh WSW 7.0 mph11.3 kmh 29.84 in1010.5 mb 0.00 in0.0 mm 0.00 in0.0 mm 0.00 in0.0 mm
05:01 AM 49.1°F9.5°C 35.0°F1.7°C 58% 4.0 mph WSW6.4 kmh WSW 5.0 mph8.0 kmh 29.84 in1010.5 mb 0.00 in0.0 mm 0.00 in0.0 mm 0.00 in0.0 mm
05:02 AM 49.0°F9.4°C 35.0°F1.7°C 58% 5.0 mph WSW8.0 kmh WSW 7.0 mph11.3 kmh 29.84 in1010.5 mb 0.00 in0.0 mm 0.00 in0.0 mm 0.00 in0.0 mm
05:03 AM 48.8°F9.3°C 35.1°F1.7°C 59% 6.0 mph WSW9.7 kmh WSW 8.0 mph12.9 kmh 29.84 in1010.5 mb 0.00 in0.0 mm 0.00 in0.0 mm 0.00 in0.0 mm
05:04 AM 48.6°F9.2°C 35.0°F1.7°C 59% 5.0 mph W8.0 kmh W 8.0 mph12.9 kmh 29.84 in1010.5 mb 0.00 in0.0 mm 0.00 in0.0 mm 0.00 in0.0 mm
05:05 AM 48.5°F9.2°C 35.2°F1.8°C 60% 4.0 mph W6.4 kmh W 6.0 mph9.7 kmh 29.84 in1010.5 mb 0.00 in0.0 mm 0.00 in0.0 mm 0.00 in0.0 mm
05:06 AM 48.4°F9.1°C 35.2°F1.8°C 60% 5.0 mph WSW8.0 kmh WSW 7.0 mph11.3 kmh 29.84 in1010.5 mb 0.00 in0.0 mm 0.00 in0.0 mm 0.00 in0.0 mm
05:07 AM 48.3°F9.1°C 35.0°F1.7°C 60% 5.0 mph WSW8.0 kmh WSW 7.0 mph11.3 kmh 29.84 in1010.5 mb 0.00 in0.0 mm 0.00 in0.0 mm 0.00 in0.0 mm
05:08 AM 48.2°F9.0°C 35.0°F1.7°C 60% 4.0 mph W6.4 kmh W 7.0 mph11.3 kmh 29.84 in1010.5 mb 0.00 in0.0 mm 0.00 in0.0 mm 0.00 in0.0 mm
05:09 AM 48.2°F9.0°C 34.7°F1.5°C 59% 5.0 mph W8.0 kmh W 7.0 mph11.3 kmh 29.84 in1010.5 mb 0.00 in0.0 mm 0.00 in0.0 mm 0.00 in0.0 mm
05:10 AM 48.3°F9.1°C 34.6°F1.4°C 59% 6.0 mph W9.7 kmh W 10.0 mph16.1 kmh 29.84 in1010.5 mb 0.00 in0.0 mm 0.00 in0.0 mm 0.00 in0.0 mm
05:11 AM 48.3°F9.1°C 34.7°F1.5°C 59% 8.0 mph WNW12.9 kmh WNW 10.0 mph16.1 kmh 29.84 in1010.5 mb 0.00 in0.0 mm 0.00 in0.0 mm 0.00 in0.0 mm
05:12 AM 48.5°F9.2°C 33.5°F0.8°C 56% 7.0 mph WNW11.3 kmh WNW 10.0 mph16.1 kmh 29.84 in1010.5 mb 0.00 in0.0 mm 0.00 in0.0 mm 0.00 in0.0 mm
05:13 AM 48.7°F9.3°C 33.7°F0.9°C 56% 7.0 mph WNW11.3 kmh WNW 9.0 mph14.5 kmh 29.84 in1010.5 mb 0.00 in0.0 mm 0.00 in0.0 mm 0.00 in0.0 mm
05:14 AM 48.9°F9.4°C 33.9°F1.1°C 56% 5.0 mph WNW8.0 kmh WNW 9.0 mph14.5 kmh 29.84 in1010.5 mb 0.00 in0.0 mm 0.00 in0.0 mm 0.00 in0.0 mm
05:15 AM 49.0°F9.4°C 34.0°F1.1°C 56% 7.0 mph NW11.3 kmh NW 10.0 mph16.1 kmh 29.84 in1010.5 mb 0.00 in0.0 mm 0.00 in0.0 mm 0.00 in0.0 mm
05:16 AM 49.2°F9.6°C 33.5°F0.8°C 55% 9.0 mph WNW14.5 kmh WNW 11.0 mph17.7 kmh 29.84 in1010.5 mb 0.00 in0.0 mm 0.00 in0.0 mm 0.00 in0.0 mm
05:17 AM 49.4°F9.7°C 32.1°F0.1°C 51% 7.0 mph WNW11.3 kmh WNW 11.0 mph17.7 kmh 29.84 in1010.5 mb 0.00 in0.0 mm 0.00 in0.0 mm 0.00 in0.0 mm
05:18 AM 49.7°F9.8°C 31.8°F-0.1°C 50% 4.0 mph NW6.4 kmh NW 11.0 mph17.7 kmh 29.84 in1010.5 mb 0.00 in0.0 mm 0.00 in0.0 mm 0.00 in0.0 mm
05:19 AM 50.0°F10.0°C 32.1°F0.1°C 50% 5.0 mph NW8.0 kmh NW 8.0 mph12.9 kmh 29.85 in1010.8 mb 0.00 in0.0 mm 0.00 in0.0 mm 0.00 in0.0 mm
05:20 AM 50.2°F10.1°C 32.1°F0.1°C 50% 5.0 mph WNW8.0 kmh WNW 8.0 mph12.9 kmh 29.84 in1010.5 mb 0.00 in0.0 mm 0.00 in0.0 mm 0.00 in0.0 mm
05:21 AM 50.4°F10.2°C 32.5°F0.3°C 50% 7.0 mph NW11.3 kmh NW 11.0 mph17.7 kmh 29.84 in1010.5 mb 0.00 in0.0 mm 0.00 in0.0 mm 0.00 in0.0 mm
05:22 AM 50.5°F10.3°C 31.9°F-0.1°C 49% 8.0 mph NW12.9 kmh NW 11.0 mph17.7 kmh 29.85 in1010.8 mb 0.00 in0.0 mm 0.00 in0.0 mm 0.00 in0.0 mm
05:23 AM 50.7°F10.4°C 30.8°F-0.7°C 46% 7.0 mph WNW11.3 kmh WNW 11.0 mph17.7 kmh 29.84 in1010.5 mb 0.00 in0.0 mm 0.00 in0.0 mm 0.00 in0.0 mm
05:24 AM 51.0°F10.6°C 30.9°F-0.6°C 46% 5.0 mph NW8.0 kmh NW 10.0 mph16.1 kmh 29.85 in1010.8 mb 0.00 in0.0 mm 0.00 in0.0 mm 0.00 in0.0 mm
05:25 AM 51.2°F10.7°C 31.1°F-0.5°C 46% 5.0 mph WNW8.0 kmh WNW 9.0 mph14.5 kmh 29.85 in1010.8 mb 0.00 in0.0 mm 0.00 in0.0 mm 0.00 in0.0 mm
05:26 AM 51.3°F10.7°C 31.0°F-0.6°C 46% 8.0 mph NW12.9 kmh NW 12.0 mph19.3 kmh 29.85 in1010.8 mb 0.00 in0.0 mm 0.00 in0.0 mm 0.00 in0.0 mm
05:27 AM 51.5°F10.8°C 30.6°F-0.8°C 44% 7.0 mph NW11.3 kmh NW 12.0 mph19.3 kmh 29.85 in1010.8 mb 0.00 in0.0 mm 0.00 in0.0 mm 0.00 in0.0 mm
05:28 AM 51.7°F10.9°C 30.1°F-1.1°C 43% 5.0 mph NW8.0 kmh NW 11.0 mph17.7 kmh 29.85 in1010.8 mb 0.00 in0.0 mm 0.00 in0.0 mm 0.00 in0.0 mm
05:29 AM 51.9°F11.1°C 30.6°F-0.8°C 44% 6.0 mph NW9.7 kmh NW 11.0 mph17.7 kmh 29.84 in1010.5 mb 0.00 in0.0 mm 0.00 in0.0 mm 0.00 in0.0 mm
05:30 AM 52.0°F11.1°C 30.2°F-1.0°C 43% 5.0 mph NW8.0 kmh NW 11.0 mph17.7 kmh 29.85 in1010.8 mb 0.00 in0.0 mm 0.00 in0.0 mm 0.00 in0.0 mm
05:31 AM 52.1°F11.2°C 30.1°F-1.1°C 43% 8.0 mph NW12.9 kmh NW 13.0 mph20.9 kmh 29.85 in1010.8 mb 0.00 in0.0 mm 0.00 in0.0 mm 0.00 in0.0 mm
05:32 AM 52.2°F11.2°C 30.1°F-1.1°C 42% 5.0 mph NW8.0 kmh NW 13.0 mph20.9 kmh 29.85 in1010.8 mb 0.00 in0.0 mm 0.00 in0.0 mm 0.00 in0.0 mm
05:33 AM 52.3°F11.3°C 30.5°F-0.8°C 43% 5.0 mph NW8.0 kmh NW 8.0 mph12.9 kmh 29.84 in1010.5 mb 0.00 in0.0 mm 0.00 in0.0 mm 0.00 in0.0 mm
05:34 AM 52.4°F11.3°C 30.1°F-1.1°C 42% 5.0 mph NW8.0 kmh NW 9.0 mph14.5 kmh 29.84 in1010.5 mb 0.00 in0.0 mm 0.00 in0.0 mm 0.00 in0.0 mm
05:35 AM 52.4°F11.3°C 30.0°F-1.1°C 42% 3.0 mph NW4.8 kmh NW 9.0 mph14.5 kmh 29.84 in1010.5 mb 0.00 in0.0 mm 0.00 in0.0 mm 0.00 in0.0 mm
05:36 AM 52.4°F11.3°C 30.6°F-0.8°C 43% 4.0 mph NW6.4 kmh NW 7.0 mph11.3 kmh 29.84 in1010.5 mb 0.00 in0.0 mm 0.00 in0.0 mm 0.00 in0.0 mm
05:37 AM 52.4°F11.3°C 30.3°F-0.9°C 43% 6.0 mph NW9.7 kmh NW 9.0 mph14.5 kmh 29.84 in1010.5 mb 0.00 in0.0 mm 0.00 in0.0 mm 0.00 in0.0 mm
05:38 AM 52.4°F11.3°C 30.0°F-1.1°C 42% 6.0 mph NW9.7 kmh NW 9.0 mph14.5 kmh 29.85 in1010.8 mb 0.00 in0.0 mm 0.00 in0.0 mm 0.00 in0.0 mm
05:39 AM 52.4°F11.3°C 30.0°F-1.1°C 42% 6.0 mph NW9.7 kmh NW 11.0 mph17.7 kmh 29.85 in1010.8 mb 0.00 in0.0 mm 0.00 in0.0 mm 0.00 in0.0 mm
05:40 AM 52.5°F11.4°C 29.6°F-1.3°C 41% 8.0 mph NW12.9 kmh NW 12.0 mph19.3 kmh 29.84 in1010.5 mb 0.00 in0.0 mm 0.00 in0.0 mm 0.00 in0.0 mm
05:41 AM 52.6°F11.4°C 29.0°F-1.7°C 40% 7.0 mph NW11.3 kmh NW 13.0 mph20.9 kmh 29.84 in1010.5 mb 0.00 in0.0 mm 0.00 in0.0 mm 0.00 in0.0 mm
05:42 AM 52.7°F11.5°C 29.2°F-1.6°C 40% 3.0 mph WNW4.8 kmh WNW 13.0 mph20.9 kmh 29.85 in1010.8 mb 0.00 in0.0 mm 0.00 in0.0 mm 0.00 in0.0 mm
05:43 AM 52.8°F11.6°C 29.5°F-1.4°C 41% 5.0 mph NW8.0 kmh NW 8.0 mph12.9 kmh 29.84 in1010.5 mb 0.00 in0.0 mm 0.00 in0.0 mm 0.00 in0.0 mm
05:44 AM 52.8°F11.6°C 29.5°F-1.4°C 41% 7.0 mph NW11.3 kmh NW 12.0 mph19.3 kmh 29.84 in1010.5 mb 0.00 in0.0 mm 0.00 in0.0 mm 0.00 in0.0 mm
05:45 AM 52.9°F11.6°C 29.4°F-1.4°C 40% 5.0 mph NW8.0 kmh NW 12.0 mph19.3 kmh 29.84 in1010.5 mb 0.00 in0.0 mm 0.00 in0.0 mm 0.00 in0.0 mm
05:46 AM 53.0°F11.7°C 29.3°F-1.5°C 40% 5.0 mph NW8.0 kmh NW 9.0 mph14.5 kmh 29.85 in1010.8 mb 0.00 in0.0 mm 0.00 in0.0 mm 0.00 in0.0 mm
05:47 AM 53.0°F11.7°C 29.3°F-1.5°C 40% 4.0 mph NW6.4 kmh NW 7.0 mph11.3 kmh 29.85 in1010.8 mb 0.00 in0.0 mm 0.00 in0.0 mm 0.00 in0.0 mm
05:48 AM 53.0°F11.7°C 29.5°F-1.4°C 40% 3.0 mph NW4.8 kmh NW 6.0 mph9.7 kmh 29.85 in1010.8 mb 0.00 in0.0 mm 0.00 in0.0 mm 0.00 in0.0 mm
05:49 AM 53.0°F11.7°C 29.7°F-1.3°C 41% 5.0 mph NW8.0 kmh NW 8.0 mph12.9 kmh 29.85 in1010.8 mb 0.00 in0.0 mm 0.00 in0.0 mm 0.00 in0.0 mm
05:50 AM 53.0°F11.7°C 29.3°F-1.5°C 40% 4.0 mph NW6.4 kmh NW 8.0 mph12.9 kmh 29.85 in1010.8 mb 0.00 in0.0 mm 0.00 in0.0 mm 0.00 in0.0 mm
05:51 AM 53.0°F11.7°C 29.3°F-1.5°C 40% 3.0 mph NW4.8 kmh NW 7.0 mph11.3 kmh 29.85 in1010.8 mb 0.00 in0.0 mm 0.00 in0.0 mm 0.00 in0.0 mm
05:52 AM 53.0°F11.7°C 29.3°F-1.5°C 40% 4.0 mph NW6.4 kmh NW 5.0 mph8.0 kmh 29.85 in1010.8 mb 0.00 in0.0 mm 0.00 in0.0 mm 0.00 in0.0 mm
05:53 AM 53.0°F11.7°C 29.3°F-1.5°C 40% 4.0 mph NW6.4 kmh NW 8.0 mph12.9 kmh 29.85 in1010.8 mb 0.00 in0.0 mm 0.00 in0.0 mm 0.00 in0.0 mm
05:54 AM 53.0°F11.7°C 29.2°F-1.6°C 40% 6.0 mph WNW9.7 kmh WNW 8.0 mph12.9 kmh 29.85 in1010.8 mb 0.00 in0.0 mm 0.00 in0.0 mm 0.00 in0.0 mm
05:55 AM 53.0°F11.7°C 28.7°F-1.8°C 39% 6.0 mph NW9.7 kmh NW 8.0 mph12.9 kmh 29.85 in1010.8 mb 0.00 in0.0 mm 0.00 in0.0 mm 0.00 in0.0 mm
05:56 AM 53.0°F11.7°C 29.1°F-1.6°C 40% 3.0 mph NW4.8 kmh NW 8.0 mph12.9 kmh 29.85 in1010.8 mb 0.00 in0.0 mm 0.00 in0.0 mm 0.00 in0.0 mm
05:57 AM 53.0°F11.7°C 29.3°F-1.5°C 40% 4.0 mph NW6.4 kmh NW 5.0 mph8.0 kmh 29.85 in1010.8 mb 0.00 in0.0 mm 0.00 in0.0 mm 0.00 in0.0 mm
05:58 AM 53.0°F11.7°C 29.3°F-1.5°C 40% 4.0 mph NW6.4 kmh NW 8.0 mph12.9 kmh 29.85 in1010.8 mb 0.00 in0.0 mm 0.00 in0.0 mm 0.00 in0.0 mm
05:59 AM 53.0°F11.7°C 28.7°F-1.8°C 39% 3.0 mph NW4.8 kmh NW 8.0 mph12.9 kmh 29.85 in1010.8 mb 0.00 in0.0 mm 0.00 in0.0 mm 0.00 in0.0 mm
06:00 AM 53.0°F11.7°C 28.7°F-1.8°C 39% 6.0 mph WNW9.7 kmh WNW 8.0 mph12.9 kmh 29.85 in1010.8 mb 0.00 in0.0 mm 0.00 in0.0 mm 0.00 in0.0 mm
06:01 AM 53.0°F11.7°C 28.7°F-1.8°C 39% 5.0 mph NW8.0 kmh NW 8.0 mph12.9 kmh 29.85 in1010.8 mb 0.00 in0.0 mm 0.00 in0.0 mm 0.00 in0.0 mm
06:02 AM 52.9°F11.6°C 28.7°F-1.8°C 39% 4.0 mph NW6.4 kmh NW 8.0 mph12.9 kmh 29.85 in1010.8 mb 0.00 in0.0 mm 0.00 in0.0 mm 0.00 in0.0 mm
06:03 AM 52.9°F11.6°C 28.6°F-1.9°C 39% 5.0 mph NW8.0 kmh NW 7.0 mph11.3 kmh 29.85 in1010.8 mb 0.00 in0.0 mm 0.00 in0.0 mm 0.00 in0.0 mm
06:04 AM 52.9°F11.6°C 28.6°F-1.9°C 39% 4.0 mph NW6.4 kmh NW 7.0 mph11.3 kmh 29.85 in1010.8 mb 0.00 in0.0 mm 0.00 in0.0 mm 0.00 in0.0 mm
06:05 AM 52.9°F11.6°C 28.1°F-2.2°C 38% 6.0 mph WNW9.7 kmh WNW 9.0 mph14.5 kmh 29.86 in1011.2 mb 0.00 in0.0 mm 0.00 in0.0 mm 0.00 in0.0 mm
06:06 AM 52.9°F11.6°C 28.4°F-2.0°C 39% 7.0 mph WNW11.3 kmh WNW 9.0 mph14.5 kmh 29.85 in1010.8 mb 0.00 in0.0 mm 0.00 in0.0 mm 0.00 in0.0 mm
06:07 AM 53.0°F11.7°C 28.1°F-2.2°C 38% 6.0 mph W9.7 kmh W 9.0 mph14.5 kmh 29.86 in1011.2 mb 0.00 in0.0 mm 0.00 in0.0 mm 0.00 in0.0 mm
06:08 AM 53.0°F11.7°C 28.1°F-2.2°C 38% 4.0 mph W6.4 kmh W 7.0 mph11.3 kmh 29.85 in1010.8 mb 0.00 in0.0 mm 0.00 in0.0 mm 0.00 in0.0 mm
06:09 AM 52.9°F11.6°C 28.5°F-1.9°C 39% 4.0 mph W6.4 kmh W 7.0 mph11.3 kmh 29.86 in1011.2 mb 0.00 in0.0 mm 0.00 in0.0 mm 0.00 in0.0 mm
06:10 AM 52.8°F11.6°C 29.2°F-1.6°C 40% 3.0 mph WSW4.8 kmh WSW 5.0 mph8.0 kmh 29.86 in1011.2 mb 0.00 in0.0 mm 0.00 in0.0 mm 0.00 in0.0 mm
06:11 AM 52.6°F11.4°C 29.6°F-1.3°C 41% 3.0 mph SW4.8 kmh SW 5.0 mph8.0 kmh 29.85 in1010.8 mb 0.00 in0.0 mm 0.00 in0.0 mm 0.00 in0.0 mm
06:12 AM 52.4°F11.3°C 29.6°F-1.3°C 41% 3.0 mph SW4.8 kmh SW 4.0 mph6.4 kmh 29.86 in1011.2 mb 0.00 in0.0 mm 0.00 in0.0 mm 0.00 in0.0 mm
06:13 AM 52.2°F11.2°C 29.5°F-1.4°C 42% 4.0 mph WSW6.4 kmh WSW 5.0 mph8.0 kmh 29.86 in1011.2 mb 0.00 in0.0 mm 0.00 in0.0 mm 0.00 in0.0 mm
06:14 AM 52.0°F11.1°C 29.0°F-1.7°C 41% 4.0 mph WSW6.4 kmh WSW 5.0 mph8.0 kmh 29.86 in1011.2 mb 0.00 in0.0 mm 0.00 in0.0 mm 0.00 in0.0 mm
06:15 AM 51.9°F11.1°C 28.9°F-1.7°C 41% 4.0 mph WSW6.4 kmh WSW 5.0 mph8.0 kmh 29.86 in1011.2 mb 0.00 in0.0 mm 0.00 in0.0 mm 0.00 in0.0 mm
06:16 AM 51.9°F11.1°C 29.5°F-1.4°C 42% 5.0 mph WSW8.0 kmh WSW 7.0 mph11.3 kmh 29.86 in1011.2 mb 0.00 in0.0 mm 0.00 in0.0 mm 0.00 in0.0 mm
06:17 AM 51.7°F10.9°C 29.4°F-1.4°C 42% 5.0 mph WSW8.0 kmh WSW 7.0 mph11.3 kmh 29.86 in1011.2 mb 0.00 in0.0 mm 0.00 in0.0 mm 0.00 in0.0 mm
06:18 AM 51.7°F10.9°C 29.4°F-1.4°C 42% 6.0 mph WSW9.7 kmh WSW 7.0 mph11.3 kmh 29.86 in1011.2 mb 0.00 in0.0 mm 0.00 in0.0 mm 0.00 in0.0 mm
06:19 AM 51.7°F10.9°C 29.4°F-1.4°C 42% 4.0 mph W6.4 kmh W 7.0 mph11.3 kmh 29.86 in1011.2 mb 0.00 in0.0 mm 0.00 in0.0 mm 0.00 in0.0 mm
06:20 AM 51.6°F10.9°C 29.3°F-1.5°C 42% 5.0 mph W8.0 kmh W 7.0 mph11.3 kmh 29.86 in1011.2 mb 0.00 in0.0 mm 0.00 in0.0 mm 0.00 in0.0 mm
06:21 AM 51.6°F10.9°C 29.3°F-1.5°C 42% 6.0 mph W9.7 kmh W 7.0 mph11.3 kmh 29.86 in1011.2 mb 0.00 in0.0 mm 0.00 in0.0 mm 0.00 in0.0 mm
06:22 AM 51.5°F10.8°C 29.8°F-1.2°C 43% 4.0 mph WSW6.4 kmh WSW 7.0 mph11.3 kmh 29.86 in1011.2 mb 0.00 in0.0 mm 0.00 in0.0 mm 0.00 in0.0 mm
06:23 AM 51.4°F10.8°C 29.6°F-1.3°C 43% 5.0 mph WSW8.0 kmh WSW 7.0 mph11.3 kmh 29.86 in1011.2 mb 0.00 in0.0 mm 0.00 in0.0 mm 0.00 in0.0 mm
06:24 AM 51.3°F10.7°C 29.6°F-1.3°C 43% 5.0 mph WSW8.0 kmh WSW 7.0 mph11.3 kmh 29.86 in1011.2 mb 0.00 in0.0 mm 0.00 in0.0 mm 0.00 in0.0 mm
06:25 AM 51.2°F10.7°C 29.5°F-1.4°C 43% 4.0 mph WSW6.4 kmh WSW 6.0 mph9.7 kmh 29.86 in1011.2 mb 0.00 in0.0 mm 0.00 in0.0 mm 0.00 in0.0 mm
06:26 AM 51.2°F10.7°C 29.1°F-1.6°C 42% 5.0 mph W8.0 kmh W 6.0 mph9.7 kmh 29.86 in1011.2 mb 0.00 in0.0 mm 0.00 in0.0 mm 0.00 in0.0 mm
06:27 AM 51.2°F10.7°C 28.9°F-1.7°C 42% 5.0 mph W8.0 kmh W 7.0 mph11.3 kmh 29.86 in1011.2 mb 0.00 in0.0 mm 0.00 in0.0 mm 0.00 in0.0 mm
06:28 AM 51.2°F10.7°C 29.5°F-1.4°C 43% 6.0 mph W9.7 kmh W 7.0 mph11.3 kmh 29.86 in1011.2 mb 0.00 in0.0 mm 0.00 in0.0 mm 0.00 in0.0 mm
06:29 AM 51.2°F10.7°C 29.5°F-1.4°C 43% 6.0 mph W9.7 kmh W 7.0 mph11.3 kmh 29.86 in1011.2 mb 0.00 in0.0 mm 0.00 in0.0 mm 0.00 in0.0 mm
06:30 AM 51.2°F10.7°C 29.5°F-1.4°C 43% 7.0 mph W11.3 kmh W 8.0 mph12.9 kmh 29.86 in1011.2 mb 0.00 in0.0 mm 0.00 in0.0 mm 0.00 in0.0 mm
06:31 AM 51.2°F10.7°C 28.8°F-1.8°C 42% 7.0 mph W11.3 kmh W 8.0 mph12.9 kmh 29.86 in1011.2 mb 0.00 in0.0 mm 0.00 in0.0 mm 0.00 in0.0 mm
06:32 AM 51.3°F10.7°C 28.4°F-2.0°C 41% 7.0 mph WNW11.3 kmh WNW 8.0 mph12.9 kmh 29.86 in1011.2 mb 0.00 in0.0 mm 0.00 in0.0 mm 0.00 in0.0 mm
06:33 AM 51.4°F10.8°C 28.5°F-1.9°C 41% 7.0 mph WNW11.3 kmh WNW 8.0 mph12.9 kmh 29.86 in1011.2 mb 0.00 in0.0 mm 0.00 in0.0 mm 0.00 in0.0 mm
06:34 AM 51.6°F10.9°C 28.7°F-1.8°C 41% 8.0 mph W12.9 kmh W 9.0 mph14.5 kmh 29.86 in1011.2 mb 0.00 in0.0 mm 0.00 in0.0 mm 0.00 in0.0 mm
06:35 AM 51.7°F10.9°C 28.6°F-1.9°C 41% 7.0 mph WNW11.3 kmh WNW 9.0 mph14.5 kmh 29.86 in1011.2 mb 0.00 in0.0 mm 0.00 in0.0 mm 0.00 in0.0 mm
06:36 AM 51.9°F11.1°C 28.4°F-2.0°C 40% 5.0 mph W8.0 kmh W 8.0 mph12.9 kmh 29.86 in1011.2 mb 0.00 in0.0 mm 0.00 in0.0 mm 0.00 in0.0 mm
06:37 AM 52.0°F11.1°C 28.1°F-2.2°C 39% 5.0 mph W8.0 kmh W 7.0 mph11.3 kmh 29.86 in1011.2 mb 0.00 in0.0 mm 0.00 in0.0 mm 0.00 in0.0 mm
06:38 AM 52.2°F11.2°C 28.0°F-2.2°C 39% 3.0 mph W4.8 kmh W 6.0 mph9.7 kmh 29.86 in1011.2 mb 0.00 in0.0 mm 0.00 in0.0 mm 0.00 in0.0 mm
06:39 AM 52.2°F11.2°C 28.0°F-2.2°C 39% 3.0 mph WNW4.8 kmh WNW 4.0 mph6.4 kmh 29.86 in1011.2 mb 0.00 in0.0 mm 0.00 in0.0 mm 0.00 in0.0 mm
06:40 AM 52.3°F11.3°C 28.0°F-2.2°C 39% 4.0 mph W6.4 kmh W 6.0 mph9.7 kmh 29.86 in1011.2 mb 0.00 in0.0 mm 0.00 in0.0 mm 0.00 in0.0 mm
06:41 AM 52.4°F11.3°C 27.5°F-2.5°C 38% 5.0 mph W8.0 kmh W 7.0 mph11.3 kmh 29.86 in1011.2 mb 0.00 in0.0 mm 0.00 in0.0 mm 0.00 in0.0 mm
06:42 AM 52.5°F11.4°C 27.6°F-2.4°C 38% 5.0 mph WNW8.0 kmh WNW 7.0 mph11.3 kmh 29.86 in1011.2 mb 0.00 in0.0 mm 0.00 in0.0 mm 0.00 in0.0 mm
06:43 AM 52.5°F11.4°C 27.3°F-2.6°C 37% 7.0 mph WNW11.3 kmh WNW 9.0 mph14.5 kmh 29.86 in1011.2 mb 0.00 in0.0 mm 0.00 in0.0 mm 0.00 in0.0 mm
06:44 AM 52.6°F11.4°C 27.1°F-2.7°C 37% 4.0 mph W6.4 kmh W 9.0 mph14.5 kmh 29.86 in1011.2 mb 0.00 in0.0 mm 0.00 in0.0 mm 0.00 in0.0 mm
06:45 AM 52.7°F11.5°C 27.2°F-2.7°C 37% 4.0 mph W6.4 kmh W 6.0 mph9.7 kmh 29.86 in1011.2 mb 0.00 in0.0 mm 0.00 in0.0 mm 0.00 in0.0 mm
06:46 AM 52.8°F11.6°C 27.3°F-2.6°C 37% 4.0 mph W6.4 kmh W 6.0 mph9.7 kmh 29.86 in1011.2 mb 0.00 in0.0 mm 0.00 in0.0 mm 0.00 in0.0 mm
06:47 AM 52.8°F11.6°C 27.0°F-2.8°C 37% 6.0 mph W9.7 kmh W 7.0 mph11.3 kmh 29.86 in1011.2 mb 0.00 in0.0 mm 0.00 in0.0 mm 0.00 in0.0 mm
06:48 AM 52.9°F11.6°C 26.6°F-3.0°C 36% 5.0 mph W8.0 kmh W 7.0 mph11.3 kmh 29.86 in1011.2 mb 0.00 in0.0 mm 0.00 in0.0 mm 0.00 in0.0 mm
06:49 AM 52.9°F11.6°C 26.7°F-2.9°C 36% 4.0 mph W6.4 kmh W 7.0 mph11.3 kmh 29.86 in1011.2 mb 0.00 in0.0 mm 0.00 in0.0 mm 0.00 in0.0 mm
06:50 AM 53.0°F11.7°C 26.8°F-2.9°C 36% 3.0 mph W4.8 kmh W 6.0 mph9.7 kmh 29.86 in1011.2 mb 0.00 in0.0 mm 0.00 in0.0 mm 0.00 in0.0 mm
06:51 AM 53.0°F11.7°C 26.8°F-2.9°C 36% 3.0 mph W4.8 kmh W 4.0 mph6.4 kmh 29.86 in1011.2 mb 0.00 in0.0 mm 0.00 in0.0 mm 0.00 in0.0 mm
06:52 AM 53.0°F11.7°C 26.8°F-2.9°C 36% 3.0 mph W4.8 kmh W 5.0 mph8.0 kmh 29.86 in1011.2 mb 0.00 in0.0 mm 0.00 in0.0 mm 0.00 in0.0 mm
06:53 AM 53.1°F11.7°C 26.6°F-3.0°C 36% 4.0 mph W6.4 kmh W 6.0 mph9.7 kmh 29.86 in1011.2 mb 0.00 in0.0 mm 0.00 in0.0 mm 0.00 in0.0 mm
06:54 AM 53.2°F11.8°C 26.2°F-3.2°C 35% 3.0 mph WSW4.8 kmh WSW 6.0 mph9.7 kmh 29.86 in1011.2 mb 0.00 in0.0 mm 0.00 in0.0 mm 0.00 in0.0 mm
06:55 AM 53.3°F11.8°C 26.4°F-3.1°C 35% 4.0 mph WSW6.4 kmh WSW 4.0 mph6.4 kmh 29.86 in1011.2 mb 0.00 in0.0 mm 0.00 in0.0 mm 0.00 in0.0 mm
06:56 AM 53.4°F11.9°C 26.4°F-3.1°C 35% 3.0 mph WSW4.8 kmh WSW 4.0 mph6.4 kmh 29.86 in1011.2 mb 0.00 in0.0 mm 0.00 in0.0 mm 0.00 in0.0 mm
06:57 AM 53.5°F11.9°C 26.5°F-3.1°C 35% 3.0 mph WSW4.8 kmh WSW 4.0 mph6.4 kmh 29.86 in1011.2 mb 0.00 in0.0 mm 0.00 in0.0 mm 0.00 in0.0 mm
06:58 AM 53.5°F11.9°C 26.4°F-3.1°C 35% 2.0 mph WSW3.2 kmh WSW 4.0 mph6.4 kmh 29.86 in1011.2 mb 0.00 in0.0 mm 0.00 in0.0 mm 0.00 in0.0 mm
06:59 AM 53.6°F12.0°C 26.2°F-3.2°C 34% 4.0 mph WSW6.4 kmh WSW 4.0 mph6.4 kmh 29.86 in1011.2 mb 0.00 in0.0 mm 0.00 in0.0 mm 0.00 in0.0 mm
07:00 AM 53.7°F12.1°C 26.3°F-3.2°C 34% 4.0 mph WSW6.4 kmh WSW 4.0 mph6.4 kmh 29.86 in1011.2 mb 0.00 in0.0 mm 0.00 in0.0 mm 0.00 in0.0 mm
07:01 AM 53.7°F12.1°C 26.0°F-3.3°C 34% 4.0 mph WSW6.4 kmh WSW 7.0 mph11.3 kmh 29.86 in1011.2 mb 0.00 in0.0 mm 0.00 in0.0 mm 0.00 in0.0 mm
07:02 AM 53.8°F12.1°C 25.5°F-3.6°C 33% 4.0 mph WSW6.4 kmh WSW 7.0 mph11.3 kmh 29.86 in1011.2 mb 0.00 in0.0 mm 0.00 in0.0 mm 0.00 in0.0 mm
07:03 AM 53.9°F12.2°C 25.5°F-3.6°C 33% 4.0 mph WSW6.4 kmh WSW 5.0 mph8.0 kmh 29.86 in1011.2 mb 0.00 in0.0 mm 0.00 in0.0 mm 0.00 in0.0 mm
07:04 AM 54.0°F12.2°C 25.6°F-3.6°C 33% 4.0 mph WSW6.4 kmh WSW 5.0 mph8.0 kmh 29.86 in1011.2 mb 0.00 in0.0 mm 0.00 in0.0 mm 0.00 in0.0 mm
07:05 AM 54.1°F12.3°C 25.6°F-3.6°C 33% 4.0 mph WSW6.4 kmh WSW 5.0 mph8.0 kmh 29.86 in1011.2 mb 0.00 in0.0 mm 0.00 in0.0 mm 0.00 in0.0 mm
07:06 AM 54.1°F12.3°C 25.6°F-3.6°C 33% 4.0 mph SW6.4 kmh SW 5.0 mph8.0 kmh 29.86 in1011.2 mb 0.00 in0.0 mm 0.00 in0.0 mm 0.00 in0.0 mm
07:07 AM 54.1°F12.3°C 25.6°F-3.6°C 33% 4.0 mph SW6.4 kmh SW 5.0 mph8.0 kmh 29.86 in1011.2 mb 0.00 in0.0 mm 0.00 in0.0 mm 0.00 in0.0 mm
07:08 AM 54.1°F12.3°C 25.6°F-3.6°C 33% 3.0 mph WSW4.8 kmh WSW 5.0 mph8.0 kmh 29.86 in1011.2 mb 0.00 in0.0 mm 0.00 in0.0 mm 0.00 in0.0 mm
07:09 AM 54.1°F12.3°C 25.6°F-3.6°C 33% 5.0 mph WSW8.0 kmh WSW 8.0 mph12.9 kmh 29.86 in1011.2 mb 0.00 in0.0 mm 0.00 in0.0 mm 0.00 in0.0 mm
07:10 AM 54.1°F12.3°C 25.6°F-3.6°C 33% 7.0 mph WSW11.3 kmh WSW 9.0 mph14.5 kmh 29.86 in1011.2 mb 0.00 in0.0 mm 0.00 in0.0 mm 0.00 in0.0 mm
07:11 AM 54.1°F12.3°C 25.3°F-3.7°C 33% 5.0 mph SW8.0 kmh SW 9.0 mph14.5 kmh 29.86 in1011.2 mb 0.00 in0.0 mm 0.00 in0.0 mm 0.00 in0.0 mm
07:12 AM 54.2°F12.3°C 25.4°F-3.7°C 33% 4.0 mph SW6.4 kmh SW 6.0 mph9.7 kmh 29.86 in1011.2 mb 0.00 in0.0 mm 0.00 in0.0 mm 0.00 in0.0 mm
07:13 AM 54.2°F12.3°C 25.7°F-3.5°C 33% 4.0 mph SW6.4 kmh SW 6.0 mph9.7 kmh 29.86 in1011.2 mb 0.00 in0.0 mm 0.00 in0.0 mm 0.00 in0.0 mm
07:14 AM 54.0°F12.2°C 25.6°F-3.6°C 33% 6.0 mph SW9.7 kmh SW 8.0 mph12.9 kmh 29.86 in1011.2 mb 0.00 in0.0 mm 0.00 in0.0 mm 0.00 in0.0 mm
07:15 AM 53.9°F12.2°C 26.2°F-3.2°C 34% 6.0 mph SW9.7 kmh SW 8.0 mph12.9 kmh 29.86 in1011.2 mb 0.00 in0.0 mm 0.00 in0.0 mm 0.00 in0.0 mm
07:16 AM 53.7°F12.1°C 26.2°F-3.2°C 34% 5.0 mph WSW8.0 kmh WSW 8.0 mph12.9 kmh 29.86 in1011.2 mb 0.00 in0.0 mm 0.00 in0.0 mm 0.00 in0.0 mm
07:17 AM 53.5°F11.9°C 26.6°F-3.0°C 35% 7.0 mph WSW11.3 kmh WSW 11.0 mph17.7 kmh 29.86 in1011.2 mb 0.00 in0.0 mm 0.00 in0.0 mm 0.00 in0.0 mm
07:18 AM 53.4°F11.9°C 26.0°F-3.3°C 34% 8.0 mph WSW12.9 kmh WSW 11.0 mph17.7 kmh 29.86 in1011.2 mb 0.00 in0.0 mm 0.00 in0.0 mm 0.00 in0.0 mm
07:19 AM 53.3°F11.8°C 25.6°F-3.6°C 34% 6.0 mph SW9.7 kmh SW 10.0 mph16.1 kmh 29.86 in1011.2 mb 0.00 in0.0 mm 0.00 in0.0 mm 0.00 in0.0 mm
07:20 AM 53.1°F11.7°C 26.1°F-3.3°C 35% 6.0 mph WSW9.7 kmh WSW 9.0 mph14.5 kmh 29.87 in1011.5 mb 0.00 in0.0 mm 0.00 in0.0 mm 0.00 in0.0 mm
07:21 AM 52.9°F11.6°C 26.7°F-2.9°C 36% 6.0 mph SW9.7 kmh SW 8.0 mph12.9 kmh 29.86 in1011.2 mb 0.00 in0.0 mm 0.00 in0.0 mm 0.00 in0.0 mm
07:22 AM 52.7°F11.5°C 26.7°F-2.9°C 36% 7.0 mph SW11.3 kmh SW 8.0 mph12.9 kmh 29.86 in1011.2 mb 0.00 in0.0 mm 0.00 in0.0 mm 0.00 in0.0 mm
07:23 AM 52.5°F11.4°C 27.0°F-2.8°C 37% 8.0 mph SW12.9 kmh SW 10.0 mph16.1 kmh 29.87 in1011.5 mb 0.00 in0.0 mm 0.00 in0.0 mm 0.00 in0.0 mm
07:24 AM 52.3°F11.3°C 26.9°F-2.8°C 37% 6.0 mph WSW9.7 kmh WSW 10.0 mph16.1 kmh 29.87 in1011.5 mb 0.00 in0.0 mm 0.00 in0.0 mm 0.00 in0.0 mm
07:25 AM 52.2°F11.2°C 26.7°F-2.9°C 37% 5.0 mph WSW8.0 kmh WSW 9.0 mph14.5 kmh 29.87 in1011.5 mb 0.00 in0.0 mm 0.00 in0.0 mm 0.00 in0.0 mm
07:26 AM 52.2°F11.2°C 26.7°F-2.9°C 37% 5.0 mph WSW8.0 kmh WSW 9.0 mph14.5 kmh 29.87 in1011.5 mb 0.00 in0.0 mm 0.00 in0.0 mm 0.00 in0.0 mm
07:27 AM 52.1°F11.2°C 26.6°F-3.0°C 37% 6.0 mph WSW9.7 kmh WSW 9.0 mph14.5 kmh 29.86 in1011.2 mb 0.00 in0.0 mm 0.00 in0.0 mm 0.00 in0.0 mm
07:28 AM 52.1°F11.2°C 26.6°F-3.0°C 37% 7.0 mph WSW11.3 kmh WSW 9.0 mph14.5 kmh 29.87 in1011.5 mb 0.00 in0.0 mm 0.00 in0.0 mm 0.00 in0.0 mm
07:29 AM 52.1°F11.2°C 26.6°F-3.0°C 37% 7.0 mph WSW11.3 kmh WSW 8.0 mph12.9 kmh 29.87 in1011.5 mb 0.00 in0.0 mm 0.00 in0.0 mm 0.00 in0.0 mm
07:30 AM 52.0°F11.1°C 27.0°F-2.8°C 38% 6.0 mph WSW9.7 kmh WSW 8.0 mph12.9 kmh 29.87 in1011.5 mb 0.00 in0.0 mm 0.00 in0.0 mm 0.00 in0.0 mm
07:31 AM 52.0°F11.1°C 27.2°F-2.7°C 38% 6.0 mph WSW9.7 kmh WSW 7.0 mph11.3 kmh 29.87 in1011.5 mb 0.00 in0.0 mm 0.00 in0.0 mm 0.00 in0.0 mm
07:32 AM 51.8°F11.0°C 27.1°F-2.7°C 38% 6.0 mph WSW9.7 kmh WSW 8.0 mph12.9 kmh 29.87 in1011.5 mb 0.00 in0.0 mm 0.00 in0.0 mm 0.00 in0.0 mm
07:33 AM 51.7°F10.9°C 27.6°F-2.4°C 39% 6.0 mph WSW9.7 kmh WSW 8.0 mph12.9 kmh 29.87 in1011.5 mb 0.00 in0.0 mm 0.00 in0.0 mm 0.00 in0.0 mm
07:34 AM 51.7°F10.9°C 27.5°F-2.5°C 39% 7.0 mph WSW11.3 kmh WSW 9.0 mph14.5 kmh 29.87 in1011.5 mb 0.00 in0.0 mm 0.00 in0.0 mm 0.00 in0.0 mm
07:35 AM 51.6°F10.9°C 27.2°F-2.7°C 39% 5.0 mph W8.0 kmh W 9.0 mph14.5 kmh 29.87 in1011.5 mb 0.00 in0.0 mm 0.00 in0.0 mm 0.00 in0.0 mm
07:36 AM 51.6°F10.9°C 26.8°F-2.9°C 38% 7.0 mph WNW11.3 kmh WNW 9.0 mph14.5 kmh 29.87 in1011.5 mb 0.00 in0.0 mm 0.00 in0.0 mm 0.00 in0.0 mm
07:37 AM 51.7°F10.9°C 26.4°F-3.1°C 37% 4.0 mph WNW6.4 kmh WNW 9.0 mph14.5 kmh 29.87 in1011.5 mb 0.00 in0.0 mm 0.00 in0.0 mm 0.00 in0.0 mm
07:38 AM 51.7°F10.9°C 26.3°F-3.2°C 37% 6.0 mph WNW9.7 kmh WNW 9.0 mph14.5 kmh 29.87 in1011.5 mb 0.00 in0.0 mm 0.00 in0.0 mm 0.00 in0.0 mm
07:39 AM 51.7°F10.9°C 26.4°F-3.1°C 37% 8.0 mph WNW12.9 kmh WNW 9.0 mph14.5 kmh 29.87 in1011.5 mb 0.00 in0.0 mm 0.00 in0.0 mm 0.00 in0.0 mm
07:40 AM 51.8°F11.0°C 27.0°F-2.8°C 38% 8.0 mph WNW12.9 kmh WNW 9.0 mph14.5 kmh 29.87 in1011.5 mb 0.00 in0.0 mm 0.00 in0.0 mm 0.00 in0.0 mm
07:41 AM 51.9°F11.1°C 26.8°F-2.9°C 37% 7.0 mph WNW11.3 kmh WNW 10.0 mph16.1 kmh 29.87 in1011.5 mb 0.00 in0.0 mm 0.00 in0.0 mm 0.00 in0.0 mm
07:42 AM 52.0°F11.1°C 26.5°F-3.1°C 37% 6.0 mph NW9.7 kmh NW 10.0 mph16.1 kmh 29.87 in1011.5 mb 0.00 in0.0 mm 0.00 in0.0 mm 0.00 in0.0 mm
07:43 AM 52.1°F11.2°C 26.0°F-3.3°C 36% 6.0 mph NW9.7 kmh NW 8.0 mph12.9 kmh 29.87 in1011.5 mb 0.00 in0.0 mm 0.00 in0.0 mm 0.00 in0.0 mm
07:44 AM 52.1°F11.2°C 26.0°F-3.3°C 36% 5.0 mph NW8.0 kmh NW 8.0 mph12.9 kmh 29.87 in1011.5 mb 0.00 in0.0 mm 0.00 in0.0 mm 0.00 in0.0 mm
07:45 AM 52.2°F11.2°C 25.9°F-3.4°C 36% 5.0 mph WNW8.0 kmh WNW 9.0 mph14.5 kmh 29.87 in1011.5 mb 0.00 in0.0 mm 0.00 in0.0 mm 0.00 in0.0 mm
07:46 AM 52.4°F11.3°C 25.3°F-3.7°C 35% 5.0 mph NW8.0 kmh NW 9.0 mph14.5 kmh 29.87 in1011.5 mb 0.00 in0.0 mm 0.00 in0.0 mm 0.00 in0.0 mm
07:47 AM 52.5°F11.4°C 25.4°F-3.7°C 35% 4.0 mph NW6.4 kmh NW 8.0 mph12.9 kmh 29.87 in1011.5 mb 0.00 in0.0 mm 0.00 in0.0 mm 0.00 in0.0 mm
07:48 AM 52.7°F11.5°C 25.3°F-3.7°C 34% 7.0 mph NW11.3 kmh NW 10.0 mph16.1 kmh 29.87 in1011.5 mb 0.00 in0.0 mm 0.00 in0.0 mm 0.00 in0.0 mm
07:49 AM 52.8°F11.6°C 24.6°F-4.1°C 33% 3.0 mph NW4.8 kmh NW 10.0 mph16.1 kmh 29.87 in1011.5 mb 0.00 in0.0 mm 0.00 in0.0 mm 0.00 in0.0 mm
07:50 AM 53.0°F11.7°C 25.3°F-3.7°C 34% 4.0 mph NW6.4 kmh NW 8.0 mph12.9 kmh 29.88 in1011.9 mb 0.00 in0.0 mm 0.00 in0.0 mm 0.00 in0.0 mm
07:51 AM 53.1°F11.7°C 24.8°F-4.0°C 33% 6.0 mph WNW9.7 kmh WNW 8.0 mph12.9 kmh 29.87 in1011.5 mb 0.00 in0.0 mm 0.00 in0.0 mm 0.00 in0.0 mm
07:52 AM 53.3°F11.8°C 24.9°F-3.9°C 33% 6.0 mph NW9.7 kmh NW 8.0 mph12.9 kmh 29.87 in1011.5 mb 0.00 in0.0 mm 0.00 in0.0 mm 0.00 in0.0 mm
07:53 AM 53.4°F11.9°C 24.6°F-4.1°C 32% 8.0 mph WNW12.9 kmh WNW 9.0 mph14.5 kmh 29.88 in1011.9 mb 0.00 in0.0 mm 0.00 in0.0 mm 0.00 in0.0 mm
07:54 AM 53.5°F11.9°C 24.4°F-4.2°C 32% 5.0 mph NW8.0 kmh NW 9.0 mph14.5 kmh 29.88 in1011.9 mb 0.00 in0.0 mm 0.00 in0.0 mm 0.00 in0.0 mm
07:55 AM 53.6°F12.0°C 24.5°F-4.2°C 32% 5.0 mph WNW8.0 kmh WNW 9.0 mph14.5 kmh 29.88 in1011.9 mb 0.00 in0.0 mm 0.00 in0.0 mm 0.00 in0.0 mm
07:56 AM 53.7°F12.1°C 24.6°F-4.1°C 32% 6.0 mph WNW9.7 kmh WNW 9.0 mph14.5 kmh 29.88 in1011.9 mb 0.00 in0.0 mm 0.00 in0.0 mm 0.00 in0.0 mm
07:57 AM 53.9°F12.2°C 24.5°F-4.2°C 32% 7.0 mph NW11.3 kmh NW 9.0 mph14.5 kmh 29.88 in1011.9 mb 0.00 in0.0 mm 0.00 in0.0 mm 0.00 in0.0 mm
07:58 AM 54.0°F12.2°C 24.1°F-4.4°C 31% 6.0 mph WNW9.7 kmh WNW 9.0 mph14.5 kmh 29.88 in1011.9 mb 0.00 in0.0 mm 0.00 in0.0 mm 0.00 in0.0 mm
07:59 AM 54.1°F12.3°C 23.8°F-4.6°C 31% 6.0 mph WNW9.7 kmh WNW 9.0 mph14.5 kmh 29.88 in1011.9 mb 0.00 in0.0 mm 0.00 in0.0 mm 0.00 in0.0 mm
08:00 AM 54.2°F12.3°C 23.5°F-4.7°C 30% 6.0 mph WNW9.7 kmh WNW 9.0 mph14.5 kmh 29.88 in1011.9 mb 0.00 in0.0 mm 0.00 in0.0 mm 0.00 in0.0 mm
08:01 AM 54.3°F12.4°C 23.6°F-4.7°C 30% 4.0 mph NW6.4 kmh NW 9.0 mph14.5 kmh 29.87 in1011.5 mb 0.00 in0.0 mm 0.00 in0.0 mm 0.00 in0.0 mm
08:02 AM 54.4°F12.4°C 23.6°F-4.7°C 30% 7.0 mph NW11.3 kmh NW 9.0 mph14.5 kmh 29.88 in1011.9 mb 0.00 in0.0 mm 0.00 in0.0 mm 0.00 in0.0 mm
08:03 AM 54.5°F12.5°C 23.7°F-4.6°C 30% 5.0 mph NW8.0 kmh NW 9.0 mph14.5 kmh 29.88 in1011.9 mb 0.00 in0.0 mm 0.00 in0.0 mm 0.00 in0.0 mm
08:04 AM 54.6°F12.6°C 23.8°F-4.6°C 30% 4.0 mph NW6.4 kmh NW 7.0 mph11.3 kmh 29.88 in1011.9 mb 0.00 in0.0 mm 0.00 in0.0 mm 0.00 in0.0 mm
08:05 AM 54.7°F12.6°C 23.9°F-4.5°C 30% 6.0 mph NW9.7 kmh NW 8.0 mph12.9 kmh 29.88 in1011.9 mb 0.00 in0.0 mm 0.00 in0.0 mm 0.00 in0.0 mm
08:06 AM 54.8°F12.7°C 24.0°F-4.4°C 30% 4.0 mph NW6.4 kmh NW 8.0 mph12.9 kmh 29.88 in1011.9 mb 0.00 in0.0 mm 0.00 in0.0 mm 0.00 in0.0 mm
08:07 AM 54.9°F12.7°C 24.1°F-4.4°C 30% 4.0 mph NW6.4 kmh NW 7.0 mph11.3 kmh 29.88 in1011.9 mb 0.00 in0.0 mm 0.00 in0.0 mm 0.00 in0.0 mm
08:08 AM 55.1°F12.8°C 24.2°F-4.3°C 30% 4.0 mph NW6.4 kmh NW 7.0 mph11.3 kmh 29.88 in1011.9 mb 0.00 in0.0 mm 0.00 in0.0 mm 0.00 in0.0 mm
08:09 AM 55.2°F12.9°C 24.3°F-4.3°C 30% 2.0 mph NW3.2 kmh NW 5.0 mph8.0 kmh 29.88 in1011.9 mb 0.00 in0.0 mm 0.00 in0.0 mm 0.00 in0.0 mm
08:10 AM 55.3°F12.9°C 24.4°F-4.2°C 30% 3.0 mph NW4.8 kmh NW 5.0 mph8.0 kmh 29.87 in1011.5 mb 0.00 in0.0 mm 0.00 in0.0 mm 0.00 in0.0 mm
08:11 AM 55.5°F13.1°C 24.5°F-4.2°C 30% 4.0 mph NW6.4 kmh NW 5.0 mph8.0 kmh 29.87 in1011.5 mb 0.00 in0.0 mm 0.00 in0.0 mm 0.00 in0.0 mm
08:12 AM 55.6°F13.1°C 24.0°F-4.4°C 29% 4.0 mph NW6.4 kmh NW 7.0 mph11.3 kmh 29.87 in1011.5 mb 0.00 in0.0 mm 0.00 in0.0 mm 0.00 in0.0 mm
08:13 AM 55.7°F13.2°C 23.9°F-4.5°C 29% 4.0 mph NW6.4 kmh NW 7.0 mph11.3 kmh 29.87 in1011.5 mb 0.00 in0.0 mm 0.00 in0.0 mm 0.00 in0.0 mm
08:14 AM 55.8°F13.2°C 24.0°F-4.4°C 29% 5.0 mph WNW8.0 kmh WNW 7.0 mph11.3 kmh 29.87 in1011.5 mb 0.00 in0.0 mm 0.00 in0.0 mm 0.00 in0.0 mm
08:15 AM 55.8°F13.2°C 23.8°F-4.6°C 29% 3.0 mph WNW4.8 kmh WNW 7.0 mph11.3 kmh 29.87 in1011.5 mb 0.00 in0.0 mm 0.00 in0.0 mm 0.00 in0.0 mm
08:16 AM 55.9°F13.3°C 23.3°F-4.8°C 28% 4.0 mph WNW6.4 kmh WNW 5.0 mph8.0 kmh 29.88 in1011.9 mb 0.00 in0.0 mm 0.00 in0.0 mm 0.00 in0.0 mm
08:17 AM 56.0°F13.3°C 22.8°F-5.1°C 27% 3.0 mph NW4.8 kmh NW 5.0 mph8.0 kmh 29.87 in1011.5 mb 0.00 in0.0 mm 0.00 in0.0 mm 0.00 in0.0 mm
08:18 AM 56.0°F13.3°C 23.2°F-4.9°C 28% 4.0 mph WNW6.4 kmh WNW 7.0 mph11.3 kmh 29.88 in1011.9 mb 0.00 in0.0 mm 0.00 in0.0 mm 0.00 in0.0 mm
08:19 AM 56.1°F13.4°C 23.4°F-4.8°C 28% 4.0 mph NW6.4 kmh NW 7.0 mph11.3 kmh 29.88 in1011.9 mb 0.00 in0.0 mm 0.00 in0.0 mm 0.00 in0.0 mm
08:20 AM 56.2°F13.4°C 23.3°F-4.8°C 28% 4.0 mph WNW6.4 kmh WNW 7.0 mph11.3 kmh 29.88 in1011.9 mb 0.00 in0.0 mm 0.00 in0.0 mm 0.00 in0.0 mm
08:21 AM 56.2°F13.4°C 22.7°F-5.2°C 27% 3.0 mph WNW4.8 kmh WNW 5.0 mph8.0 kmh 29.88 in1011.9 mb 0.00 in0.0 mm 0.00 in0.0 mm 0.00 in0.0 mm
08:22 AM 56.3°F13.5°C 22.8°F-5.1°C 27% 4.0 mph WNW6.4 kmh WNW 5.0 mph8.0 kmh 29.88 in1011.9 mb 0.00 in0.0 mm 0.00 in0.0 mm 0.00 in0.0 mm
08:23 AM 56.4°F13.6°C 22.8°F-5.1°C 27% 3.0 mph WNW4.8 kmh WNW 5.0 mph8.0 kmh 29.88 in1011.9 mb 0.00 in0.0 mm 0.00 in0.0 mm 0.00 in0.0 mm
08:24 AM 56.4°F13.6°C 22.8°F-5.1°C 27% 3.0 mph WNW4.8 kmh WNW 4.0 mph6.4 kmh 29.88 in1011.9 mb 0.00 in0.0 mm 0.00 in0.0 mm 0.00 in0.0 mm
08:25 AM 56.5°F13.6°C 22.9°F-5.1°C 27% 2.0 mph WNW3.2 kmh WNW 4.0 mph6.4 kmh 29.88 in1011.9 mb 0.00 in0.0 mm 0.00 in0.0 mm 0.00 in0.0 mm
08:26 AM 56.5°F13.6°C 22.9°F-5.1°C 27% 3.0 mph WNW4.8 kmh WNW 5.0 mph8.0 kmh 29.88 in1011.9 mb 0.00 in0.0 mm 0.00 in0.0 mm 0.00 in0.0 mm
08:27 AM 56.5°F13.6°C 22.6°F-5.2°C 27% 3.0 mph NW4.8 kmh NW 5.0 mph8.0 kmh 29.88 in1011.9 mb 0.00 in0.0 mm 0.00 in0.0 mm 0.00 in0.0 mm
08:28 AM 56.6°F13.7°C 22.1°F-5.5°C 26% 2.0 mph NW3.2 kmh NW 5.0 mph8.0 kmh 29.88 in1011.9 mb 0.00 in0.0 mm 0.00 in0.0 mm 0.00 in0.0 mm
08:29 AM 56.6°F13.7°C 22.1°F-5.5°C 26% 3.0 mph NW4.8 kmh NW 5.0 mph8.0 kmh 29.88 in1011.9 mb 0.00 in0.0 mm 0.00 in0.0 mm 0.00 in0.0 mm
08:30 AM 56.7°F13.7°C 22.2°F-5.4°C 26% 3.0 mph NW4.8 kmh NW 5.0 mph8.0 kmh 29.88 in1011.9 mb 0.00 in0.0 mm 0.00 in0.0 mm 0.00 in0.0 mm
08:31 AM 56.7°F13.7°C 22.2°F-5.4°C 26% 2.0 mph NW3.2 kmh NW 5.0 mph8.0 kmh 29.88 in1011.9 mb 0.00 in0.0 mm 0.00 in0.0 mm 0.00 in0.0 mm
08:32 AM 56.8°F13.8°C 22.3°F-5.4°C 26% 1.0 mph NW1.6 kmh NW 3.0 mph4.8 kmh 29.88 in1011.9 mb 0.00 in0.0 mm 0.00 in0.0 mm 0.00 in0.0 mm
08:33 AM 56.9°F13.8°C 22.4°F-5.3°C 26% 1.0 mph NW1.6 kmh NW 2.0 mph3.2 kmh 29.87 in1011.5 mb 0.00 in0.0 mm 0.00 in0.0 mm 0.00 in0.0 mm
08:34 AM 57.1°F13.9°C 22.5°F-5.3°C 26% 2.0 mph NW3.2 kmh NW 3.0 mph4.8 kmh 29.87 in1011.5 mb 0.00 in0.0 mm 0.00 in0.0 mm 0.00 in0.0 mm
08:35 AM 57.2°F14.0°C 22.6°F-5.2°C 26% 2.0 mph NW3.2 kmh NW 3.0 mph4.8 kmh 29.88 in1011.9 mb 0.00 in0.0 mm 0.00 in0.0 mm 0.00 in0.0 mm
08:36 AM 57.3°F14.1°C 23.5°F-4.7°C 27% 3.0 mph NW4.8 kmh NW 4.0 mph6.4 kmh 29.88 in1011.9 mb 0.00 in0.0 mm 0.00 in0.0 mm 0.00 in0.0 mm
08:37 AM 57.4°F14.1°C 23.7°F-4.6°C 27% 3.0 mph NW4.8 kmh NW 4.0 mph6.4 kmh 29.88 in1011.9 mb 0.00 in0.0 mm 0.00 in0.0 mm 0.00 in0.0 mm
08:38 AM 57.5°F14.2°C 23.6°F-4.7°C 27% 4.0 mph W6.4 kmh W 6.0 mph9.7 kmh 29.88 in1011.9 mb 0.00 in0.0 mm 0.00 in0.0 mm 0.00 in0.0 mm
08:39 AM 57.5°F14.2°C 22.9°F-5.1°C 26% 4.0 mph W6.4 kmh W 6.0 mph9.7 kmh 29.88 in1011.9 mb 0.00 in0.0 mm 0.00 in0.0 mm 0.00 in0.0 mm
08:40 AM 57.5°F14.2°C 22.9°F-5.1°C 26% 3.0 mph NW4.8 kmh NW 6.0 mph9.7 kmh 29.88 in1011.9 mb 0.00 in0.0 mm 0.00 in0.0 mm 0.00 in0.0 mm
08:41 AM 57.5°F14.2°C 22.9°F-5.1°C 26% 1.0 mph NW1.6 kmh NW 4.0 mph6.4 kmh 29.88 in1011.9 mb 0.00 in0.0 mm 0.00 in0.0 mm 0.00 in0.0 mm
08:42 AM 57.5°F14.2°C 22.9°F-5.1°C 26% 3.0 mph WNW4.8 kmh WNW 4.0 mph6.4 kmh 29.88 in1011.9 mb 0.00 in0.0 mm 0.00 in0.0 mm 0.00 in0.0 mm
08:43 AM 57.6°F14.2°C 22.2°F-5.4°C 25% 8.0 mph WNW12.9 kmh WNW 13.0 mph20.9 kmh 29.88 in1011.9 mb 0.00 in0.0 mm 0.00 in0.0 mm 0.00 in0.0 mm
08:44 AM 57.6°F14.2°C 22.1°F-5.5°C 25% 8.0 mph WNW12.9 kmh WNW 14.0 mph22.5 kmh 29.88 in1011.9 mb 0.00 in0.0 mm 0.00 in0.0 mm 0.00 in0.0 mm
08:45 AM 57.7°F14.3°C 22.1°F-5.5°C 25% 10.0 mph NW16.1 kmh NW 14.0 mph22.5 kmh 29.88 in1011.9 mb 0.00 in0.0 mm 0.00 in0.0 mm 0.00 in0.0 mm
08:46 AM 57.8°F14.3°C 21.6°F-5.8°C 24% 9.0 mph NW14.5 kmh NW 13.0 mph20.9 kmh 29.88 in1011.9 mb 0.00 in0.0 mm 0.00 in0.0 mm 0.00 in0.0 mm
08:47 AM 57.8°F14.3°C 21.3°F-5.9°C 24% 9.0 mph WNW14.5 kmh WNW 12.0 mph19.3 kmh 29.88 in1011.9 mb 0.00 in0.0 mm 0.00 in0.0 mm 0.00 in0.0 mm
08:48 AM 57.9°F14.4°C 21.3°F-5.9°C 24% 8.0 mph WNW12.9 kmh WNW 12.0 mph19.3 kmh 29.88 in1011.9 mb 0.00 in0.0 mm 0.00 in0.0 mm 0.00 in0.0 mm
08:49 AM 57.9°F14.4°C 20.3°F-6.5°C 23% 5.0 mph WNW8.0 kmh WNW 12.0 mph19.3 kmh 29.88 in1011.9 mb 0.00 in0.0 mm 0.00 in0.0 mm 0.00 in0.0 mm
08:50 AM 57.9°F14.4°C 20.3°F-6.5°C 23% 7.0 mph NW11.3 kmh NW 12.0 mph19.3 kmh 29.88 in1011.9 mb 0.00 in0.0 mm 0.00 in0.0 mm 0.00 in0.0 mm
08:51 AM 58.0°F14.4°C 20.4°F-6.4°C 23% 7.0 mph NW11.3 kmh NW 12.0 mph19.3 kmh 29.87 in1011.5 mb 0.00 in0.0 mm 0.00 in0.0 mm 0.00 in0.0 mm
08:52 AM 58.0°F14.4°C 20.4°F-6.4°C 23% 6.0 mph NW9.7 kmh NW 11.0 mph17.7 kmh 29.88 in1011.9 mb 0.00 in0.0 mm 0.00 in0.0 mm 0.00 in0.0 mm
08:53 AM 58.0°F14.4°C 21.2°F-6.0°C 24% 5.0 mph NNW8.0 kmh NNW 9.0 mph14.5 kmh 29.87 in1011.5 mb 0.00 in0.0 mm 0.00 in0.0 mm 0.00 in0.0 mm
08:54 AM 58.0°F14.4°C 21.4°F-5.9°C 24% 5.0 mph N8.0 kmh N 8.0 mph12.9 kmh 29.87 in1011.5 mb 0.00 in0.0 mm 0.00 in0.0 mm 0.00 in0.0 mm
08:55 AM 58.0°F14.4°C 21.4°F-5.9°C 24% 6.0 mph N9.7 kmh N 8.0 mph12.9 kmh 29.87 in1011.5 mb 0.00 in0.0 mm 0.00 in0.0 mm 0.00 in0.0 mm
08:56 AM 58.0°F14.4°C 21.4°F-5.9°C 24% 8.0 mph NW12.9 kmh NW 10.0 mph16.1 kmh 29.87 in1011.5 mb 0.00 in0.0 mm 0.00 in0.0 mm 0.00 in0.0 mm
08:57 AM 58.0°F14.4°C 21.4°F-5.9°C 24% 5.0 mph NW8.0 kmh NW 10.0 mph16.1 kmh 29.88 in1011.9 mb 0.00 in0.0 mm 0.00 in0.0 mm 0.00 in0.0 mm
08:58 AM 58.1°F14.5°C 21.5°F-5.8°C 24% 9.0 mph NW14.5 kmh NW 12.0 mph19.3 kmh 29.87 in1011.5 mb 0.00 in0.0 mm 0.00 in0.0 mm 0.00 in0.0 mm
08:59 AM 58.1°F14.5°C 21.5°F-5.8°C 24% 9.0 mph NW14.5 kmh NW 12.0 mph19.3 kmh 29.87 in1011.5 mb 0.00 in0.0 mm 0.00 in0.0 mm 0.00 in0.0 mm
09:00 AM 58.2°F14.6°C 21.6°F-5.8°C 24% 8.0 mph NW12.9 kmh NW 12.0 mph19.3 kmh 29.87 in1011.5 mb 0.00 in0.0 mm 0.00 in0.0 mm 0.00 in0.0 mm
09:01 AM 58.2°F14.6°C 21.8°F-5.7°C 24% 4.0 mph NW6.4 kmh NW 10.0 mph16.1 kmh 29.87 in1011.5 mb 0.00 in0.0 mm 0.00 in0.0 mm 0.00 in0.0 mm
09:02 AM 58.3°F14.6°C 22.6°F-5.2°C 25% 4.0 mph NW6.4 kmh NW 7.0 mph11.3 kmh 29.87 in1011.5 mb 0.00 in0.0 mm 0.00 in0.0 mm 0.00 in0.0 mm
09:03 AM 58.3°F14.6°C 22.7°F-5.2°C 25% 4.0 mph NW6.4 kmh NW 9.0 mph14.5 kmh 29.87 in1011.5 mb 0.00 in0.0 mm 0.00 in0.0 mm 0.00 in0.0 mm
09:04 AM 58.4°F14.7°C 22.1°F-5.5°C 24% 6.0 mph NW9.7 kmh NW 9.0 mph14.5 kmh 29.88 in1011.9 mb 0.00 in0.0 mm 0.00 in0.0 mm 0.00 in0.0 mm
09:05 AM 58.5°F14.7°C 21.8°F-5.7°C 24% 7.0 mph NW11.3 kmh NW 12.0 mph19.3 kmh 29.88 in1011.9 mb 0.00 in0.0 mm 0.00 in0.0 mm 0.00 in0.0 mm
09:06 AM 58.5°F14.7°C 21.8°F-5.7°C 24% 7.0 mph NW11.3 kmh NW 16.0 mph25.7 kmh 29.88 in1011.9 mb 0.00 in0.0 mm 0.00 in0.0 mm 0.00 in0.0 mm
09:07 AM 58.5°F14.7°C 21.8°F-5.7°C 24% 11.0 mph NW17.7 kmh NW 16.0 mph25.7 kmh 29.88 in1011.9 mb 0.00 in0.0 mm 0.00 in0.0 mm 0.00 in0.0 mm
09:08 AM 58.5°F14.7°C 21.8°F-5.7°C 24% 5.0 mph NNW8.0 kmh NNW 16.0 mph25.7 kmh 29.87 in1011.5 mb 0.00 in0.0 mm 0.00 in0.0 mm 0.00 in0.0 mm
09:09 AM 58.5°F14.7°C 21.8°F-5.7°C 24% 5.0 mph NW8.0 kmh NW 9.0 mph14.5 kmh 29.87 in1011.5 mb 0.00 in0.0 mm 0.00 in0.0 mm 0.00 in0.0 mm
09:10 AM 58.5°F14.7°C 21.1°F-6.1°C 23% 11.0 mph WNW17.7 kmh WNW 21.0 mph33.8 kmh 29.87 in1011.5 mb 0.00 in0.0 mm 0.00 in0.0 mm 0.00 in0.0 mm
09:11 AM 58.6°F14.8°C 20.9°F-6.2°C 23% 9.0 mph WNW14.5 kmh WNW 21.0 mph33.8 kmh 29.88 in1011.9 mb 0.00 in0.0 mm 0.00 in0.0 mm 0.00 in0.0 mm
09:12 AM 58.6°F14.8°C 20.9°F-6.2°C 23% 9.0 mph NW14.5 kmh NW 16.0 mph25.7 kmh 29.88 in1011.9 mb 0.00 in0.0 mm 0.00 in0.0 mm 0.00 in0.0 mm
09:13 AM 58.7°F14.8°C 20.7°F-6.3°C 23% 10.0 mph NW16.1 kmh NW 17.0 mph27.4 kmh 29.88 in1011.9 mb 0.00 in0.0 mm 0.00 in0.0 mm 0.00 in0.0 mm
09:14 AM 58.7°F14.8°C 20.0°F-6.7°C 22% 12.0 mph NW19.3 kmh NW 18.0 mph29.0 kmh 29.88 in1011.9 mb 0.00 in0.0 mm 0.00 in0.0 mm 0.00 in0.0 mm
09:15 AM 58.6°F14.8°C 19.3°F-7.1°C 21% 12.0 mph NW19.3 kmh NW 18.0 mph29.0 kmh 29.88 in1011.9 mb 0.00 in0.0 mm 0.00 in0.0 mm 0.00 in0.0 mm
09:16 AM 58.6°F14.8°C 19.3°F-7.1°C 22% 11.0 mph NW17.7 kmh NW 18.0 mph29.0 kmh 29.88 in1011.9 mb 0.00 in0.0 mm 0.00 in0.0 mm 0.00 in0.0 mm
09:17 AM 58.5°F14.7°C 19.8°F-6.8°C 22% 8.0 mph NW12.9 kmh NW 15.0 mph24.1 kmh 29.88 in1011.9 mb 0.00 in0.0 mm 0.00 in0.0 mm 0.00 in0.0 mm
09:18 AM 58.5°F14.7°C 19.8°F-6.8°C 22% 11.0 mph NW17.7 kmh NW 18.0 mph29.0 kmh 29.88 in1011.9 mb 0.00 in0.0 mm 0.00 in0.0 mm 0.00 in0.0 mm
09:19 AM 58.5°F14.7°C 19.5°F-6.9°C 22% 9.0 mph NW14.5 kmh NW 18.0 mph29.0 kmh 29.88 in1011.9 mb 0.00 in0.0 mm 0.00 in0.0 mm 0.00 in0.0 mm
09:20 AM 58.5°F14.7°C 19.1°F-7.2°C 21% 8.0 mph WNW12.9 kmh WNW 13.0 mph20.9 kmh 29.88 in1011.9 mb 0.00 in0.0 mm 0.00 in0.0 mm 0.00 in0.0 mm
09:21 AM 58.5°F14.7°C 19.8°F-6.8°C 22% 9.0 mph NW14.5 kmh NW 14.0 mph22.5 kmh 29.88 in1011.9 mb 0.00 in0.0 mm 0.00 in0.0 mm 0.00 in0.0 mm
09:22 AM 58.5°F14.7°C 19.8°F-6.8°C 22% 11.0 mph NW17.7 kmh NW 16.0 mph25.7 kmh 29.88 in1011.9 mb 0.00 in0.0 mm 0.00 in0.0 mm 0.00 in0.0 mm
09:23 AM 58.6°F14.8°C 19.9°F-6.7°C 22% 13.0 mph WNW20.9 kmh WNW 20.0 mph32.2 kmh 29.88 in1011.9 mb 0.00 in0.0 mm 0.00 in0.0 mm 0.00 in0.0 mm
09:24 AM 58.6°F14.8°C 19.9°F-6.7°C 22% 14.0 mph NW22.5 kmh NW 20.0 mph32.2 kmh 29.88 in1011.9 mb 0.00 in0.0 mm 0.00 in0.0 mm 0.00 in0.0 mm
09:25 AM 58.7°F14.8°C 20.0°F-6.7°C 22% 10.0 mph NW16.1 kmh NW 19.0 mph30.6 kmh 29.88 in1011.9 mb 0.00 in0.0 mm 0.00 in0.0 mm 0.00 in0.0 mm
09:26 AM 58.7°F14.8°C 20.0°F-6.7°C 22% 8.0 mph NW12.9 kmh NW 16.0 mph25.7 kmh 29.88 in1011.9 mb 0.00 in0.0 mm 0.00 in0.0 mm 0.00 in0.0 mm
09:27 AM 58.8°F14.9°C 19.4°F-7.0°C 21% 14.0 mph NW22.5 kmh NW 20.0 mph32.2 kmh 29.88 in1011.9 mb 0.00 in0.0 mm 0.00 in0.0 mm 0.00 in0.0 mm
09:28 AM 58.7°F14.8°C 18.9°F-7.3°C 21% 14.0 mph NW22.5 kmh NW 24.0 mph38.6 kmh 29.88 in1011.9 mb 0.00 in0.0 mm 0.00 in0.0 mm 0.00 in0.0 mm
09:29 AM 58.7°F14.8°C 18.9°F-7.3°C 21% 13.0 mph NW20.9 kmh NW 24.0 mph38.6 kmh 29.88 in1011.9 mb 0.00 in0.0 mm 0.00 in0.0 mm 0.00 in0.0 mm
09:30 AM 58.7°F14.8°C 18.9°F-7.3°C 21% 13.0 mph NW20.9 kmh NW 21.0 mph33.8 kmh 29.88 in1011.9 mb 0.00 in0.0 mm 0.00 in0.0 mm 0.00 in0.0 mm
09:31 AM 58.7°F14.8°C 18.9°F-7.3°C 21% 11.0 mph NW17.7 kmh NW 18.0 mph29.0 kmh 29.88 in1011.9 mb 0.00 in0.0 mm 0.00 in0.0 mm 0.00 in0.0 mm
09:32 AM 58.7°F14.8°C 18.9°F-7.3°C 21% 4.0 mph NW6.4 kmh NW 16.0 mph25.7 kmh 29.88 in1011.9 mb 0.00 in0.0 mm 0.00 in0.0 mm 0.00 in0.0 mm
09:33 AM 58.8°F14.9°C 19.0°F-7.2°C 21% 7.0 mph WNW11.3 kmh WNW 13.0 mph20.9 kmh 29.88 in1011.9 mb 0.00 in0.0 mm 0.00 in0.0 mm 0.00 in0.0 mm
09:34 AM 58.8°F14.9°C 19.0°F-7.2°C 21% 5.0 mph NW8.0 kmh NW 13.0 mph20.9 kmh 29.88 in1011.9 mb 0.00 in0.0 mm 0.00 in0.0 mm 0.00 in0.0 mm
09:35 AM 58.9°F14.9°C 19.1°F-7.2°C 21% 8.0 mph NW12.9 kmh NW 11.0 mph17.7 kmh 29.88 in1011.9 mb 0.00 in0.0 mm 0.00 in0.0 mm 0.00 in0.0 mm
09:36 AM 59.0°F15.0°C 20.2°F-6.6°C 22% 6.0 mph NW9.7 kmh NW 11.0 mph17.7 kmh 29.88 in1011.9 mb 0.00 in0.0 mm 0.00 in0.0 mm 0.00 in0.0 mm
09:37 AM 59.1°F15.1°C 20.3°F-6.5°C 22% 10.0 mph NW16.1 kmh NW 17.0 mph27.4 kmh 29.88 in1011.9 mb 0.00 in0.0 mm 0.00 in0.0 mm 0.00 in0.0 mm
09:38 AM 59.1°F15.1°C 19.8°F-6.8°C 22% 13.0 mph NW20.9 kmh NW 18.0 mph29.0 kmh 29.88 in1011.9 mb 0.00 in0.0 mm 0.00 in0.0 mm 0.00 in0.0 mm
09:39 AM 59.2°F15.1°C 19.3°F-7.1°C 21% 8.0 mph NW12.9 kmh NW 18.0 mph29.0 kmh 29.88 in1011.9 mb 0.00 in0.0 mm 0.00 in0.0 mm 0.00 in0.0 mm
09:40 AM 59.2°F15.1°C 19.3°F-7.1°C 21% 10.0 mph NW16.1 kmh NW 14.0 mph22.5 kmh 29.88 in1011.9 mb 0.00 in0.0 mm 0.00 in0.0 mm 0.00 in0.0 mm
09:41 AM 59.2°F15.1°C 19.3°F-7.1°C 21% 12.0 mph NW19.3 kmh NW 15.0 mph24.1 kmh 29.88 in1011.9 mb 0.00 in0.0 mm 0.00 in0.0 mm 0.00 in0.0 mm
09:42 AM 59.2°F15.1°C 19.3°F-7.1°C 21% 10.0 mph WNW16.1 kmh WNW 15.0 mph24.1 kmh 29.88 in1011.9 mb 0.00 in0.0 mm 0.00 in0.0 mm 0.00 in0.0 mm
09:43 AM 59.1°F15.1°C 19.3°F-7.1°C 21% 11.0 mph NW17.7 kmh NW 15.0 mph24.1 kmh 29.88 in1011.9 mb 0.00 in0.0 mm 0.00 in0.0 mm 0.00 in0.0 mm
09:44 AM 59.2°F15.1°C 19.3°F-7.1°C 21% 12.0 mph NW19.3 kmh NW 23.0 mph37.0 kmh 29.88 in1011.9 mb 0.00 in0.0 mm 0.00 in0.0 mm 0.00 in0.0 mm
09:45 AM 59.2°F15.1°C 18.6°F-7.4°C 20% 15.0 mph NW24.1 kmh NW 23.0 mph37.0 kmh 29.88 in1011.9 mb 0.00 in0.0 mm 0.00 in0.0 mm 0.00 in0.0 mm
09:46 AM 59.2°F15.1°C 18.1°F-7.7°C 20% 15.0 mph NW24.1 kmh NW 20.0 mph32.2 kmh 29.88 in1011.9 mb 0.00 in0.0 mm 0.00 in0.0 mm 0.00 in0.0 mm
09:47 AM 59.1°F15.1°C 18.1°F-7.7°C 20% 9.0 mph WNW14.5 kmh WNW 18.0 mph29.0 kmh 29.88 in1011.9 mb 0.00 in0.0 mm 0.00 in0.0 mm 0.00 in0.0 mm
09:48 AM 59.1°F15.1°C 19.1°F-7.2°C 21% 12.0 mph WNW19.3 kmh WNW 20.0 mph32.2 kmh 29.88 in1011.9 mb 0.00 in0.0 mm 0.00 in0.0 mm 0.00 in0.0 mm
09:49 AM 59.1°F15.1°C 19.2°F-7.1°C 21% 10.0 mph WNW16.1 kmh WNW 20.0 mph32.2 kmh 29.88 in1011.9 mb 0.00 in0.0 mm 0.00 in0.0 mm 0.00 in0.0 mm
09:50 AM 59.1°F15.1°C 19.2°F-7.1°C 21% 10.0 mph NW16.1 kmh NW 15.0 mph24.1 kmh 29.88 in1011.9 mb 0.00 in0.0 mm 0.00 in0.0 mm 0.00 in0.0 mm
09:51 AM 59.2°F15.1°C 19.3°F-7.1°C 21% 8.0 mph NW12.9 kmh NW 16.0 mph25.7 kmh 29.88 in1011.9 mb 0.00 in0.0 mm 0.00 in0.0 mm 0.00 in0.0 mm
09:52 AM 59.2°F15.1°C 19.3°F-7.1°C 21% 8.0 mph NW12.9 kmh NW 17.0 mph27.4 kmh 29.88 in1011.9 mb 0.00 in0.0 mm 0.00 in0.0 mm 0.00 in0.0 mm
09:53 AM 59.2°F15.1°C 19.3°F-7.1°C 21% 12.0 mph NW19.3 kmh NW 18.0 mph29.0 kmh 29.88 in1011.9 mb 0.00 in0.0 mm 0.00 in0.0 mm 0.00 in0.0 mm
09:54 AM 59.3°F15.2°C 19.1°F-7.2°C 21% 11.0 mph NW17.7 kmh NW 18.0 mph29.0 kmh 29.88 in1011.9 mb 0.00 in0.0 mm 0.00 in0.0 mm 0.00 in0.0 mm
09:55 AM 59.3°F15.2°C 18.2°F-7.7°C 20% 10.0 mph NW16.1 kmh NW 15.0 mph24.1 kmh 29.88 in1011.9 mb 0.00 in0.0 mm 0.00 in0.0 mm 0.00 in0.0 mm
09:56 AM 59.3°F15.2°C 18.2°F-7.7°C 20% 8.0 mph NW12.9 kmh NW 15.0 mph24.1 kmh 29.88 in1011.9 mb 0.00 in0.0 mm 0.00 in0.0 mm 0.00 in0.0 mm
09:57 AM 59.3°F15.2°C 18.8°F-7.3°C 21% 9.0 mph NW14.5 kmh NW 14.0 mph22.5 kmh 29.88 in1011.9 mb 0.00 in0.0 mm 0.00 in0.0 mm 0.00 in0.0 mm
09:58 AM 59.4°F15.2°C 18.5°F-7.5°C 20% 12.0 mph WNW19.3 kmh WNW 17.0 mph27.4 kmh 29.88 in1011.9 mb 0.00 in0.0 mm 0.00 in0.0 mm 0.00 in0.0 mm
09:59 AM 59.4°F15.2°C 19.5°F-6.9°C 21% 8.0 mph NW12.9 kmh NW 17.0 mph27.4 kmh 29.88 in1011.9 mb 0.00 in0.0 mm 0.00 in0.0 mm 0.00 in0.0 mm
10:00 AM 59.4°F15.2°C 19.5°F-6.9°C 21% 11.0 mph NW17.7 kmh NW 16.0 mph25.7 kmh 29.88 in1011.9 mb 0.00 in0.0 mm 0.00 in0.0 mm 0.00 in0.0 mm
10:01 AM 59.5°F15.3°C 19.5°F-6.9°C 21% 14.0 mph NW22.5 kmh NW 20.0 mph32.2 kmh 29.88 in1011.9 mb 0.00 in0.0 mm 0.00 in0.0 mm 0.00 in0.0 mm
10:02 AM 59.5°F15.3°C 18.9°F-7.3°C 20% 12.0 mph NW19.3 kmh NW 20.0 mph32.2 kmh 29.88 in1011.9 mb 0.00 in0.0 mm 0.00 in0.0 mm 0.00 in0.0 mm
10:03 AM 59.6°F15.3°C 19.3°F-7.1°C 21% 7.0 mph NW11.3 kmh NW 15.0 mph24.1 kmh 29.88 in1011.9 mb 0.00 in0.0 mm 0.00 in0.0 mm 0.00 in0.0 mm
10:04 AM 59.6°F15.3°C 18.6°F-7.4°C 20% 12.0 mph NW19.3 kmh NW 23.0 mph37.0 kmh 29.88 in1011.9 mb 0.00 in0.0 mm 0.00 in0.0 mm 0.00 in0.0 mm
10:05 AM 59.6°F15.3°C 19.4°F-7.0°C 21% 11.0 mph NW17.7 kmh NW 24.0 mph38.6 kmh 29.87 in1011.5 mb 0.00 in0.0 mm 0.00 in0.0 mm 0.00 in0.0 mm
10:06 AM 59.5°F15.3°C 18.4°F-7.6°C 20% 14.0 mph NW22.5 kmh NW 23.0 mph37.0 kmh 29.87 in1011.5 mb 0.00 in0.0 mm 0.00 in0.0 mm 0.00 in0.0 mm
10:07 AM 59.5°F15.3°C 18.4°F-7.6°C 20% 14.0 mph NW22.5 kmh NW 20.0 mph32.2 kmh 29.87 in1011.5 mb 0.00 in0.0 mm 0.00 in0.0 mm 0.00 in0.0 mm
10:08 AM 59.4°F15.2°C 18.3°F-7.6°C 20% 13.0 mph NW20.9 kmh NW 22.0 mph35.4 kmh 29.87 in1011.5 mb 0.00 in0.0 mm 0.00 in0.0 mm 0.00 in0.0 mm
10:09 AM 59.4°F15.2°C 18.3°F-7.6°C 20% 12.0 mph WNW19.3 kmh WNW 24.0 mph38.6 kmh 29.88 in1011.9 mb 0.00 in0.0 mm 0.00 in0.0 mm 0.00 in0.0 mm
10:10 AM 59.4°F15.2°C 18.3°F-7.6°C 20% 9.0 mph NNW14.5 kmh NNW 24.0 mph38.6 kmh 29.88 in1011.9 mb 0.00 in0.0 mm 0.00 in0.0 mm 0.00 in0.0 mm
10:11 AM 59.4°F15.2°C 18.3°F-7.6°C 20% 11.0 mph NW17.7 kmh NW 19.0 mph30.6 kmh 29.88 in1011.9 mb 0.00 in0.0 mm 0.00 in0.0 mm 0.00 in0.0 mm
10:12 AM 59.3°F15.2°C 18.3°F-7.6°C 20% 12.0 mph NW19.3 kmh NW 19.0 mph30.6 kmh 29.87 in1011.5 mb 0.00 in0.0 mm 0.00 in0.0 mm 0.00 in0.0 mm
10:13 AM 59.3°F15.2°C 18.2°F-7.7°C 20% 9.0 mph NW14.5 kmh NW 19.0 mph30.6 kmh 29.87 in1011.5 mb 0.00 in0.0 mm 0.00 in0.0 mm 0.00 in0.0 mm
10:14 AM 59.3°F15.2°C 18.2°F-7.7°C 20% 12.0 mph NW19.3 kmh NW 23.0 mph37.0 kmh 29.87 in1011.5 mb 0.00 in0.0 mm 0.00 in0.0 mm 0.00 in0.0 mm
10:15 AM 59.3°F15.2°C 18.2°F-7.7°C 20% 13.0 mph NW20.9 kmh NW 23.0 mph37.0 kmh 29.87 in1011.5 mb 0.00 in0.0 mm 0.00 in0.0 mm 0.00 in0.0 mm
10:16 AM 59.2°F15.1°C 17.1°F-8.3°C 19% 8.0 mph WNW12.9 kmh WNW 18.0 mph29.0 kmh 29.87 in1011.5 mb 0.00 in0.0 mm 0.00 in0.0 mm 0.00 in0.0 mm
10:17 AM 59.2°F15.1°C 18.4°F-7.6°C 20% 9.0 mph NW14.5 kmh NW 15.0 mph24.1 kmh 29.87 in1011.5 mb 0.00 in0.0 mm 0.00 in0.0 mm 0.00 in0.0 mm
10:18 AM 59.3°F15.2°C 19.3°F-7.1°C 21% 11.0 mph NW17.7 kmh NW 18.0 mph29.0 kmh 29.87 in1011.5 mb 0.00 in0.0 mm 0.00 in0.0 mm 0.00 in0.0 mm
10:19 AM 59.3°F15.2°C 18.8°F-7.3°C 21% 11.0 mph NNW17.7 kmh NNW 19.0 mph30.6 kmh 29.88 in1011.9 mb 0.00 in0.0 mm 0.00 in0.0 mm 0.00 in0.0 mm
10:20 AM 59.3°F15.2°C 18.9°F-7.3°C 21% 10.0 mph NW16.1 kmh NW 19.0 mph30.6 kmh 29.87 in1011.5 mb 0.00 in0.0 mm 0.00 in0.0 mm 0.00 in0.0 mm
10:21 AM 59.3°F15.2°C 19.4°F-7.0°C 21% 10.0 mph NW16.1 kmh NW 17.0 mph27.4 kmh 29.88 in1011.9 mb 0.00 in0.0 mm 0.00 in0.0 mm 0.00 in0.0 mm
10:22 AM 59.3°F15.2°C 19.4°F-7.0°C 21% 10.0 mph NW16.1 kmh NW 17.0 mph27.4 kmh 29.87 in1011.5 mb 0.00 in0.0 mm 0.00 in0.0 mm 0.00 in0.0 mm
10:23 AM 59.3°F15.2°C 19.2°F-7.1°C 21% 13.0 mph NW20.9 kmh NW 18.0 mph29.0 kmh 29.88 in1011.9 mb 0.00 in0.0 mm 0.00 in0.0 mm 0.00 in0.0 mm
10:24 AM 59.3°F15.2°C 18.6°F-7.4°C 20% 10.0 mph NW16.1 kmh NW 18.0 mph29.0 kmh 29.88 in1011.9 mb 0.00 in0.0 mm 0.00 in0.0 mm 0.00 in0.0 mm
10:25 AM 59.4°F15.2°C 18.9°F-7.3°C 21% 17.0 mph NW27.4 kmh NW 25.0 mph40.2 kmh 29.87 in1011.5 mb 0.00 in0.0 mm 0.00 in0.0 mm 0.00 in0.0 mm
10:26 AM 59.4°F15.2°C 18.3°F-7.6°C 20% 11.0 mph NW17.7 kmh NW 25.0 mph40.2 kmh 29.87 in1011.5 mb 0.00 in0.0 mm 0.00 in0.0 mm 0.00 in0.0 mm
10:27 AM 59.3°F15.2°C 18.3°F-7.6°C 20% 13.0 mph NW20.9 kmh NW 22.0 mph35.4 kmh 29.87 in1011.5 mb 0.00 in0.0 mm 0.00 in0.0 mm 0.00 in0.0 mm
10:28 AM 59.3°F15.2°C 18.2°F-7.7°C 20% 12.0 mph NW19.3 kmh NW 22.0 mph35.4 kmh 29.87 in1011.5 mb 0.00 in0.0 mm 0.00 in0.0 mm 0.00 in0.0 mm
10:29 AM 59.3°F15.2°C 18.2°F-7.7°C 20% 10.0 mph NNW16.1 kmh NNW 20.0 mph32.2 kmh 29.87 in1011.5 mb 0.00 in0.0 mm 0.00 in0.0 mm 0.00 in0.0 mm
10:30 AM 59.2°F15.1°C 18.1°F-7.7°C 20% 13.0 mph NW20.9 kmh NW 20.0 mph32.2 kmh 29.88 in1011.9 mb 0.00 in0.0 mm 0.00 in0.0 mm 0.00 in0.0 mm
10:31 AM 59.1°F15.1°C 18.1°F-7.7°C 20% 11.0 mph NW17.7 kmh NW 20.0 mph32.2 kmh 29.87 in1011.5 mb 0.00 in0.0 mm 0.00 in0.0 mm 0.00 in0.0 mm
10:32 AM 59.0°F15.0°C 18.0°F-7.8°C 20% 12.0 mph NW19.3 kmh NW 20.0 mph32.2 kmh 29.87 in1011.5 mb 0.00 in0.0 mm 0.00 in0.0 mm 0.00 in0.0 mm
10:33 AM 59.0°F15.0°C 18.0°F-7.8°C 20% 16.0 mph NW25.7 kmh NW 23.0 mph37.0 kmh 29.87 in1011.5 mb 0.00 in0.0 mm 0.00 in0.0 mm 0.00 in0.0 mm
10:34 AM 58.9°F14.9°C 18.1°F-7.7°C 20% 7.0 mph NW11.3 kmh NW 23.0 mph37.0 kmh 29.87 in1011.5 mb 0.00 in0.0 mm 0.00 in0.0 mm 0.00 in0.0 mm
10:35 AM 59.0°F15.0°C 19.1°F-7.2°C 21% 5.0 mph NW8.0 kmh NW 17.0 mph27.4 kmh 29.87 in1011.5 mb 0.00 in0.0 mm 0.00 in0.0 mm 0.00 in0.0 mm
10:36 AM 59.1°F15.1°C 19.2°F-7.1°C 21% 10.0 mph NW16.1 kmh NW 16.0 mph25.7 kmh 29.87 in1011.5 mb 0.00 in0.0 mm 0.00 in0.0 mm 0.00 in0.0 mm
10:37 AM 59.2°F15.1°C 19.3°F-7.1°C 21% 4.0 mph NW6.4 kmh NW 16.0 mph25.7 kmh 29.87 in1011.5 mb 0.00 in0.0 mm 0.00 in0.0 mm 0.00 in0.0 mm
10:38 AM 59.3°F15.2°C 19.4°F-7.0°C 21% 9.0 mph NNW14.5 kmh NNW 13.0 mph20.9 kmh 29.87 in1011.5 mb 0.00 in0.0 mm 0.00 in0.0 mm 0.00 in0.0 mm
10:39 AM 59.4°F15.2°C 19.4°F-7.0°C 21% 16.0 mph NW25.7 kmh NW 23.0 mph37.0 kmh 29.87 in1011.5 mb 0.00 in0.0 mm 0.00 in0.0 mm 0.00 in0.0 mm
10:40 AM 59.4°F15.2°C 19.5°F-6.9°C 21% 12.0 mph NW19.3 kmh NW 23.0 mph37.0 kmh 29.87 in1011.5 mb 0.00 in0.0 mm 0.00 in0.0 mm 0.00 in0.0 mm
10:41 AM 59.5°F15.3°C 19.6°F-6.9°C 21% 8.0 mph NW12.9 kmh NW 19.0 mph30.6 kmh 29.87 in1011.5 mb 0.00 in0.0 mm 0.00 in0.0 mm 0.00 in0.0 mm
10:42 AM 59.6°F15.3°C 19.2°F-7.1°C 21% 14.0 mph NW22.5 kmh NW 21.0 mph33.8 kmh 29.87 in1011.5 mb 0.00 in0.0 mm 0.00 in0.0 mm 0.00 in0.0 mm
10:43 AM 59.6°F15.3°C 17.9°F-7.8°C 19% 11.0 mph WNW17.7 kmh WNW 22.0 mph35.4 kmh 29.87 in1011.5 mb 0.00 in0.0 mm 0.00 in0.0 mm 0.00 in0.0 mm
10:44 AM 59.6°F15.3°C 18.2°F-7.7°C 20% 11.0 mph NW17.7 kmh NW 22.0 mph35.4 kmh 29.87 in1011.5 mb 0.00 in0.0 mm 0.00 in0.0 mm 0.00 in0.0 mm
10:45 AM 59.6°F15.3°C 18.5°F-7.5°C 20% 10.0 mph NW16.1 kmh NW 17.0 mph27.4 kmh 29.87 in1011.5 mb 0.00 in0.0 mm 0.00 in0.0 mm 0.00 in0.0 mm
10:46 AM 59.7°F15.4°C 18.6°F-7.4°C 20% 6.0 mph N9.7 kmh N 14.0 mph22.5 kmh 29.87 in1011.5 mb 0.00 in0.0 mm 0.00 in0.0 mm 0.00 in0.0 mm
10:47 AM 59.7°F15.4°C 18.9°F-7.3°C 20% 8.0 mph NNW12.9 kmh NNW 11.0 mph17.7 kmh 29.87 in1011.5 mb 0.00 in0.0 mm 0.00 in0.0 mm 0.00 in0.0 mm
10:48 AM 59.8°F15.4°C 19.8°F-6.8°C 21% 9.0 mph NW14.5 kmh NW 17.0 mph27.4 kmh 29.87 in1011.5 mb 0.00 in0.0 mm 0.00 in0.0 mm 0.00 in0.0 mm
10:49 AM 59.8°F15.4°C 19.1°F-7.2°C 20% 13.0 mph NW20.9 kmh NW 22.0 mph35.4 kmh 29.87 in1011.5 mb 0.00 in0.0 mm 0.00 in0.0 mm 0.00 in0.0 mm
10:50 AM 59.7°F15.4°C 17.7°F-7.9°C 19% 12.0 mph NW19.3 kmh NW 22.0 mph35.4 kmh 29.87 in1011.5 mb 0.00 in0.0 mm 0.00 in0.0 mm 0.00 in0.0 mm
10:51 AM 59.7°F15.4°C 17.4°F-8.1°C 19% 16.0 mph NW25.7 kmh NW 24.0 mph38.6 kmh 29.87 in1011.5 mb 0.00 in0.0 mm 0.00 in0.0 mm 0.00 in0.0 mm
10:52 AM 59.6°F15.3°C 17.3°F-8.2°C 19% 11.0 mph NW17.7 kmh NW 24.0 mph38.6 kmh 29.87 in1011.5 mb 0.00 in0.0 mm 0.00 in0.0 mm 0.00 in0.0 mm
10:53 AM 59.6°F15.3°C 17.3°F-8.2°C 19% 11.0 mph NW17.7 kmh NW 20.0 mph32.2 kmh 29.87 in1011.5 mb 0.00 in0.0 mm 0.00 in0.0 mm 0.00 in0.0 mm
10:54 AM 59.5°F15.3°C 17.2°F-8.2°C 19% 11.0 mph NW17.7 kmh NW 22.0 mph35.4 kmh 29.86 in1011.2 mb 0.00 in0.0 mm 0.00 in0.0 mm 0.00 in0.0 mm
10:55 AM 59.5°F15.3°C 17.9°F-7.8°C 20% 9.0 mph NW14.5 kmh NW 22.0 mph35.4 kmh 29.86 in1011.2 mb 0.00 in0.0 mm 0.00 in0.0 mm 0.00 in0.0 mm
10:56 AM 59.6°F15.3°C 18.5°F-7.5°C 20% 5.0 mph NNW8.0 kmh NNW 16.0 mph25.7 kmh 29.86 in1011.2 mb 0.00 in0.0 mm 0.00 in0.0 mm 0.00 in0.0 mm
10:57 AM 59.7°F15.4°C 18.6°F-7.4°C 20% 8.0 mph NW12.9 kmh NW 13.0 mph20.9 kmh 29.86 in1011.2 mb 0.00 in0.0 mm 0.00 in0.0 mm 0.00 in0.0 mm
10:58 AM 59.8°F15.4°C 18.6°F-7.4°C 20% 6.0 mph NW9.7 kmh NW 13.0 mph20.9 kmh 29.86 in1011.2 mb 0.00 in0.0 mm 0.00 in0.0 mm 0.00 in0.0 mm
10:59 AM 59.9°F15.5°C 18.7°F-7.4°C 20% 11.0 mph NW17.7 kmh NW 15.0 mph24.1 kmh 29.86 in1011.2 mb 0.00 in0.0 mm 0.00 in0.0 mm 0.00 in0.0 mm
11:00 AM 60.0°F15.6°C 18.8°F-7.3°C 20% 14.0 mph NW22.5 kmh NW 27.0 mph43.5 kmh 29.86 in1011.2 mb 0.00 in0.0 mm 0.00 in0.0 mm 0.00 in0.0 mm
11:01 AM 60.0°F15.6°C 18.1°F-7.7°C 19% 9.0 mph NW14.5 kmh NW 27.0 mph43.5 kmh 29.86 in1011.2 mb 0.00 in0.0 mm 0.00 in0.0 mm 0.00 in0.0 mm
11:02 AM 60.0°F15.6°C 17.6°F-8.0°C 19% 5.0 mph NW8.0 kmh NW 13.0 mph20.9 kmh 29.86 in1011.2 mb 0.00 in0.0 mm 0.00 in0.0 mm 0.00 in0.0 mm
11:03 AM 60.0°F15.6°C 17.7°F-7.9°C 19% 5.0 mph NW8.0 kmh NW 10.0 mph16.1 kmh 29.86 in1011.2 mb 0.00 in0.0 mm 0.00 in0.0 mm 0.00 in0.0 mm
11:04 AM 60.0°F15.6°C 18.6°F-7.4°C 20% 8.0 mph NW12.9 kmh NW 12.0 mph19.3 kmh 29.86 in1011.2 mb 0.00 in0.0 mm 0.00 in0.0 mm 0.00 in0.0 mm
11:05 AM 60.1°F15.6°C 18.1°F-7.7°C 19% 7.0 mph NW11.3 kmh NW 13.0 mph20.9 kmh 29.86 in1011.2 mb 0.00 in0.0 mm 0.00 in0.0 mm 0.00 in0.0 mm
11:06 AM 60.1°F15.6°C 18.3°F-7.6°C 20% 12.0 mph NW19.3 kmh NW 21.0 mph33.8 kmh 29.86 in1011.2 mb 0.00 in0.0 mm 0.00 in0.0 mm 0.00 in0.0 mm
11:07 AM 60.1°F15.6°C 18.5°F-7.5°C 20% 15.0 mph NNW24.1 kmh NNW 21.0 mph33.8 kmh 29.86 in1011.2 mb 0.00 in0.0 mm 0.00 in0.0 mm 0.00 in0.0 mm
11:08 AM 60.0°F15.6°C 17.8°F-7.9°C 19% 14.0 mph 22.5 kmh 22.0 mph35.4 kmh 29.86 in1011.2 mb 0.00 in0.0 mm 0.00 in0.0 mm 0.00 in0.0 mm
11:09 AM 59.8°F15.4°C 17.4°F-8.1°C 19% 10.0 mph N16.1 kmh N 22.0 mph35.4 kmh 29.86 in1011.2 mb 0.00 in0.0 mm 0.00 in0.0 mm 0.00 in0.0 mm
11:10 AM 59.5°F15.3°C 17.3°F-8.2°C 19% 11.0 mph N17.7 kmh N 15.0 mph24.1 kmh 29.86 in1011.2 mb 0.00 in0.0 mm 0.00 in0.0 mm 0.00 in0.0 mm
11:11 AM 59.4°F15.2°C 17.2°F-8.2°C 19% 10.0 mph NNW16.1 kmh NNW 18.0 mph29.0 kmh 29.86 in1011.2 mb 0.00 in0.0 mm 0.00 in0.0 mm 0.00 in0.0 mm
11:12 AM 59.3°F15.2°C 16.4°F-8.7°C 18% 13.0 mph N20.9 kmh N 18.0 mph29.0 kmh 29.86 in1011.2 mb 0.00 in0.0 mm 0.00 in0.0 mm 0.00 in0.0 mm
11:13 AM 59.3°F15.2°C 15.8°F-9.0°C 18% 12.0 mph NNW19.3 kmh NNW 17.0 mph27.4 kmh 29.86 in1011.2 mb 0.00 in0.0 mm 0.00 in0.0 mm 0.00 in0.0 mm
11:14 AM 59.2°F15.1°C 16.8°F-8.4°C 19% 13.0 mph N20.9 kmh N 20.0 mph32.2 kmh 29.86 in1011.2 mb 0.00 in0.0 mm 0.00 in0.0 mm 0.00 in0.0 mm
11:15 AM 59.2°F15.1°C 17.0°F-8.3°C 19% 12.0 mph NW19.3 kmh NW 20.0 mph32.2 kmh 29.86 in1011.2 mb 0.00 in0.0 mm 0.00 in0.0 mm 0.00 in0.0 mm
11:16 AM 59.3°F15.2°C 17.4°F-8.1°C 19% 13.0 mph NW20.9 kmh NW 22.0 mph35.4 kmh 29.86 in1011.2 mb 0.00 in0.0 mm 0.00 in0.0 mm 0.00 in0.0 mm
11:17 AM 59.3°F15.2°C 18.2°F-7.7°C 20% 14.0 mph NW22.5 kmh NW 22.0 mph35.4 kmh 29.86 in1011.2 mb 0.00 in0.0 mm 0.00 in0.0 mm 0.00 in0.0 mm
11:18 AM 59.4°F15.2°C 18.3°F-7.6°C 20% 7.0 mph NW11.3 kmh NW 17.0 mph27.4 kmh 29.86 in1011.2 mb 0.00 in0.0 mm 0.00 in0.0 mm 0.00 in0.0 mm
11:19 AM 59.4°F15.2°C 18.3°F-7.6°C 20% 12.0 mph NW19.3 kmh NW 15.0 mph24.1 kmh 29.86 in1011.2 mb 0.00 in0.0 mm 0.00 in0.0 mm 0.00 in0.0 mm
11:20 AM 59.5°F15.3°C 18.4°F-7.6°C 20% 6.0 mph WNW9.7 kmh WNW 15.0 mph24.1 kmh 29.86 in1011.2 mb 0.00 in0.0 mm 0.00 in0.0 mm 0.00 in0.0 mm
11:21 AM 59.6°F15.3°C 18.5°F-7.5°C 20% 9.0 mph NW14.5 kmh NW 16.0 mph25.7 kmh 29.86 in1011.2 mb 0.00 in0.0 mm 0.00 in0.0 mm 0.00 in0.0 mm
11:22 AM 59.8°F15.4°C 18.6°F-7.4°C 20% 10.0 mph NW16.1 kmh NW 16.0 mph25.7 kmh 29.86 in1011.2 mb 0.00 in0.0 mm 0.00 in0.0 mm 0.00 in0.0 mm
11:23 AM 59.9°F15.5°C 18.2°F-7.7°C 20% 10.0 mph NW16.1 kmh NW 13.0 mph20.9 kmh 29.86 in1011.2 mb 0.00 in0.0 mm 0.00 in0.0 mm 0.00 in0.0 mm
11:24 AM 59.9°F15.5°C 17.6°F-8.0°C 19% 10.0 mph NW16.1 kmh NW 14.0 mph22.5 kmh 29.86 in1011.2 mb 0.00 in0.0 mm 0.00 in0.0 mm 0.00 in0.0 mm
11:25 AM 59.9°F15.5°C 17.6°F-8.0°C 19% 6.0 mph NNW9.7 kmh NNW 14.0 mph22.5 kmh 29.86 in1011.2 mb 0.00 in0.0 mm 0.00 in0.0 mm 0.00 in0.0 mm
11:26 AM 60.0°F15.6°C 18.7°F-7.4°C 20% 9.0 mph NW14.5 kmh NW 12.0 mph19.3 kmh 29.86 in1011.2 mb 0.00 in0.0 mm 0.00 in0.0 mm 0.00 in0.0 mm
11:27 AM 60.1°F15.6°C 18.1°F-7.7°C 19% 8.0 mph WNW12.9 kmh WNW 12.0 mph19.3 kmh 29.86 in1011.2 mb 0.00 in0.0 mm 0.00 in0.0 mm 0.00 in0.0 mm
11:28 AM 60.3°F15.7°C 18.7°F-7.4°C 20% 10.0 mph NW16.1 kmh NW 16.0 mph25.7 kmh 29.86 in1011.2 mb 0.00 in0.0 mm 0.00 in0.0 mm 0.00 in0.0 mm
11:29 AM 60.3°F15.7°C 17.9°F-7.8°C 19% 15.0 mph NW24.1 kmh NW 23.0 mph37.0 kmh 29.86 in1011.2 mb 0.00 in0.0 mm 0.00 in0.0 mm 0.00 in0.0 mm
11:30 AM 60.4°F15.8°C 18.0°F-7.8°C 19% 12.0 mph NW19.3 kmh NW 23.0 mph37.0 kmh 29.86 in1011.2 mb 0.00 in0.0 mm 0.00 in0.0 mm 0.00 in0.0 mm
11:31 AM 60.5°F15.8°C 17.4°F-8.1°C 18% 14.0 mph NW22.5 kmh NW 22.0 mph35.4 kmh 29.86 in1011.2 mb 0.00 in0.0 mm 0.00 in0.0 mm 0.00 in0.0 mm
11:32 AM 60.5°F15.8°C 16.8°F-8.4°C 18% 17.0 mph NW27.4 kmh NW 23.0 mph37.0 kmh 29.86 in1011.2 mb 0.00 in0.0 mm 0.00 in0.0 mm 0.00 in0.0 mm
11:33 AM 60.5°F15.8°C 18.0°F-7.8°C 19% 14.0 mph WNW22.5 kmh WNW 23.0 mph37.0 kmh 29.86 in1011.2 mb 0.00 in0.0 mm 0.00 in0.0 mm 0.00 in0.0 mm
11:34 AM 60.5°F15.8°C 18.0°F-7.8°C 19% 14.0 mph NW22.5 kmh NW 25.0 mph40.2 kmh 29.86 in1011.2 mb 0.00 in0.0 mm 0.00 in0.0 mm 0.00 in0.0 mm
11:35 AM 60.5°F15.8°C 17.5°F-8.1°C 19% 15.0 mph NW24.1 kmh NW 25.0 mph40.2 kmh 29.86 in1011.2 mb 0.00 in0.0 mm 0.00 in0.0 mm 0.00 in0.0 mm
11:36 AM 60.5°F15.8°C 16.8°F-8.4°C 18% 14.0 mph WNW22.5 kmh WNW 25.0 mph40.2 kmh 29.86 in1011.2 mb 0.00 in0.0 mm 0.00 in0.0 mm 0.00 in0.0 mm
11:37 AM 60.5°F15.8°C 16.8°F-8.4°C 18% 10.0 mph NW16.1 kmh NW 21.0 mph33.8 kmh 29.86 in1011.2 mb 0.00 in0.0 mm 0.00 in0.0 mm 0.00 in0.0 mm
11:38 AM 60.5°F15.8°C 16.9°F-8.4°C 18% 11.0 mph NW17.7 kmh NW 20.0 mph32.2 kmh 29.86 in1011.2 mb 0.00 in0.0 mm 0.00 in0.0 mm 0.00 in0.0 mm
11:39 AM 60.6°F15.9°C 18.1°F-7.7°C 19% 11.0 mph NW17.7 kmh NW 18.0 mph29.0 kmh 29.86 in1011.2 mb 0.00 in0.0 mm 0.00 in0.0 mm 0.00 in0.0 mm
11:40 AM 60.7°F15.9°C 18.2°F-7.7°C 19% 10.0 mph NW16.1 kmh NW 16.0 mph25.7 kmh 29.86 in1011.2 mb 0.00 in0.0 mm 0.00 in0.0 mm 0.00 in0.0 mm
11:41 AM 60.7°F15.9°C 17.6°F-8.0°C 19% 18.0 mph NW29.0 kmh NW 22.0 mph35.4 kmh 29.86 in1011.2 mb 0.00 in0.0 mm 0.00 in0.0 mm 0.00 in0.0 mm
11:42 AM 60.7°F15.9°C 16.9°F-8.4°C 18% 16.0 mph NW25.7 kmh NW 24.0 mph38.6 kmh 29.86 in1011.2 mb 0.00 in0.0 mm 0.00 in0.0 mm 0.00 in0.0 mm
11:43 AM 60.6°F15.9°C 16.8°F-8.4°C 18% 18.0 mph WNW29.0 kmh WNW 26.0 mph41.8 kmh 29.86 in1011.2 mb 0.00 in0.0 mm 0.00 in0.0 mm 0.00 in0.0 mm
11:44 AM 60.5°F15.8°C 18.0°F-7.8°C 19% 12.0 mph NW19.3 kmh NW 26.0 mph41.8 kmh 29.85 in1010.8 mb 0.00 in0.0 mm 0.00 in0.0 mm 0.00 in0.0 mm
11:45 AM 60.5°F15.8°C 18.1°F-7.7°C 19% 11.0 mph NW17.7 kmh NW 21.0 mph33.8 kmh 29.86 in1011.2 mb 0.00 in0.0 mm 0.00 in0.0 mm 0.00 in0.0 mm
11:46 AM 60.5°F15.8°C 17.6°F-8.0°C 19% 15.0 mph NW24.1 kmh NW 26.0 mph41.8 kmh 29.85 in1010.8 mb 0.00 in0.0 mm 0.00 in0.0 mm 0.00 in0.0 mm
11:47 AM 60.4°F15.8°C 16.7°F-8.5°C 18% 17.0 mph WNW27.4 kmh WNW 29.0 mph46.7 kmh 29.86 in1011.2 mb 0.00 in0.0 mm 0.00 in0.0 mm 0.00 in0.0 mm
11:48 AM 60.3°F15.7°C 16.6°F-8.6°C 18% 11.0 mph NW17.7 kmh NW 29.0 mph46.7 kmh 29.85 in1010.8 mb 0.00 in0.0 mm 0.00 in0.0 mm 0.00 in0.0 mm
11:49 AM 60.3°F15.7°C 16.6°F-8.6°C 18% 14.0 mph NW22.5 kmh NW 21.0 mph33.8 kmh 29.86 in1011.2 mb 0.00 in0.0 mm 0.00 in0.0 mm 0.00 in0.0 mm
11:50 AM 60.4°F15.8°C 16.7°F-8.5°C 18% 17.0 mph NW27.4 kmh NW 23.0 mph37.0 kmh 29.85 in1010.8 mb 0.00 in0.0 mm 0.00 in0.0 mm 0.00 in0.0 mm
11:51 AM 60.4°F15.8°C 16.7°F-8.5°C 18% 15.0 mph NW24.1 kmh NW 23.0 mph37.0 kmh 29.85 in1010.8 mb 0.00 in0.0 mm 0.00 in0.0 mm 0.00 in0.0 mm
11:52 AM 60.4°F15.8°C 16.7°F-8.5°C 18% 15.0 mph WNW24.1 kmh WNW 27.0 mph43.5 kmh 29.85 in1010.8 mb 0.00 in0.0 mm 0.00 in0.0 mm 0.00 in0.0 mm
11:53 AM 60.3°F15.7°C 16.6°F-8.6°C 18% 16.0 mph NW25.7 kmh NW 27.0 mph43.5 kmh 29.85 in1010.8 mb 0.00 in0.0 mm 0.00 in0.0 mm 0.00 in0.0 mm
11:54 AM 60.3°F15.7°C 16.6°F-8.6°C 18% 9.0 mph NW14.5 kmh NW 22.0 mph35.4 kmh 29.85 in1010.8 mb 0.00 in0.0 mm 0.00 in0.0 mm 0.00 in0.0 mm
11:55 AM 60.3°F15.7°C 17.7°F-7.9°C 19% 9.0 mph NW14.5 kmh NW 16.0 mph25.7 kmh 29.85 in1010.8 mb 0.00 in0.0 mm 0.00 in0.0 mm 0.00 in0.0 mm
11:56 AM 60.5°F15.8°C 17.2°F-8.2°C 18% 10.0 mph NW16.1 kmh NW 16.0 mph25.7 kmh 29.85 in1010.8 mb 0.00 in0.0 mm 0.00 in0.0 mm 0.00 in0.0 mm
11:57 AM 60.7°F15.9°C 17.9°F-7.8°C 19% 11.0 mph WNW17.7 kmh WNW 16.0 mph25.7 kmh 29.85 in1010.8 mb 0.00 in0.0 mm 0.00 in0.0 mm 0.00 in0.0 mm
11:58 AM 60.8°F16.0°C 17.0°F-8.3°C 18% 14.0 mph NW22.5 kmh NW 24.0 mph38.6 kmh 29.85 in1010.8 mb 0.00 in0.0 mm 0.00 in0.0 mm 0.00 in0.0 mm
11:59 AM 60.9°F16.1°C 17.1°F-8.3°C 18% 11.0 mph NW17.7 kmh NW 24.0 mph38.6 kmh 29.85 in1010.8 mb 0.00 in0.0 mm 0.00 in0.0 mm 0.00 in0.0 mm
12:00 PM 60.9°F16.1°C 17.1°F-8.3°C 18% 19.0 mph NW30.6 kmh NW 28.0 mph45.1 kmh 29.85 in1010.8 mb 0.00 in0.0 mm 0.00 in0.0 mm 0.00 in0.0 mm
12:01 PM 60.8°F16.0°C 16.2°F-8.8°C 17% 11.0 mph NW17.7 kmh NW 28.0 mph45.1 kmh 29.85 in1010.8 mb 0.00 in0.0 mm 0.00 in0.0 mm 0.00 in0.0 mm
12:02 PM 60.9°F16.1°C 17.1°F-8.3°C 18% 10.0 mph WNW16.1 kmh WNW 19.0 mph30.6 kmh 29.85 in1010.8 mb 0.00 in0.0 mm 0.00 in0.0 mm 0.00 in0.0 mm
12:03 PM 60.9°F16.1°C 15.9°F-8.9°C 17% 15.0 mph NW24.1 kmh NW 21.0 mph33.8 kmh 29.85 in1010.8 mb 0.00 in0.0 mm 0.00 in0.0 mm 0.00 in0.0 mm
12:04 PM 61.0°F16.1°C 15.9°F-8.9°C 17% 18.0 mph NW29.0 kmh NW 23.0 mph37.0 kmh 29.85 in1010.8 mb 0.00 in0.0 mm 0.00 in0.0 mm 0.00 in0.0 mm
12:05 PM 61.0°F16.1°C 15.1°F-9.4°C 16% 16.0 mph NW25.7 kmh NW 23.0 mph37.0 kmh 29.85 in1010.8 mb 0.00 in0.0 mm 0.00 in0.0 mm 0.00 in0.0 mm
12:06 PM 60.8°F16.0°C 14.4°F-9.8°C 16% 12.0 mph WNW19.3 kmh WNW 23.0 mph37.0 kmh 29.85 in1010.8 mb 0.00 in0.0 mm 0.00 in0.0 mm 0.00 in0.0 mm
12:07 PM 60.8°F16.0°C 15.5°F-9.2°C 17% 9.0 mph WNW14.5 kmh WNW 23.0 mph37.0 kmh 29.85 in1010.8 mb 0.00 in0.0 mm 0.00 in0.0 mm 0.00 in0.0 mm
12:08 PM 60.8°F16.0°C 15.5°F-9.2°C 17% 17.0 mph W27.4 kmh W 28.0 mph45.1 kmh 29.85 in1010.8 mb 0.00 in0.0 mm 0.00 in0.0 mm 0.00 in0.0 mm
12:09 PM 60.8°F16.0°C 14.7°F-9.6°C 16% 13.0 mph WNW20.9 kmh WNW 28.0 mph45.1 kmh 29.85 in1010.8 mb 0.00 in0.0 mm 0.00 in0.0 mm 0.00 in0.0 mm
12:10 PM 60.8°F16.0°C 15.7°F-9.1°C 17% 10.0 mph NW16.1 kmh NW 17.0 mph27.4 kmh 29.85 in1010.8 mb 0.00 in0.0 mm 0.00 in0.0 mm 0.00 in0.0 mm
12:11 PM 61.0°F16.1°C 15.9°F-8.9°C 17% 12.0 mph WNW19.3 kmh WNW 21.0 mph33.8 kmh 29.85 in1010.8 mb 0.00 in0.0 mm 0.00 in0.0 mm 0.00 in0.0 mm
12:12 PM 61.1°F16.2°C 14.9°F-9.5°C 16% 18.0 mph WNW29.0 kmh WNW 25.0 mph40.2 kmh 29.85 in1010.8 mb 0.00 in0.0 mm 0.00 in0.0 mm 0.00 in0.0 mm
12:13 PM 61.0°F16.1°C 14.5°F-9.7°C 16% 18.0 mph WNW29.0 kmh WNW 31.0 mph49.9 kmh 29.85 in1010.8 mb 0.00 in0.0 mm 0.00 in0.0 mm 0.00 in0.0 mm
12:14 PM 61.0°F16.1°C 14.7°F-9.6°C 16% 11.0 mph NW17.7 kmh NW 31.0 mph49.9 kmh 29.85 in1010.8 mb 0.00 in0.0 mm 0.00 in0.0 mm 0.00 in0.0 mm
12:15 PM 61.0°F16.1°C 15.4°F-9.2°C 17% 20.0 mph NW32.2 kmh NW 32.0 mph51.5 kmh 29.85 in1010.8 mb 0.00 in0.0 mm 0.00 in0.0 mm 0.00 in0.0 mm
12:16 PM 60.9°F16.1°C 14.4°F-9.8°C 16% 17.0 mph WNW27.4 kmh WNW 32.0 mph51.5 kmh 29.85 in1010.8 mb 0.00 in0.0 mm 0.00 in0.0 mm 0.00 in0.0 mm
12:17 PM 60.7°F15.9°C 14.3°F-9.8°C 16% 21.0 mph NW33.8 kmh NW 30.0 mph48.3 kmh 29.85 in1010.8 mb 0.00 in0.0 mm 0.00 in0.0 mm 0.00 in0.0 mm
12:18 PM 60.5°F15.8°C 14.1°F-9.9°C 16% 18.0 mph WNW29.0 kmh WNW 30.0 mph48.3 kmh 29.85 in1010.8 mb 0.00 in0.0 mm 0.00 in0.0 mm 0.00 in0.0 mm
12:19 PM 60.2°F15.7°C 15.1°F-9.4°C 17% 14.0 mph NW22.5 kmh NW 27.0 mph43.5 kmh 29.85 in1010.8 mb 0.00 in0.0 mm 0.00 in0.0 mm 0.00 in0.0 mm
12:20 PM 60.1°F15.6°C 15.1°F-9.4°C 17% 17.0 mph NW27.4 kmh NW 24.0 mph38.6 kmh 29.85 in1010.8 mb 0.00 in0.0 mm 0.00 in0.0 mm 0.00 in0.0 mm
12:21 PM 60.0°F15.6°C 15.1°F-9.4°C 17% 11.0 mph NW17.7 kmh NW 24.0 mph38.6 kmh 29.85 in1010.8 mb 0.00 in0.0 mm 0.00 in0.0 mm 0.00 in0.0 mm
12:22 PM 59.9°F15.5°C 15.0°F-9.4°C 17% 11.0 mph NW17.7 kmh NW 18.0 mph29.0 kmh 29.85 in1010.8 mb 0.00 in0.0 mm 0.00 in0.0 mm 0.00 in0.0 mm
12:23 PM 59.9°F15.5°C 15.0°F-9.4°C 17% 6.0 mph NW9.7 kmh NW 18.0 mph29.0 kmh 29.85 in1010.8 mb 0.00 in0.0 mm 0.00 in0.0 mm 0.00 in0.0 mm
12:24 PM 59.8°F15.4°C 15.9°F-8.9°C 18% 15.0 mph NW24.1 kmh NW 24.0 mph38.6 kmh 29.85 in1010.8 mb 0.00 in0.0 mm 0.00 in0.0 mm 0.00 in0.0 mm
12:25 PM 59.8°F15.4°C 16.2°F-8.8°C 18% 11.0 mph NW17.7 kmh NW 24.0 mph38.6 kmh 29.85 in1010.8 mb 0.00 in0.0 mm 0.00 in0.0 mm 0.00 in0.0 mm
12:26 PM 59.8°F15.4°C 16.2°F-8.8°C 18% 15.0 mph WNW24.1 kmh WNW 23.0 mph37.0 kmh 29.85 in1010.8 mb 0.00 in0.0 mm 0.00 in0.0 mm 0.00 in0.0 mm
12:27 PM 59.7°F15.4°C 16.1°F-8.8°C 18% 10.0 mph NW16.1 kmh NW 23.0 mph37.0 kmh 29.85 in1010.8 mb 0.00 in0.0 mm 0.00 in0.0 mm 0.00 in0.0 mm
12:28 PM 59.6°F15.3°C 16.1°F-8.8°C 18% 14.0 mph NW22.5 kmh NW 21.0 mph33.8 kmh 29.85 in1010.8 mb 0.00 in0.0 mm 0.00 in0.0 mm 0.00 in0.0 mm
12:29 PM 59.5°F15.3°C 16.0°F-8.9°C 18% 14.0 mph NW22.5 kmh NW 24.0 mph38.6 kmh 29.85 in1010.8 mb 0.00 in0.0 mm 0.00 in0.0 mm 0.00 in0.0 mm
12:30 PM 59.4°F15.2°C 15.9°F-8.9°C 18% 16.0 mph NW25.7 kmh NW 26.0 mph41.8 kmh 29.85 in1010.8 mb 0.00 in0.0 mm 0.00 in0.0 mm 0.00 in0.0 mm
12:31 PM 59.2°F15.1°C 15.8°F-9.0°C 18% 16.0 mph WNW25.7 kmh WNW 26.0 mph41.8 kmh 29.85 in1010.8 mb 0.00 in0.0 mm 0.00 in0.0 mm 0.00 in0.0 mm
12:32 PM 59.1°F15.1°C 15.7°F-9.1°C 18% 15.0 mph WNW24.1 kmh WNW 25.0 mph40.2 kmh 29.85 in1010.8 mb 0.00 in0.0 mm 0.00 in0.0 mm 0.00 in0.0 mm
12:33 PM 59.0°F15.0°C 15.6°F-9.1°C 18% 15.0 mph NW24.1 kmh NW 25.0 mph40.2 kmh 29.85 in1010.8 mb 0.00 in0.0 mm 0.00 in0.0 mm 0.00 in0.0 mm
12:34 PM 58.9°F14.9°C 16.1°F-8.8°C 19% 14.0 mph NW22.5 kmh NW 25.0 mph40.2 kmh 29.85 in1010.8 mb 0.00 in0.0 mm 0.00 in0.0 mm 0.00 in0.0 mm
12:35 PM 58.9°F14.9°C 15.9°F-8.9°C 18% 18.0 mph NW29.0 kmh NW 25.0 mph40.2 kmh 29.85 in1010.8 mb 0.00 in0.0 mm 0.00 in0.0 mm 0.00 in0.0 mm
12:36 PM 58.8°F14.9°C 15.4°F-9.2°C 18% 14.0 mph NW22.5 kmh NW 28.0 mph45.1 kmh 29.85 in1010.8 mb 0.00 in0.0 mm 0.00 in0.0 mm 0.00 in0.0 mm
12:37 PM 58.7°F14.8°C 15.3°F-9.3°C 18% 16.0 mph NW25.7 kmh NW 28.0 mph45.1 kmh 29.85 in1010.8 mb 0.00 in0.0 mm 0.00 in0.0 mm 0.00 in0.0 mm
12:38 PM 58.7°F14.8°C 15.6°F-9.1°C 18% 17.0 mph NW27.4 kmh NW 26.0 mph41.8 kmh 29.85 in1010.8 mb 0.00 in0.0 mm 0.00 in0.0 mm 0.00 in0.0 mm
12:39 PM 58.6°F14.8°C 16.5°F-8.6°C 19% 11.0 mph NW17.7 kmh NW 26.0 mph41.8 kmh 29.85 in1010.8 mb 0.00 in0.0 mm 0.00 in0.0 mm 0.00 in0.0 mm
12:40 PM 58.5°F14.7°C 15.7°F-9.1°C 18% 15.0 mph NW24.1 kmh NW 24.0 mph38.6 kmh 29.85 in1010.8 mb 0.00 in0.0 mm 0.00 in0.0 mm 0.00 in0.0 mm
12:41 PM 58.4°F14.7°C 15.1°F-9.4°C 18% 16.0 mph NW25.7 kmh NW 24.0 mph38.6 kmh 29.85 in1010.8 mb 0.00 in0.0 mm 0.00 in0.0 mm 0.00 in0.0 mm
12:42 PM 58.4°F14.7°C 15.1°F-9.4°C 18% 16.0 mph WNW25.7 kmh WNW 23.0 mph37.0 kmh 29.85 in1010.8 mb 0.00 in0.0 mm 0.00 in0.0 mm 0.00 in0.0 mm
12:43 PM 58.3°F14.6°C 15.2°F-9.3°C 18% 11.0 mph NW17.7 kmh NW 22.0 mph35.4 kmh 29.85 in1010.8 mb 0.00 in0.0 mm 0.00 in0.0 mm 0.00 in0.0 mm
12:44 PM 58.3°F14.6°C 16.2°F-8.8°C 19% 13.0 mph NW20.9 kmh NW 24.0 mph38.6 kmh 29.85 in1010.8 mb 0.00 in0.0 mm 0.00 in0.0 mm 0.00 in0.0 mm
12:45 PM 58.3°F14.6°C 16.2°F-8.8°C 19% 14.0 mph NW22.5 kmh NW 28.0 mph45.1 kmh 29.85 in1010.8 mb 0.00 in0.0 mm 0.00 in0.0 mm 0.00 in0.0 mm
12:46 PM 58.3°F14.6°C 16.2°F-8.8°C 19% 17.0 mph NW27.4 kmh NW 28.0 mph45.1 kmh 29.85 in1010.8 mb 0.00 in0.0 mm 0.00 in0.0 mm 0.00 in0.0 mm
12:47 PM 58.2°F14.6°C 16.2°F-8.8°C 19% 15.0 mph NW24.1 kmh NW 25.0 mph40.2 kmh 29.85 in1010.8 mb 0.00 in0.0 mm 0.00 in0.0 mm 0.00 in0.0 mm
12:48 PM 58.2°F14.6°C 16.2°F-8.8°C 19% 10.0 mph NW16.1 kmh NW 25.0 mph40.2 kmh 29.85 in1010.8 mb 0.00 in0.0 mm 0.00 in0.0 mm 0.00 in0.0 mm
12:49 PM 58.2°F14.6°C 17.3°F-8.2°C 20% 13.0 mph NW20.9 kmh NW 19.0 mph30.6 kmh 29.85 in1010.8 mb 0.00 in0.0 mm 0.00 in0.0 mm 0.00 in0.0 mm
12:50 PM 58.3°F14.6°C 17.4°F-8.1°C 20% 14.0 mph NW22.5 kmh NW 20.0 mph32.2 kmh 29.85 in1010.8 mb 0.00 in0.0 mm 0.00 in0.0 mm 0.00 in0.0 mm
12:51 PM 58.4°F14.7°C 17.5°F-8.1°C 20% 13.0 mph NW20.9 kmh NW 26.0 mph41.8 kmh 29.85 in1010.8 mb 0.00 in0.0 mm 0.00 in0.0 mm 0.00 in0.0 mm
12:52 PM 58.6°F14.8°C 17.6°F-8.0°C 20% 15.0 mph NW24.1 kmh NW 30.0 mph48.3 kmh 29.86 in1011.2 mb 0.00 in0.0 mm 0.00 in0.0 mm 0.00 in0.0 mm
12:53 PM 58.8°F14.9°C 17.8°F-7.9°C 20% 20.0 mph NW32.2 kmh NW 31.0 mph49.9 kmh 29.85 in1010.8 mb 0.00 in0.0 mm 0.00 in0.0 mm 0.00 in0.0 mm
12:54 PM 58.8°F14.9°C 17.9°F-7.8°C 20% 19.0 mph NW30.6 kmh NW 31.0 mph49.9 kmh 29.85 in1010.8 mb 0.00 in0.0 mm 0.00 in0.0 mm 0.00 in0.0 mm
12:55 PM 58.9°F14.9°C 18.0°F-7.8°C 20% 16.0 mph WNW25.7 kmh WNW 30.0 mph48.3 kmh 29.85 in1010.8 mb 0.00 in0.0 mm 0.00 in0.0 mm 0.00 in0.0 mm
12:56 PM 59.1°F15.1°C 18.1°F-7.7°C 20% 15.0 mph NW24.1 kmh NW 26.0 mph41.8 kmh 29.85 in1010.8 mb 0.00 in0.0 mm 0.00 in0.0 mm 0.00 in0.0 mm
12:57 PM 59.2°F15.1°C 18.7°F-7.4°C 20% 13.0 mph NW20.9 kmh NW 25.0 mph40.2 kmh 29.85 in1010.8 mb 0.00 in0.0 mm 0.00 in0.0 mm 0.00 in0.0 mm
12:58 PM 59.3°F15.2°C 19.4°F-7.0°C 21% 16.0 mph NW25.7 kmh NW 26.0 mph41.8 kmh 29.85 in1010.8 mb 0.00 in0.0 mm 0.00 in0.0 mm 0.00 in0.0 mm
12:59 PM 59.3°F15.2°C 19.4°F-7.0°C 21% 21.0 mph NW33.8 kmh NW 30.0 mph48.3 kmh 29.85 in1010.8 mb 0.00 in0.0 mm 0.00 in0.0 mm 0.00 in0.0 mm
01:00 PM 59.0°F15.0°C 20.1°F-6.6°C 22% 18.0 mph NW29.0 kmh NW 32.0 mph51.5 kmh 29.85 in1010.8 mb 0.00 in0.0 mm 0.00 in0.0 mm 0.00 in0.0 mm
01:01 PM 58.6°F14.8°C 20.1°F-6.6°C 22% 13.0 mph NW20.9 kmh NW 32.0 mph51.5 kmh 29.86 in1011.2 mb 0.00 in0.0 mm 0.00 in0.0 mm 0.00 in0.0 mm
01:02 PM 58.3°F14.6°C 20.9°F-6.2°C 23% 15.0 mph NW24.1 kmh NW 22.0 mph35.4 kmh 29.86 in1011.2 mb 0.00 in0.0 mm 0.00 in0.0 mm 0.00 in0.0 mm
01:03 PM 58.1°F14.5°C 21.5°F-5.8°C 24% 14.0 mph NW22.5 kmh NW 26.0 mph41.8 kmh 29.86 in1011.2 mb 0.00 in0.0 mm 0.00 in0.0 mm 0.00 in0.0 mm
01:04 PM 57.8°F14.3°C 21.3°F-5.9°C 24% 14.0 mph NW22.5 kmh NW 26.0 mph41.8 kmh 29.86 in1011.2 mb 0.00 in0.0 mm 0.00 in0.0 mm 0.00 in0.0 mm
01:05 PM 57.7°F14.3°C 21.9°F-5.6°C 25% 15.0 mph NNW24.1 kmh NNW 25.0 mph40.2 kmh 29.86 in1011.2 mb 0.00 in0.0 mm 0.00 in0.0 mm 0.00 in0.0 mm
01:06 PM 57.5°F14.2°C 22.8°F-5.1°C 26% 15.0 mph NNW24.1 kmh NNW 25.0 mph40.2 kmh 29.86 in1011.2 mb 0.00 in0.0 mm 0.00 in0.0 mm 0.00 in0.0 mm
01:07 PM 57.4°F14.1°C 23.0°F-5.0°C 26% 20.0 mph NNW32.2 kmh NNW 27.0 mph43.5 kmh 29.86 in1011.2 mb 0.00 in0.0 mm 0.00 in0.0 mm 0.00 in0.0 mm
01:08 PM 57.2°F14.0°C 23.5°F-4.7°C 27% 23.0 mph NNW37.0 kmh NNW 36.0 mph57.9 kmh 29.86 in1011.2 mb 0.00 in0.0 mm 0.00 in0.0 mm 0.00 in0.0 mm
01:09 PM 56.9°F13.8°C 23.3°F-4.8°C 27% 19.0 mph NNW30.6 kmh NNW 36.0 mph57.9 kmh 29.86 in1011.2 mb 0.00 in0.0 mm 0.00 in0.0 mm 0.00 in0.0 mm
01:10 PM 56.8°F13.8°C 23.2°F-4.9°C 27% 16.0 mph NNW25.7 kmh NNW 31.0 mph49.9 kmh 29.86 in1011.2 mb 0.00 in0.0 mm 0.00 in0.0 mm 0.00 in0.0 mm
01:11 PM 56.6°F13.7°C 23.0°F-5.0°C 27% 16.0 mph NW25.7 kmh NW 31.0 mph49.9 kmh 29.86 in1011.2 mb 0.00 in0.0 mm 0.00 in0.0 mm 0.00 in0.0 mm
01:12 PM 56.5°F13.6°C 22.1°F-5.5°C 26% 13.0 mph NNW20.9 kmh NNW 28.0 mph45.1 kmh 29.86 in1011.2 mb 0.00 in0.0 mm 0.00 in0.0 mm 0.00 in0.0 mm
01:13 PM 56.4°F13.6°C 22.2°F-5.4°C 26% 17.0 mph NW27.4 kmh NW 30.0 mph48.3 kmh 29.86 in1011.2 mb 0.00 in0.0 mm 0.00 in0.0 mm 0.00 in0.0 mm
01:14 PM 56.4°F13.6°C 23.0°F-5.0°C 27% 23.0 mph NNW37.0 kmh NNW 36.0 mph57.9 kmh 29.86 in1011.2 mb 0.00 in0.0 mm 0.00 in0.0 mm 0.00 in0.0 mm
01:15 PM 56.2°F13.4°C 23.6°F-4.7°C 28% 20.0 mph N32.2 kmh N 36.0 mph57.9 kmh 29.86 in1011.2 mb 0.00 in0.0 mm 0.00 in0.0 mm 0.00 in0.0 mm
01:16 PM 56.0°F13.3°C 23.9°F-4.5°C 29% 22.0 mph NW35.4 kmh NW 35.0 mph56.3 kmh 29.86 in1011.2 mb 0.00 in0.0 mm 0.00 in0.0 mm 0.00 in0.0 mm
01:17 PM 55.8°F13.2°C 24.0°F-4.4°C 29% 16.0 mph NW25.7 kmh NW 35.0 mph56.3 kmh 29.86 in1011.2 mb 0.00 in0.0 mm 0.00 in0.0 mm 0.00 in0.0 mm
01:18 PM 55.6°F13.1°C 24.7°F-4.1°C 30% 15.0 mph NNW24.1 kmh NNW 25.0 mph40.2 kmh 29.86 in1011.2 mb 0.00 in0.0 mm 0.00 in0.0 mm 0.00 in0.0 mm
01:19 PM 55.5°F13.1°C 24.6°F-4.1°C 30% 16.0 mph NW25.7 kmh NW 30.0 mph48.3 kmh 29.85 in1010.8 mb 0.00 in0.0 mm 0.00 in0.0 mm 0.00 in0.0 mm
01:20 PM 55.5°F13.1°C 24.6°F-4.1°C 30% 18.0 mph NNW29.0 kmh NNW 30.0 mph48.3 kmh 29.86 in1011.2 mb 0.00 in0.0 mm 0.00 in0.0 mm 0.00 in0.0 mm
01:21 PM 55.4°F13.0°C 24.5°F-4.2°C 30% 20.0 mph N32.2 kmh N 28.0 mph45.1 kmh 29.85 in1010.8 mb 0.00 in0.0 mm 0.00 in0.0 mm 0.00 in0.0 mm
01:22 PM 55.3°F12.9°C 24.4°F-4.2°C 30% 17.0 mph N27.4 kmh N 26.0 mph41.8 kmh 29.85 in1010.8 mb 0.00 in0.0 mm 0.00 in0.0 mm 0.00 in0.0 mm
01:23 PM 55.3°F12.9°C 23.7°F-4.6°C 29% 19.0 mph N30.6 kmh N 24.0 mph38.6 kmh 29.86 in1011.2 mb 0.00 in0.0 mm 0.00 in0.0 mm 0.00 in0.0 mm
01:24 PM 55.2°F12.9°C 23.6°F-4.7°C 29% 15.0 mph N24.1 kmh N 24.0 mph38.6 kmh 29.86 in1011.2 mb 0.00 in0.0 mm 0.00 in0.0 mm 0.00 in0.0 mm
01:25 PM 55.2°F12.9°C 24.3°F-4.3°C 30% 19.0 mph N30.6 kmh N 23.0 mph37.0 kmh 29.86 in1011.2 mb 0.00 in0.0 mm 0.00 in0.0 mm 0.00 in0.0 mm
01:26 PM 55.2°F12.9°C 24.0°F-4.4°C 30% 18.0 mph N29.0 kmh N 26.0 mph41.8 kmh 29.85 in1010.8 mb 0.00 in0.0 mm 0.00 in0.0 mm 0.00 in0.0 mm
01:27 PM 55.2°F12.9°C 23.0°F-5.0°C 28% 20.0 mph N32.2 kmh N 26.0 mph41.8 kmh 29.85 in1010.8 mb 0.00 in0.0 mm 0.00 in0.0 mm 0.00 in0.0 mm
01:28 PM 55.1°F12.8°C 23.2°F-4.9°C 29% 16.0 mph N25.7 kmh N 24.0 mph38.6 kmh 29.85 in1010.8 mb 0.00 in0.0 mm 0.00 in0.0 mm 0.00 in0.0 mm
01:29 PM 55.1°F12.8°C 22.7°F-5.2°C 28% 14.0 mph N22.5 kmh N 20.0 mph32.2 kmh 29.85 in1010.8 mb 0.00 in0.0 mm 0.00 in0.0 mm 0.00 in0.0 mm
01:30 PM 55.2°F12.9°C 22.7°F-5.2°C 28% 11.0 mph N17.7 kmh N 20.0 mph32.2 kmh 29.84 in1010.5 mb 0.00 in0.0 mm 0.00 in0.0 mm 0.00 in0.0 mm
01:31 PM 55.3°F12.9°C 22.8°F-5.1°C 28% 11.0 mph NNW17.7 kmh NNW 17.0 mph27.4 kmh 29.84 in1010.5 mb 0.00 in0.0 mm 0.00 in0.0 mm 0.00 in0.0 mm
01:32 PM 55.5°F13.1°C 22.7°F-5.2°C 28% 15.0 mph N24.1 kmh N 20.0 mph32.2 kmh 29.85 in1010.8 mb 0.00 in0.0 mm 0.00 in0.0 mm 0.00 in0.0 mm
01:33 PM 55.7°F13.2°C 22.3°F-5.4°C 27% 12.0 mph NNW19.3 kmh NNW 21.0 mph33.8 kmh 29.84 in1010.5 mb 0.00 in0.0 mm 0.00 in0.0 mm 0.00 in0.0 mm
01:34 PM 56.0°F13.3°C 23.1°F-4.9°C 28% 10.0 mph 16.1 kmh 21.0 mph33.8 kmh 29.84 in1010.5 mb 0.00 in0.0 mm 0.00 in0.0 mm 0.00 in0.0 mm
01:35 PM 56.2°F13.4°C 22.8°F-5.1°C 27% 15.0 mph N24.1 kmh N 21.0 mph33.8 kmh 29.85 in1010.8 mb 0.00 in0.0 mm 0.00 in0.0 mm 0.00 in0.0 mm
01:36 PM 56.4°F13.6°C 22.8°F-5.1°C 27% 22.0 mph N35.4 kmh N 28.0 mph45.1 kmh 29.85 in1010.8 mb 0.00 in0.0 mm 0.00 in0.0 mm 0.00 in0.0 mm
01:37 PM 56.2°F13.4°C 22.9°F-5.1°C 27% 17.0 mph N27.4 kmh N 28.0 mph45.1 kmh 29.85 in1010.8 mb 0.00 in0.0 mm 0.00 in0.0 mm 0.00 in0.0 mm
01:38 PM 56.1°F13.4°C 23.4°F-4.8°C 28% 11.0 mph N17.7 kmh N 22.0 mph35.4 kmh 29.84 in1010.5 mb 0.00 in0.0 mm 0.00 in0.0 mm 0.00 in0.0 mm
01:39 PM 56.0°F13.3°C 22.9°F-5.1°C 27% 17.0 mph N27.4 kmh N 23.0 mph37.0 kmh 29.84 in1010.5 mb 0.00 in0.0 mm 0.00 in0.0 mm 0.00 in0.0 mm
01:40 PM 55.9°F13.3°C 23.1°F-4.9°C 28% 13.0 mph 20.9 kmh 23.0 mph37.0 kmh 29.84 in1010.5 mb 0.00 in0.0 mm 0.00 in0.0 mm 0.00 in0.0 mm
01:41 PM 55.9°F13.3°C 23.3°F-4.8°C 28% 13.0 mph N20.9 kmh N 23.0 mph37.0 kmh 29.84 in1010.5 mb 0.00 in0.0 mm 0.00 in0.0 mm 0.00 in0.0 mm
01:42 PM 55.9°F13.3°C 23.1°F-4.9°C 28% 17.0 mph N27.4 kmh N 24.0 mph38.6 kmh 29.84 in1010.5 mb 0.00 in0.0 mm 0.00 in0.0 mm 0.00 in0.0 mm
01:43 PM 55.9°F13.3°C 22.4°F-5.3°C 27% 17.0 mph N27.4 kmh N 24.0 mph38.6 kmh 29.84 in1010.5 mb 0.00 in0.0 mm 0.00 in0.0 mm 0.00 in0.0 mm
01:44 PM 55.9°F13.3°C 22.5°F-5.3°C 27% 9.0 mph N14.5 kmh N 23.0 mph37.0 kmh 29.84 in1010.5 mb 0.00 in0.0 mm 0.00 in0.0 mm 0.00 in0.0 mm
01:45 PM 56.0°F13.3°C 22.5°F-5.3°C 27% 12.0 mph N19.3 kmh N 19.0 mph30.6 kmh 29.84 in1010.5 mb 0.00 in0.0 mm 0.00 in0.0 mm 0.00 in0.0 mm
01:46 PM 56.2°F13.4°C 22.6°F-5.2°C 27% 12.0 mph NNW19.3 kmh NNW 24.0 mph38.6 kmh 29.84 in1010.5 mb 0.00 in0.0 mm 0.00 in0.0 mm 0.00 in0.0 mm
01:47 PM 56.3°F13.5°C 22.8°F-5.1°C 27% 15.0 mph N24.1 kmh N 24.0 mph38.6 kmh 29.85 in1010.8 mb 0.00 in0.0 mm 0.00 in0.0 mm 0.00 in0.0 mm
01:48 PM 56.4°F13.6°C 22.7°F-5.2°C 27% 16.0 mph N25.7 kmh N 28.0 mph45.1 kmh 29.85 in1010.8 mb 0.00 in0.0 mm 0.00 in0.0 mm 0.00 in0.0 mm
01:49 PM 56.4°F13.6°C 21.9°F-5.6°C 26% 17.0 mph N27.4 kmh N 28.0 mph45.1 kmh 29.85 in1010.8 mb 0.00 in0.0 mm 0.00 in0.0 mm 0.00 in0.0 mm
01:50 PM 56.3°F13.5°C 21.9°F-5.6°C 26% 17.0 mph N27.4 kmh N 30.0 mph48.3 kmh 29.85 in1010.8 mb 0.00 in0.0 mm 0.00 in0.0 mm 0.00 in0.0 mm
01:51 PM 56.2°F13.4°C 21.8°F-5.7°C 26% 18.0 mph N29.0 kmh N 33.0 mph53.1 kmh 29.85 in1010.8 mb 0.00 in0.0 mm 0.00 in0.0 mm 0.00 in0.0 mm
01:52 PM 56.0°F13.3°C 20.9°F-6.2°C 25% 23.0 mph N37.0 kmh N 33.0 mph53.1 kmh 29.85 in1010.8 mb 0.00 in0.0 mm 0.00 in0.0 mm 0.00 in0.0 mm
01:53 PM 55.7°F13.2°C 20.4°F-6.4°C 25% 20.0 mph N32.2 kmh N 28.0 mph45.1 kmh 29.85 in1010.8 mb 0.00 in0.0 mm 0.00 in0.0 mm 0.00 in0.0 mm
01:54 PM 55.5°F13.1°C 20.5°F-6.4°C 25% 17.0 mph N27.4 kmh N 25.0 mph40.2 kmh 29.84 in1010.5 mb 0.00 in0.0 mm 0.00 in0.0 mm 0.00 in0.0 mm
01:55 PM 55.3°F12.9°C 20.7°F-6.3°C 26% 19.0 mph NNW30.6 kmh NNW 25.0 mph40.2 kmh 29.84 in1010.5 mb 0.00 in0.0 mm 0.00 in0.0 mm 0.00 in0.0 mm
01:56 PM 55.1°F12.8°C 19.9°F-6.7°C 25% 22.0 mph N35.4 kmh N 34.0 mph54.7 kmh 29.84 in1010.5 mb 0.00 in0.0 mm 0.00 in0.0 mm 0.00 in0.0 mm
01:57 PM 55.0°F12.8°C 19.8°F-6.8°C 25% 24.0 mph N38.6 kmh N 34.0 mph54.7 kmh 29.84 in1010.5 mb 0.00 in0.0 mm 0.00 in0.0 mm 0.00 in0.0 mm
01:58 PM 54.9°F12.7°C 19.7°F-6.8°C 25% 23.0 mph NNW37.0 kmh NNW 33.0 mph53.1 kmh 29.84 in1010.5 mb 0.00 in0.0 mm 0.00 in0.0 mm 0.00 in0.0 mm
01:59 PM 54.7°F12.6°C 19.6°F-6.9°C 25% 20.0 mph N32.2 kmh N 34.0 mph54.7 kmh 29.84 in1010.5 mb 0.00 in0.0 mm 0.00 in0.0 mm 0.00 in0.0 mm
02:00 PM 54.6°F12.6°C 19.5°F-6.9°C 25% 20.0 mph NNW32.2 kmh NNW 34.0 mph54.7 kmh 29.84 in1010.5 mb 0.00 in0.0 mm 0.00 in0.0 mm 0.00 in0.0 mm
02:01 PM 54.5°F12.5°C 19.4°F-7.0°C 25% 18.0 mph NNW29.0 kmh NNW 32.0 mph51.5 kmh 29.85 in1010.8 mb 0.00 in0.0 mm 0.00 in0.0 mm 0.00 in0.0 mm
02:02 PM 54.5°F12.5°C 19.4°F-7.0°C 25% 16.0 mph NNW25.7 kmh NNW 32.0 mph51.5 kmh 29.84 in1010.5 mb 0.00 in0.0 mm 0.00 in0.0 mm 0.00 in0.0 mm
02:03 PM 54.5°F12.5°C 20.0°F-6.7°C 26% 15.0 mph NNW24.1 kmh NNW 22.0 mph35.4 kmh 29.84 in1010.5 mb 0.00 in0.0 mm 0.00 in0.0 mm 0.00 in0.0 mm
02:04 PM 54.5°F12.5°C 20.3°F-6.5°C 26% 12.0 mph NNW19.3 kmh NNW 21.0 mph33.8 kmh 29.85 in1010.8 mb 0.00 in0.0 mm 0.00 in0.0 mm 0.00 in0.0 mm
02:05 PM 54.5°F12.5°C 20.1°F-6.6°C 26% 19.0 mph NW30.6 kmh NW 28.0 mph45.1 kmh 29.85 in1010.8 mb 0.00 in0.0 mm 0.00 in0.0 mm 0.00 in0.0 mm
02:06 PM 54.6°F12.6°C 18.8°F-7.3°C 24% 15.0 mph NW24.1 kmh NW 28.0 mph45.1 kmh 29.85 in1010.8 mb 0.00 in0.0 mm 0.00 in0.0 mm 0.00 in0.0 mm
02:07 PM 54.6°F12.6°C 19.5°F-6.9°C 25% 15.0 mph NW24.1 kmh NW 27.0 mph43.5 kmh 29.85 in1010.8 mb 0.00 in0.0 mm 0.00 in0.0 mm 0.00 in0.0 mm
02:08 PM 54.6°F12.6°C 19.0°F-7.2°C 24% 15.0 mph NW24.1 kmh NW 23.0 mph37.0 kmh 29.85 in1010.8 mb 0.00 in0.0 mm 0.00 in0.0 mm 0.00 in0.0 mm
02:09 PM 54.6°F12.6°C 18.5°F-7.5°C 24% 15.0 mph NW24.1 kmh NW 24.0 mph38.6 kmh 29.85 in1010.8 mb 0.00 in0.0 mm 0.00 in0.0 mm 0.00 in0.0 mm
02:10 PM 54.6°F12.6°C 19.4°F-7.0°C 25% 14.0 mph NW22.5 kmh NW 26.0 mph41.8 kmh 29.85 in1010.8 mb 0.00 in0.0 mm 0.00 in0.0 mm 0.00 in0.0 mm
02:11 PM 54.5°F12.5°C 18.4°F-7.6°C 24% 20.0 mph NW32.2 kmh NW 32.0 mph51.5 kmh 29.85 in1010.8 mb 0.00 in0.0 mm 0.00 in0.0 mm 0.00 in0.0 mm
02:12 PM 54.5°F12.5°C 17.5°F-8.1°C 23% 15.0 mph NW24.1 kmh NW 32.0 mph51.5 kmh 29.85 in1010.8 mb 0.00 in0.0 mm 0.00 in0.0 mm 0.00 in0.0 mm
02:13 PM 54.5°F12.5°C 17.5°F-8.1°C 23% 12.0 mph NW19.3 kmh NW 22.0 mph35.4 kmh 29.85 in1010.8 mb 0.00 in0.0 mm 0.00 in0.0 mm 0.00 in0.0 mm
02:14 PM 54.5°F12.5°C 18.0°F-7.8°C 24% 16.0 mph NW25.7 kmh NW 23.0 mph37.0 kmh 29.86 in1011.2 mb 0.00 in0.0 mm 0.00 in0.0 mm 0.00 in0.0 mm
02:15 PM 54.5°F12.5°C 18.5°F-7.5°C 24% 11.0 mph NW17.7 kmh NW 23.0 mph37.0 kmh 29.86 in1011.2 mb 0.00 in0.0 mm 0.00 in0.0 mm 0.00 in0.0 mm
02:16 PM 54.5°F12.5°C 18.5°F-7.5°C 24% 7.0 mph NNW11.3 kmh NNW 22.0 mph35.4 kmh 29.86 in1011.2 mb 0.00 in0.0 mm 0.00 in0.0 mm 0.00 in0.0 mm
02:17 PM 54.5°F12.5°C 19.4°F-7.0°C 25% 12.0 mph NW19.3 kmh NW 17.0 mph27.4 kmh 29.86 in1011.2 mb 0.00 in0.0 mm 0.00 in0.0 mm 0.00 in0.0 mm
02:18 PM 54.5°F12.5°C 19.4°F-7.0°C 25% 12.0 mph NW19.3 kmh NW 20.0 mph32.2 kmh 29.86 in1011.2 mb 0.00 in0.0 mm 0.00 in0.0 mm 0.00 in0.0 mm
02:19 PM 54.5°F12.5°C 19.0°F-7.2°C 25% 18.0 mph NW29.0 kmh NW 26.0 mph41.8 kmh 29.86 in1011.2 mb 0.00 in0.0 mm 0.00 in0.0 mm 0.00 in0.0 mm
02:20 PM 54.4°F12.4°C 18.4°F-7.6°C 24% 17.0 mph NNW27.4 kmh NNW 26.0 mph41.8 kmh 29.86 in1011.2 mb 0.00 in0.0 mm 0.00 in0.0 mm 0.00 in0.0 mm
02:21 PM 54.3°F12.4°C 18.3°F-7.6°C 24% 14.0 mph NW22.5 kmh NW 26.0 mph41.8 kmh 29.86 in1011.2 mb 0.00 in0.0 mm 0.00 in0.0 mm 0.00 in0.0 mm
02:22 PM 54.3°F12.4°C 18.3°F-7.6°C 24% 8.0 mph NW12.9 kmh NW 19.0 mph30.6 kmh 29.86 in1011.2 mb 0.00 in0.0 mm 0.00 in0.0 mm 0.00 in0.0 mm
02:23 PM 54.3°F12.4°C 18.5°F-7.5°C 24% 11.0 mph NNW17.7 kmh NNW 16.0 mph25.7 kmh 29.86 in1011.2 mb 0.00 in0.0 mm 0.00 in0.0 mm 0.00 in0.0 mm
02:24 PM 54.3°F12.4°C 18.9°F-7.3°C 25% 15.0 mph NNW24.1 kmh NNW 24.0 mph38.6 kmh 29.86 in1011.2 mb 0.00 in0.0 mm 0.00 in0.0 mm 0.00 in0.0 mm
02:25 PM 54.3°F12.4°C 18.3°F-7.6°C 24% 12.0 mph NW19.3 kmh NW 24.0 mph38.6 kmh 29.86 in1011.2 mb 0.00 in0.0 mm 0.00 in0.0 mm 0.00 in0.0 mm
02:26 PM 54.3°F12.4°C 18.3°F-7.6°C 24% 18.0 mph NNW29.0 kmh NNW 30.0 mph48.3 kmh 29.86 in1011.2 mb 0.00 in0.0 mm 0.00 in0.0 mm 0.00 in0.0 mm
02:27 PM 54.3°F12.4°C 17.5°F-8.1°C 23% 9.0 mph NNW14.5 kmh NNW 30.0 mph48.3 kmh 29.86 in1011.2 mb 0.00 in0.0 mm 0.00 in0.0 mm 0.00 in0.0 mm
02:28 PM 54.3°F12.4°C 18.2°F-7.7°C 24% 9.0 mph NW14.5 kmh NW 21.0 mph33.8 kmh 29.86 in1011.2 mb 0.00 in0.0 mm 0.00 in0.0 mm 0.00 in0.0 mm
02:29 PM 54.4°F12.4°C 18.4°F-7.6°C 24% 12.0 mph NW19.3 kmh NW 20.0 mph32.2 kmh 29.86 in1011.2 mb 0.00 in0.0 mm 0.00 in0.0 mm 0.00 in0.0 mm
02:30 PM 54.4°F12.4°C 18.4°F-7.6°C 24% 11.0 mph NNW17.7 kmh NNW 20.0 mph32.2 kmh 29.86 in1011.2 mb 0.00 in0.0 mm 0.00 in0.0 mm 0.00 in0.0 mm
02:31 PM 54.5°F12.5°C 18.0°F-7.8°C 24% 14.0 mph NW22.5 kmh NW 24.0 mph38.6 kmh 29.86 in1011.2 mb 0.00 in0.0 mm 0.00 in0.0 mm 0.00 in0.0 mm
02:32 PM 54.5°F12.5°C 17.5°F-8.1°C 23% 17.0 mph NW27.4 kmh NW 27.0 mph43.5 kmh 29.86 in1011.2 mb 0.00 in0.0 mm 0.00 in0.0 mm 0.00 in0.0 mm
02:33 PM 54.5°F12.5°C 17.5°F-8.1°C 23% 18.0 mph NW29.0 kmh NW 32.0 mph51.5 kmh 29.85 in1010.8 mb 0.00 in0.0 mm 0.00 in0.0 mm 0.00 in0.0 mm
02:34 PM 54.5°F12.5°C 17.5°F-8.1°C 23% 10.0 mph NW16.1 kmh NW 32.0 mph51.5 kmh 29.86 in1011.2 mb 0.00 in0.0 mm 0.00 in0.0 mm 0.00 in0.0 mm
02:35 PM 54.5°F12.5°C 17.5°F-8.1°C 23% 12.0 mph NW19.3 kmh NW 19.0 mph30.6 kmh 29.85 in1010.8 mb 0.00 in0.0 mm 0.00 in0.0 mm 0.00 in0.0 mm
02:36 PM 54.5°F12.5°C 17.5°F-8.1°C 23% 14.0 mph NW22.5 kmh NW 27.0 mph43.5 kmh 29.85 in1010.8 mb 0.00 in0.0 mm 0.00 in0.0 mm 0.00 in0.0 mm
02:37 PM 54.5°F12.5°C 17.5°F-8.1°C 23% 12.0 mph NW19.3 kmh NW 25.0 mph40.2 kmh 29.85 in1010.8 mb 0.00 in0.0 mm 0.00 in0.0 mm 0.00 in0.0 mm
02:38 PM 54.5°F12.5°C 17.5°F-8.1°C 23% 11.0 mph N17.7 kmh N 24.0 mph38.6 kmh 29.85 in1010.8 mb 0.00 in0.0 mm 0.00 in0.0 mm 0.00 in0.0 mm
02:39 PM 54.5°F12.5°C 18.3°F-7.6°C 24% 9.0 mph NW14.5 kmh NW 19.0 mph30.6 kmh 29.86 in1011.2 mb 0.00 in0.0 mm 0.00 in0.0 mm 0.00 in0.0 mm
02:40 PM 54.5°F12.5°C 18.4°F-7.6°C 24% 21.0 mph NW33.8 kmh NW 28.0 mph45.1 kmh 29.85 in1010.8 mb 0.00 in0.0 mm 0.00 in0.0 mm 0.00 in0.0 mm
02:41 PM 54.5°F12.5°C 17.7°F-7.9°C 23% 14.0 mph NW22.5 kmh NW 28.0 mph45.1 kmh 29.85 in1010.8 mb 0.00 in0.0 mm 0.00 in0.0 mm 0.00 in0.0 mm
02:42 PM 54.5°F12.5°C 18.5°F-7.5°C 24% 10.0 mph NW16.1 kmh NW 23.0 mph37.0 kmh 29.85 in1010.8 mb 0.00 in0.0 mm 0.00 in0.0 mm 0.00 in0.0 mm
02:43 PM 54.5°F12.5°C 18.5°F-7.5°C 24% 17.0 mph NW27.4 kmh NW 29.0 mph46.7 kmh 29.85 in1010.8 mb 0.00 in0.0 mm 0.00 in0.0 mm 0.00 in0.0 mm
02:44 PM 54.5°F12.5°C 17.8°F-7.9°C 23% 22.0 mph NW35.4 kmh NW 33.0 mph53.1 kmh 29.85 in1010.8 mb 0.00 in0.0 mm 0.00 in0.0 mm 0.00 in0.0 mm
02:45 PM 54.5°F12.5°C 17.5°F-8.1°C 23% 19.0 mph NW30.6 kmh NW 33.0 mph53.1 kmh 29.86 in1011.2 mb 0.00 in0.0 mm 0.00 in0.0 mm 0.00 in0.0 mm
02:46 PM 54.4°F12.4°C 17.4°F-8.1°C 23% 19.0 mph NW30.6 kmh NW 30.0 mph48.3 kmh 29.85 in1010.8 mb 0.00 in0.0 mm 0.00 in0.0 mm 0.00 in0.0 mm
02:47 PM 54.4°F12.4°C 17.6°F-8.0°C 23% 18.0 mph NW29.0 kmh NW 30.0 mph48.3 kmh 29.86 in1011.2 mb 0.00 in0.0 mm 0.00 in0.0 mm 0.00 in0.0 mm
02:48 PM 54.4°F12.4°C 18.0°F-7.8°C 24% 13.0 mph NW20.9 kmh NW 27.0 mph43.5 kmh 29.86 in1011.2 mb 0.00 in0.0 mm 0.00 in0.0 mm 0.00 in0.0 mm
02:49 PM 54.4°F12.4°C 17.4°F-8.1°C 23% 21.0 mph NW33.8 kmh NW 36.0 mph57.9 kmh 29.86 in1011.2 mb 0.00 in0.0 mm 0.00 in0.0 mm 0.00 in0.0 mm
02:50 PM 54.5°F12.5°C 16.7°F-8.5°C 22% 23.0 mph NW37.0 kmh NW 39.0 mph62.8 kmh 29.86 in1011.2 mb 0.00 in0.0 mm 0.00 in0.0 mm 0.00 in0.0 mm
02:51 PM 54.5°F12.5°C 16.5°F-8.6°C 22% 17.0 mph NW27.4 kmh NW 39.0 mph62.8 kmh 29.86 in1011.2 mb 0.00 in0.0 mm 0.00 in0.0 mm 0.00 in0.0 mm
02:52 PM 54.6°F12.6°C 16.5°F-8.6°C 22% 20.0 mph NW32.2 kmh NW 34.0 mph54.7 kmh 29.86 in1011.2 mb 0.00 in0.0 mm 0.00 in0.0 mm 0.00 in0.0 mm
02:53 PM 54.6°F12.6°C 16.5°F-8.6°C 22% 18.0 mph NW29.0 kmh NW 31.0 mph49.9 kmh 29.86 in1011.2 mb 0.00 in0.0 mm 0.00 in0.0 mm 0.00 in0.0 mm
02:54 PM 54.6°F12.6°C 16.6°F-8.6°C 22% 17.0 mph NW27.4 kmh NW 29.0 mph46.7 kmh 29.86 in1011.2 mb 0.00 in0.0 mm 0.00 in0.0 mm 0.00 in0.0 mm
02:55 PM 54.7°F12.6°C 16.6°F-8.6°C 22% 18.0 mph NW29.0 kmh NW 30.0 mph48.3 kmh 29.86 in1011.2 mb 0.00 in0.0 mm 0.00 in0.0 mm 0.00 in0.0 mm
02:56 PM 54.7°F12.6°C 16.6°F-8.6°C 22% 12.0 mph NW19.3 kmh NW 30.0 mph48.3 kmh 29.86 in1011.2 mb 0.00 in0.0 mm 0.00 in0.0 mm 0.00 in0.0 mm
02:57 PM 54.7°F12.6°C 17.5°F-8.1°C 23% 17.0 mph NW27.4 kmh NW 28.0 mph45.1 kmh 29.86 in1011.2 mb 0.00 in0.0 mm 0.00 in0.0 mm 0.00 in0.0 mm
02:58 PM 54.6°F12.6°C 17.6°F-8.0°C 23% 19.0 mph NW30.6 kmh NW 28.0 mph45.1 kmh 29.87 in1011.5 mb 0.00 in0.0 mm 0.00 in0.0 mm 0.00 in0.0 mm
02:59 PM 54.5°F12.5°C 17.2°F-8.2°C 23% 14.0 mph NNW22.5 kmh NNW 27.0 mph43.5 kmh 29.87 in1011.5 mb 0.00 in0.0 mm 0.00 in0.0 mm 0.00 in0.0 mm
03:00 PM 54.5°F12.5°C 16.4°F-8.7°C 22% 19.0 mph NW30.6 kmh NW 29.0 mph46.7 kmh 29.87 in1011.5 mb 0.00 in0.0 mm 0.00 in0.0 mm 0.00 in0.0 mm
03:01 PM 54.4°F12.4°C 16.3°F-8.7°C 22% 20.0 mph NW32.2 kmh NW 29.0 mph46.7 kmh 29.87 in1011.5 mb 0.00 in0.0 mm 0.00 in0.0 mm 0.00 in0.0 mm
03:02 PM 54.3°F12.4°C 17.0°F-8.3°C 23% 18.0 mph NW29.0 kmh NW 30.0 mph48.3 kmh 29.87 in1011.5 mb 0.00 in0.0 mm 0.00 in0.0 mm 0.00 in0.0 mm
03:03 PM 54.3°F12.4°C 17.3°F-8.2°C 23% 17.0 mph NW27.4 kmh NW 30.0 mph48.3 kmh 29.87 in1011.5 mb 0.00 in0.0 mm 0.00 in0.0 mm 0.00 in0.0 mm
03:04 PM 54.3°F12.4°C 17.3°F-8.2°C 23% 15.0 mph NW24.1 kmh NW 28.0 mph45.1 kmh 29.87 in1011.5 mb 0.00 in0.0 mm 0.00 in0.0 mm 0.00 in0.0 mm
03:05 PM 54.3°F12.4°C 17.3°F-8.2°C 23% 14.0 mph WNW22.5 kmh WNW 28.0 mph45.1 kmh 29.87 in1011.5 mb 0.00 in0.0 mm 0.00 in0.0 mm 0.00 in0.0 mm
03:06 PM 54.3°F12.4°C 17.3°F-8.2°C 23% 16.0 mph NW25.7 kmh NW 28.0 mph45.1 kmh 29.87 in1011.5 mb 0.00 in0.0 mm 0.00 in0.0 mm 0.00 in0.0 mm
03:07 PM 54.2°F12.3°C 17.2°F-8.2°C 23% 16.0 mph NW25.7 kmh NW 23.0 mph37.0 kmh 29.87 in1011.5 mb 0.00 in0.0 mm 0.00 in0.0 mm 0.00 in0.0 mm
03:08 PM 54.2°F12.3°C 17.2°F-8.2°C 23% 15.0 mph NW24.1 kmh NW 29.0 mph46.7 kmh 29.88 in1011.9 mb 0.00 in0.0 mm 0.00 in0.0 mm 0.00 in0.0 mm
03:09 PM 54.2°F12.3°C 17.1°F-8.3°C 23% 15.0 mph NW24.1 kmh NW 29.0 mph46.7 kmh 29.87 in1011.5 mb 0.00 in0.0 mm 0.00 in0.0 mm 0.00 in0.0 mm
03:10 PM 54.1°F12.3°C 16.1°F-8.8°C 22% 14.0 mph NW22.5 kmh NW 26.0 mph41.8 kmh 29.88 in1011.9 mb 0.00 in0.0 mm 0.00 in0.0 mm 0.00 in0.0 mm
03:11 PM 54.1°F12.3°C 16.1°F-8.8°C 22% 16.0 mph NW25.7 kmh NW 29.0 mph46.7 kmh 29.88 in1011.9 mb 0.00 in0.0 mm 0.00 in0.0 mm 0.00 in0.0 mm
03:12 PM 54.1°F12.3°C 16.1°F-8.8°C 22% 25.0 mph NW40.2 kmh NW 39.0 mph62.8 kmh 29.88 in1011.9 mb 0.00 in0.0 mm 0.00 in0.0 mm 0.00 in0.0 mm
03:13 PM 54.0°F12.2°C 16.0°F-8.9°C 22% 16.0 mph NW25.7 kmh NW 39.0 mph62.8 kmh 29.88 in1011.9 mb 0.00 in0.0 mm 0.00 in0.0 mm 0.00 in0.0 mm
03:14 PM 54.0°F12.2°C 16.0°F-8.9°C 22% 18.0 mph NW29.0 kmh NW 29.0 mph46.7 kmh 29.88 in1011.9 mb 0.00 in0.0 mm 0.00 in0.0 mm 0.00 in0.0 mm
03:15 PM 53.9°F12.2°C 15.9°F-8.9°C 22% 20.0 mph NW32.2 kmh NW 29.0 mph46.7 kmh 29.88 in1011.9 mb 0.00 in0.0 mm 0.00 in0.0 mm 0.00 in0.0 mm
03:16 PM 53.9°F12.2°C 15.9°F-8.9°C 22% 19.0 mph NW30.6 kmh NW 32.0 mph51.5 kmh 29.88 in1011.9 mb 0.00 in0.0 mm 0.00 in0.0 mm 0.00 in0.0 mm
03:17 PM 53.8°F12.1°C 15.9°F-8.9°C 22% 22.0 mph NW35.4 kmh NW 32.0 mph51.5 kmh 29.89 in1012.2 mb 0.00 in0.0 mm 0.00 in0.0 mm 0.00 in0.0 mm
03:18 PM 53.8°F12.1°C 15.9°F-8.9°C 22% 18.0 mph NW29.0 kmh NW 28.0 mph45.1 kmh 29.88 in1011.9 mb 0.00 in0.0 mm 0.00 in0.0 mm 0.00 in0.0 mm
03:19 PM 53.8°F12.1°C 15.9°F-8.9°C 22% 19.0 mph WNW30.6 kmh WNW 27.0 mph43.5 kmh 29.89 in1012.2 mb 0.00 in0.0 mm 0.00 in0.0 mm 0.00 in0.0 mm
03:20 PM 53.8°F12.1°C 15.9°F-8.9°C 22% 22.0 mph NW35.4 kmh NW 31.0 mph49.9 kmh 29.89 in1012.2 mb 0.00 in0.0 mm 0.00 in0.0 mm 0.00 in0.0 mm
03:21 PM 53.8°F12.1°C 16.0°F-8.9°C 22% 16.0 mph NW25.7 kmh NW 31.0 mph49.9 kmh 29.89 in1012.2 mb 0.00 in0.0 mm 0.00 in0.0 mm 0.00 in0.0 mm
03:22 PM 53.8°F12.1°C 16.9°F-8.4°C 23% 13.0 mph NW20.9 kmh NW 28.0 mph45.1 kmh 29.89 in1012.2 mb 0.00 in0.0 mm 0.00 in0.0 mm 0.00 in0.0 mm
03:23 PM 53.9°F12.2°C 17.3°F-8.2°C 23% 13.0 mph NW20.9 kmh NW 24.0 mph38.6 kmh 29.89 in1012.2 mb 0.00 in0.0 mm 0.00 in0.0 mm 0.00 in0.0 mm
03:24 PM 53.9°F12.2°C 18.0°F-7.8°C 24% 13.0 mph NW20.9 kmh NW 25.0 mph40.2 kmh 29.89 in1012.2 mb 0.00 in0.0 mm 0.00 in0.0 mm 0.00 in0.0 mm
03:25 PM 53.9°F12.2°C 18.0°F-7.8°C 24% 16.0 mph WNW25.7 kmh WNW 25.0 mph40.2 kmh 29.89 in1012.2 mb 0.00 in0.0 mm 0.00 in0.0 mm 0.00 in0.0 mm
03:26 PM 53.9°F12.2°C 17.1°F-8.3°C 23% 23.0 mph NW37.0 kmh NW 33.0 mph53.1 kmh 29.89 in1012.2 mb 0.00 in0.0 mm 0.00 in0.0 mm 0.00 in0.0 mm
03:27 PM 53.9°F12.2°C 16.0°F-8.9°C 22% 17.0 mph NW27.4 kmh NW 33.0 mph53.1 kmh 29.89 in1012.2 mb 0.00 in0.0 mm 0.00 in0.0 mm 0.00 in0.0 mm
03:28 PM 53.9°F12.2°C 16.9°F-8.4°C 23% 14.0 mph NW22.5 kmh NW 23.0 mph37.0 kmh 29.89 in1012.2 mb 0.00 in0.0 mm 0.00 in0.0 mm 0.00 in0.0 mm
03:29 PM 53.9°F12.2°C 17.0°F-8.3°C 23% 18.0 mph NW29.0 kmh NW 25.0 mph40.2 kmh 29.90 in1012.5 mb 0.00 in0.0 mm 0.00 in0.0 mm 0.00 in0.0 mm
03:30 PM 53.9°F12.2°C 17.0°F-8.3°C 23% 17.0 mph NW27.4 kmh NW 26.0 mph41.8 kmh 29.90 in1012.5 mb 0.00 in0.0 mm 0.00 in0.0 mm 0.00 in0.0 mm
03:31 PM 53.9°F12.2°C 16.2°F-8.8°C 22% 23.0 mph NW37.0 kmh NW 34.0 mph54.7 kmh 29.90 in1012.5 mb 0.00 in0.0 mm 0.00 in0.0 mm 0.00 in0.0 mm
03:32 PM 53.9°F12.2°C 15.9°F-8.9°C 22% 22.0 mph NW35.4 kmh NW 37.0 mph59.5 kmh 29.89 in1012.2 mb 0.00 in0.0 mm 0.00 in0.0 mm 0.00 in0.0 mm
03:33 PM 53.9°F12.2°C 15.9°F-8.9°C 22% 16.0 mph NW25.7 kmh NW 37.0 mph59.5 kmh 29.89 in1012.2 mb 0.00 in0.0 mm 0.00 in0.0 mm 0.00 in0.0 mm
03:34 PM 54.0°F12.2°C 16.0°F-8.9°C 22% 14.0 mph NW22.5 kmh NW 27.0 mph43.5 kmh 29.89 in1012.2 mb 0.00 in0.0 mm 0.00 in0.0 mm 0.00 in0.0 mm
03:35 PM 54.1°F12.3°C 16.1°F-8.8°C 22% 14.0 mph NW22.5 kmh NW 27.0 mph43.5 kmh 29.89 in1012.2 mb 0.00 in0.0 mm 0.00 in0.0 mm 0.00 in0.0 mm
03:36 PM 54.2°F12.3°C 16.2°F-8.8°C 22% 14.0 mph NW22.5 kmh NW 26.0 mph41.8 kmh 29.89 in1012.2 mb 0.00 in0.0 mm 0.00 in0.0 mm 0.00 in0.0 mm
03:37 PM 54.3°F12.4°C 16.3°F-8.7°C 22% 13.0 mph NW20.9 kmh NW 26.0 mph41.8 kmh 29.89 in1012.2 mb 0.00 in0.0 mm 0.00 in0.0 mm 0.00 in0.0 mm
03:38 PM 54.4°F12.4°C 16.4°F-8.7°C 22% 14.0 mph NW22.5 kmh NW 26.0 mph41.8 kmh 29.89 in1012.2 mb 0.00 in0.0 mm 0.00 in0.0 mm 0.00 in0.0 mm
03:39 PM 54.6°F12.6°C 16.3°F-8.7°C 22% 17.0 mph NW27.4 kmh NW 27.0 mph43.5 kmh 29.89 in1012.2 mb 0.00 in0.0 mm 0.00 in0.0 mm 0.00 in0.0 mm
03:40 PM 54.7°F12.6°C 15.6°F-9.1°C 21% 13.0 mph NW20.9 kmh NW 27.0 mph43.5 kmh 29.89 in1012.2 mb 0.00 in0.0 mm 0.00 in0.0 mm 0.00 in0.0 mm
03:41 PM 54.8°F12.7°C 15.7°F-9.1°C 21% 21.0 mph NW33.8 kmh NW 32.0 mph51.5 kmh 29.89 in1012.2 mb 0.00 in0.0 mm 0.00 in0.0 mm 0.00 in0.0 mm
03:42 PM 54.9°F12.7°C 15.1°F-9.4°C 20% 24.0 mph NW38.6 kmh NW 36.0 mph57.9 kmh 29.90 in1012.5 mb 0.00 in0.0 mm 0.00 in0.0 mm 0.00 in0.0 mm
03:43 PM 54.8°F12.7°C 14.5°F-9.7°C 20% 20.0 mph NW32.2 kmh NW 37.0 mph59.5 kmh 29.90 in1012.5 mb 0.00 in0.0 mm 0.00 in0.0 mm 0.00 in0.0 mm
03:44 PM 54.8°F12.7°C 14.6°F-9.7°C 20% 17.0 mph NW27.4 kmh NW 37.0 mph59.5 kmh 29.89 in1012.2 mb 0.00 in0.0 mm 0.00 in0.0 mm 0.00 in0.0 mm
03:45 PM 54.8°F12.7°C 15.6°F-9.1°C 21% 15.0 mph NW24.1 kmh NW 32.0 mph51.5 kmh 29.89 in1012.2 mb 0.00 in0.0 mm 0.00 in0.0 mm 0.00 in0.0 mm
03:46 PM 54.8°F12.7°C 15.6°F-9.1°C 21% 22.0 mph WNW35.4 kmh WNW 33.0 mph53.1 kmh 29.89 in1012.2 mb 0.00 in0.0 mm 0.00 in0.0 mm 0.00 in0.0 mm
03:47 PM 54.6°F12.6°C 15.5°F-9.2°C 21% 13.0 mph NW20.9 kmh NW 33.0 mph53.1 kmh 29.89 in1012.2 mb 0.00 in0.0 mm 0.00 in0.0 mm 0.00 in0.0 mm
03:48 PM 54.6°F12.6°C 15.5°F-9.2°C 21% 15.0 mph NW24.1 kmh NW 29.0 mph46.7 kmh 29.89 in1012.2 mb 0.00 in0.0 mm 0.00 in0.0 mm 0.00 in0.0 mm
03:49 PM 54.6°F12.6°C 15.5°F-9.2°C 21% 20.0 mph NW32.2 kmh NW 29.0 mph46.7 kmh 29.89 in1012.2 mb 0.00 in0.0 mm 0.00 in0.0 mm 0.00 in0.0 mm
03:50 PM 54.6°F12.6°C 14.4°F-9.8°C 20% 24.0 mph NW38.6 kmh NW 39.0 mph62.8 kmh 29.89 in1012.2 mb 0.00 in0.0 mm 0.00 in0.0 mm 0.00 in0.0 mm
03:51 PM 54.4°F12.4°C 14.2°F-9.9°C 20% 20.0 mph WNW32.2 kmh WNW 39.0 mph62.8 kmh 29.89 in1012.2 mb 0.00 in0.0 mm 0.00 in0.0 mm 0.00 in0.0 mm
03:52 PM 54.3°F12.4°C 14.5°F-9.7°C 20% 22.0 mph NW35.4 kmh NW 33.0 mph53.1 kmh 29.89 in1012.2 mb 0.00 in0.0 mm 0.00 in0.0 mm 0.00 in0.0 mm
03:53 PM 54.2°F12.3°C 15.1°F-9.4°C 21% 15.0 mph NW24.1 kmh NW 28.0 mph45.1 kmh 29.89 in1012.2 mb 0.00 in0.0 mm 0.00 in0.0 mm 0.00 in0.0 mm
03:54 PM 54.0°F12.2°C 15.0°F-9.4°C 21% 14.0 mph WNW22.5 kmh WNW 26.0 mph41.8 kmh 29.89 in1012.2 mb 0.00 in0.0 mm 0.00 in0.0 mm 0.00 in0.0 mm
03:55 PM 53.9°F12.2°C 14.9°F-9.5°C 21% 18.0 mph NW29.0 kmh NW 32.0 mph51.5 kmh 29.89 in1012.2 mb 0.00 in0.0 mm 0.00 in0.0 mm 0.00 in0.0 mm
03:56 PM 53.8°F12.1°C 14.8°F-9.6°C 21% 20.0 mph NW32.2 kmh NW 35.0 mph56.3 kmh 29.89 in1012.2 mb 0.00 in0.0 mm 0.00 in0.0 mm 0.00 in0.0 mm
03:57 PM 53.7°F12.1°C 14.7°F-9.6°C 21% 21.0 mph NW33.8 kmh NW 35.0 mph56.3 kmh 29.89 in1012.2 mb 0.00 in0.0 mm 0.00 in0.0 mm 0.00 in0.0 mm
03:58 PM 53.6°F12.0°C 14.7°F-9.6°C 21% 12.0 mph NW19.3 kmh NW 28.0 mph45.1 kmh 29.89 in1012.2 mb 0.00 in0.0 mm 0.00 in0.0 mm 0.00 in0.0 mm
03:59 PM 53.5°F11.9°C 14.5°F-9.7°C 21% 19.0 mph NW30.6 kmh NW 29.0 mph46.7 kmh 29.89 in1012.2 mb 0.00 in0.0 mm 0.00 in0.0 mm 0.00 in0.0 mm
04:00 PM 53.4°F11.9°C 15.2°F-9.3°C 22% 18.0 mph NW29.0 kmh NW 32.0 mph51.5 kmh 29.89 in1012.2 mb 0.00 in0.0 mm 0.00 in0.0 mm 0.00 in0.0 mm
04:01 PM 53.3°F11.8°C 14.6°F-9.7°C 21% 25.0 mph NW40.2 kmh NW 35.0 mph56.3 kmh 29.89 in1012.2 mb 0.00 in0.0 mm 0.00 in0.0 mm 0.00 in0.0 mm
04:02 PM 53.2°F11.8°C 14.3°F-9.8°C 21% 18.0 mph NW29.0 kmh NW 35.0 mph56.3 kmh 29.89 in1012.2 mb 0.00 in0.0 mm 0.00 in0.0 mm 0.00 in0.0 mm
04:03 PM 53.1°F11.7°C 13.9°F-10.1°C 21% 15.0 mph W24.1 kmh W 28.0 mph45.1 kmh 29.89 in1012.2 mb 0.00 in0.0 mm 0.00 in0.0 mm 0.00 in0.0 mm
04:04 PM 53.0°F11.7°C 13.4°F-10.3°C 20% 19.0 mph NW30.6 kmh NW 28.0 mph45.1 kmh 29.89 in1012.2 mb 0.00 in0.0 mm 0.00 in0.0 mm 0.00 in0.0 mm
04:05 PM 52.9°F11.6°C 14.1°F-9.9°C 21% 21.0 mph NW33.8 kmh NW 29.0 mph46.7 kmh 29.89 in1012.2 mb 0.00 in0.0 mm 0.00 in0.0 mm 0.00 in0.0 mm
04:06 PM 52.9°F11.6°C 14.0°F-10.0°C 21% 16.0 mph NW25.7 kmh NW 29.0 mph46.7 kmh 29.89 in1012.2 mb 0.00 in0.0 mm 0.00 in0.0 mm 0.00 in0.0 mm
04:07 PM 52.9°F11.6°C 14.0°F-10.0°C 21% 15.0 mph NW24.1 kmh NW 27.0 mph43.5 kmh 29.89 in1012.2 mb 0.00 in0.0 mm 0.00 in0.0 mm 0.00 in0.0 mm
04:08 PM 53.0°F11.7°C 15.0°F-9.4°C 22% 23.0 mph NW37.0 kmh NW 34.0 mph54.7 kmh 29.89 in1012.2 mb 0.00 in0.0 mm 0.00 in0.0 mm 0.00 in0.0 mm
04:09 PM 53.1°F11.7°C 14.2°F-9.9°C 21% 24.0 mph NW38.6 kmh NW 39.0 mph62.8 kmh 29.89 in1012.2 mb 0.00 in0.0 mm 0.00 in0.0 mm 0.00 in0.0 mm
04:10 PM 53.3°F11.8°C 14.4°F-9.8°C 21% 22.0 mph NW35.4 kmh NW 39.0 mph62.8 kmh 29.89 in1012.2 mb 0.00 in0.0 mm 0.00 in0.0 mm 0.00 in0.0 mm
04:11 PM 53.4°F11.9°C 15.0°F-9.4°C 22% 23.0 mph NW37.0 kmh NW 45.0 mph72.4 kmh 29.89 in1012.2 mb 0.00 in0.0 mm 0.00 in0.0 mm 0.00 in0.0 mm
04:12 PM 53.4°F11.9°C 15.5°F-9.2°C 22% 18.0 mph NW29.0 kmh NW 45.0 mph72.4 kmh 29.89 in1012.2 mb 0.00 in0.0 mm 0.00 in0.0 mm 0.00 in0.0 mm
04:13 PM 53.4°F11.9°C 15.5°F-9.2°C 22% 17.0 mph NW27.4 kmh NW 27.0 mph43.5 kmh 29.89 in1012.2 mb 0.00 in0.0 mm 0.00 in0.0 mm 0.00 in0.0 mm
04:14 PM 53.5°F11.9°C 15.6°F-9.1°C 22% 17.0 mph NW27.4 kmh NW 26.0 mph41.8 kmh 29.89 in1012.2 mb 0.00 in0.0 mm 0.00 in0.0 mm 0.00 in0.0 mm
04:15 PM 53.6°F12.0°C 15.7°F-9.1°C 22% 15.0 mph NW24.1 kmh NW 28.0 mph45.1 kmh 29.90 in1012.5 mb 0.00 in0.0 mm 0.00 in0.0 mm 0.00 in0.0 mm
04:16 PM 53.7°F12.1°C 15.8°F-9.0°C 22% 14.0 mph NW22.5 kmh NW 28.0 mph45.1 kmh 29.90 in1012.5 mb 0.00 in0.0 mm 0.00 in0.0 mm 0.00 in0.0 mm
04:17 PM 53.7°F12.1°C 15.8°F-9.0°C 22% 15.0 mph NW24.1 kmh NW 32.0 mph51.5 kmh 29.90 in1012.5 mb 0.00 in0.0 mm 0.00 in0.0 mm 0.00 in0.0 mm
04:18 PM 53.8°F12.1°C 15.8°F-9.0°C 22% 17.0 mph NW27.4 kmh NW 34.0 mph54.7 kmh 29.90 in1012.5 mb 0.00 in0.0 mm 0.00 in0.0 mm 0.00 in0.0 mm
04:19 PM 53.7°F12.1°C 15.8°F-9.0°C 22% 23.0 mph NW37.0 kmh NW 36.0 mph57.9 kmh 29.90 in1012.5 mb 0.00 in0.0 mm 0.00 in0.0 mm 0.00 in0.0 mm
04:20 PM 53.7°F12.1°C 14.9°F-9.5°C 21% 14.0 mph NW22.5 kmh NW 36.0 mph57.9 kmh 29.90 in1012.5 mb 0.00 in0.0 mm 0.00 in0.0 mm 0.00 in0.0 mm
04:21 PM 53.7°F12.1°C 14.7°F-9.6°C 21% 20.0 mph NW32.2 kmh NW 31.0 mph49.9 kmh 29.90 in1012.5 mb 0.00 in0.0 mm 0.00 in0.0 mm 0.00 in0.0 mm
04:22 PM 53.6°F12.0°C 15.1°F-9.4°C 21% 20.0 mph NW32.2 kmh NW 31.0 mph49.9 kmh 29.90 in1012.5 mb 0.00 in0.0 mm 0.00 in0.0 mm 0.00 in0.0 mm
04:23 PM 53.6°F12.0°C 15.7°F-9.1°C 22% 28.0 mph WNW45.1 kmh WNW 40.0 mph64.4 kmh 29.91 in1012.9 mb 0.00 in0.0 mm 0.00 in0.0 mm 0.00 in0.0 mm
04:24 PM 53.4°F11.9°C 15.5°F-9.2°C 22% 20.0 mph NW32.2 kmh NW 40.0 mph64.4 kmh 29.90 in1012.5 mb 0.00 in0.0 mm 0.00 in0.0 mm 0.00 in0.0 mm
04:25 PM 53.3°F11.8°C 15.5°F-9.2°C 22% 16.0 mph NW25.7 kmh NW 35.0 mph56.3 kmh 29.90 in1012.5 mb 0.00 in0.0 mm 0.00 in0.0 mm 0.00 in0.0 mm
04:26 PM 53.2°F11.8°C 15.2°F-9.3°C 22% 20.0 mph NW32.2 kmh NW 36.0 mph57.9 kmh 29.90 in1012.5 mb 0.00 in0.0 mm 0.00 in0.0 mm 0.00 in0.0 mm
04:27 PM 53.1°F11.7°C 14.2°F-9.9°C 21% 22.0 mph NW35.4 kmh NW 41.0 mph66.0 kmh 29.90 in1012.5 mb 0.00 in0.0 mm 0.00 in0.0 mm 0.00 in0.0 mm
04:28 PM 53.0°F11.7°C 13.7°F-10.2°C 21% 24.0 mph NW38.6 kmh NW 41.0 mph66.0 kmh 29.90 in1012.5 mb 0.00 in0.0 mm 0.00 in0.0 mm 0.00 in0.0 mm
04:29 PM 52.9°F11.6°C 12.9°F-10.6°C 20% 20.0 mph NW32.2 kmh NW 40.0 mph64.4 kmh 29.90 in1012.5 mb 0.00 in0.0 mm 0.00 in0.0 mm 0.00 in0.0 mm
04:30 PM 52.8°F11.6°C 12.9°F-10.6°C 20% 23.0 mph WNW37.0 kmh WNW 35.0 mph56.3 kmh 29.90 in1012.5 mb 0.00 in0.0 mm 0.00 in0.0 mm 0.00 in0.0 mm
04:31 PM 52.8°F11.6°C 12.8°F-10.7°C 20% 18.0 mph NW29.0 kmh NW 35.0 mph56.3 kmh 29.91 in1012.9 mb 0.00 in0.0 mm 0.00 in0.0 mm 0.00 in0.0 mm
04:32 PM 52.7°F11.5°C 12.5°F-10.8°C 20% 23.0 mph NW37.0 kmh NW 40.0 mph64.4 kmh 29.90 in1012.5 mb 0.00 in0.0 mm 0.00 in0.0 mm 0.00 in0.0 mm
04:33 PM 52.6°F11.4°C 11.9°F-11.2°C 19% 24.0 mph NW38.6 kmh NW 42.0 mph67.6 kmh 29.91 in1012.9 mb 0.00 in0.0 mm 0.00 in0.0 mm 0.00 in0.0 mm
04:34 PM 52.5°F11.4°C 12.6°F-10.8°C 20% 25.0 mph NW40.2 kmh NW 42.0 mph67.6 kmh 29.90 in1012.5 mb 0.00 in0.0 mm 0.00 in0.0 mm 0.00 in0.0 mm
04:35 PM 52.3°F11.3°C 12.4°F-10.9°C 20% 31.0 mph NW49.9 kmh NW 59.0 mph95.0 kmh 29.91 in1012.9 mb 0.00 in0.0 mm 0.00 in0.0 mm 0.00 in0.0 mm
04:36 PM 52.1°F11.2°C 12.2°F-11.0°C 20% 24.0 mph NW38.6 kmh NW 59.0 mph95.0 kmh 29.90 in1012.5 mb 0.00 in0.0 mm 0.00 in0.0 mm 0.00 in0.0 mm
04:37 PM 51.9°F11.1°C 12.2°F-11.0°C 20% 19.0 mph WNW30.6 kmh WNW 45.0 mph72.4 kmh 29.91 in1012.9 mb 0.00 in0.0 mm 0.00 in0.0 mm 0.00 in0.0 mm
04:38 PM 51.8°F11.0°C 13.1°F-10.5°C 21% 19.0 mph NW30.6 kmh NW 45.0 mph72.4 kmh 29.91 in1012.9 mb 0.00 in0.0 mm 0.00 in0.0 mm 0.00 in0.0 mm
04:39 PM 51.8°F11.0°C 13.1°F-10.5°C 21% 22.0 mph NW35.4 kmh NW 37.0 mph59.5 kmh 29.91 in1012.9 mb 0.00 in0.0 mm 0.00 in0.0 mm 0.00 in0.0 mm
04:40 PM 51.7°F10.9°C 13.6°F-10.2°C 22% 18.0 mph NW29.0 kmh NW 37.0 mph59.5 kmh 29.91 in1012.9 mb 0.00 in0.0 mm 0.00 in0.0 mm 0.00 in0.0 mm
04:41 PM 51.7°F10.9°C 14.1°F-9.9°C 22% 16.0 mph NW25.7 kmh NW 33.0 mph53.1 kmh 29.92 in1013.2 mb 0.00 in0.0 mm 0.00 in0.0 mm 0.00 in0.0 mm
04:42 PM 51.6°F10.9°C 14.0°F-10.0°C 22% 26.0 mph NW41.8 kmh NW 40.0 mph64.4 kmh 29.92 in1013.2 mb 0.00 in0.0 mm 0.00 in0.0 mm 0.00 in0.0 mm
04:43 PM 51.5°F10.8°C 14.0°F-10.0°C 22% 19.0 mph NW30.6 kmh NW 40.0 mph64.4 kmh 29.92 in1013.2 mb 0.00 in0.0 mm 0.00 in0.0 mm 0.00 in0.0 mm
04:44 PM 51.5°F10.8°C 13.7°F-10.2°C 22% 21.0 mph NW33.8 kmh NW 33.0 mph53.1 kmh 29.92 in1013.2 mb 0.00 in0.0 mm 0.00 in0.0 mm 0.00 in0.0 mm
04:45 PM 51.4°F10.8°C 13.2°F-10.4°C 21% 19.0 mph WNW30.6 kmh WNW 33.0 mph53.1 kmh 29.92 in1013.2 mb 0.00 in0.0 mm 0.00 in0.0 mm 0.00 in0.0 mm
04:46 PM 51.4°F10.8°C 13.9°F-10.1°C 22% 19.0 mph NW30.6 kmh NW 32.0 mph51.5 kmh 29.92 in1013.2 mb 0.00 in0.0 mm 0.00 in0.0 mm 0.00 in0.0 mm
04:47 PM 51.3°F10.7°C 13.3°F-10.4°C 21% 19.0 mph NW30.6 kmh NW 30.0 mph48.3 kmh 29.93 in1013.5 mb 0.00 in0.0 mm 0.00 in0.0 mm 0.00 in0.0 mm
04:48 PM 51.3°F10.7°C 12.7°F-10.7°C 21% 14.0 mph NW22.5 kmh NW 30.0 mph48.3 kmh 29.92 in1013.2 mb 0.00 in0.0 mm 0.00 in0.0 mm 0.00 in0.0 mm
04:49 PM 51.3°F10.7°C 12.7°F-10.7°C 21% 17.0 mph NW27.4 kmh NW 27.0 mph43.5 kmh 29.92 in1013.2 mb 0.00 in0.0 mm 0.00 in0.0 mm 0.00 in0.0 mm
04:50 PM 51.3°F10.7°C 12.7°F-10.7°C 21% 23.0 mph NW37.0 kmh NW 36.0 mph57.9 kmh 29.92 in1013.2 mb 0.00 in0.0 mm 0.00 in0.0 mm 0.00 in0.0 mm
04:51 PM 51.2°F10.7°C 12.6°F-10.8°C 21% 17.0 mph NW27.4 kmh NW 36.0 mph57.9 kmh 29.93 in1013.5 mb 0.00 in0.0 mm 0.00 in0.0 mm 0.00 in0.0 mm
04:52 PM 51.1°F10.6°C 12.5°F-10.8°C 21% 19.0 mph NW30.6 kmh NW 26.0 mph41.8 kmh 29.93 in1013.5 mb 0.00 in0.0 mm 0.00 in0.0 mm 0.00 in0.0 mm
04:53 PM 51.1°F10.6°C 13.3°F-10.4°C 22% 18.0 mph NW29.0 kmh NW 30.0 mph48.3 kmh 29.93 in1013.5 mb 0.00 in0.0 mm 0.00 in0.0 mm 0.00 in0.0 mm
04:54 PM 51.0°F10.6°C 13.5°F-10.3°C 22% 14.0 mph NW22.5 kmh NW 33.0 mph53.1 kmh 29.93 in1013.5 mb 0.00 in0.0 mm 0.00 in0.0 mm 0.00 in0.0 mm
04:55 PM 50.9°F10.5°C 13.3°F-10.4°C 22% 20.0 mph NW32.2 kmh NW 33.0 mph53.1 kmh 29.93 in1013.5 mb 0.00 in0.0 mm 0.00 in0.0 mm 0.00 in0.0 mm
04:56 PM 50.8°F10.4°C 12.3°F-10.9°C 21% 19.0 mph NW30.6 kmh NW 38.0 mph61.2 kmh 29.93 in1013.5 mb 0.00 in0.0 mm 0.00 in0.0 mm 0.00 in0.0 mm
04:57 PM 50.7°F10.4°C 12.2°F-11.0°C 21% 20.0 mph NW32.2 kmh NW 38.0 mph61.2 kmh 29.93 in1013.5 mb 0.00 in0.0 mm 0.00 in0.0 mm 0.00 in0.0 mm
04:58 PM 50.7°F10.4°C 11.6°F-11.3°C 20% 23.0 mph NW37.0 kmh NW 41.0 mph66.0 kmh 29.93 in1013.5 mb 0.00 in0.0 mm 0.00 in0.0 mm 0.00 in0.0 mm
04:59 PM 50.7°F10.4°C 10.3°F-12.1°C 19% 24.0 mph NW38.6 kmh NW 50.0 mph80.5 kmh 29.93 in1013.5 mb 0.00 in0.0 mm 0.00 in0.0 mm 0.00 in0.0 mm
05:00 PM 50.7°F10.4°C 8.9°F-12.8°C 18% 26.0 mph NW41.8 kmh NW 50.0 mph80.5 kmh 29.93 in1013.5 mb 0.00 in0.0 mm 0.00 in0.0 mm 0.00 in0.0 mm
05:01 PM 50.8°F10.4°C 8.8°F-12.9°C 18% 19.0 mph NW30.6 kmh NW 45.0 mph72.4 kmh 29.93 in1013.5 mb 0.00 in0.0 mm 0.00 in0.0 mm 0.00 in0.0 mm
05:02 PM 50.8°F10.4°C 8.9°F-12.8°C 18% 17.0 mph WNW27.4 kmh WNW 31.0 mph49.9 kmh 29.93 in1013.5 mb 0.00 in0.0 mm 0.00 in0.0 mm 0.00 in0.0 mm
05:03 PM 50.9°F10.5°C 8.9°F-12.8°C 18% 19.0 mph NW30.6 kmh NW 38.0 mph61.2 kmh 29.93 in1013.5 mb 0.00 in0.0 mm 0.00 in0.0 mm 0.00 in0.0 mm
05:04 PM 50.9°F10.5°C 8.9°F-12.8°C 18% 23.0 mph NW37.0 kmh NW 38.0 mph61.2 kmh 29.94 in1013.9 mb 0.00 in0.0 mm 0.00 in0.0 mm 0.00 in0.0 mm
05:05 PM 51.0°F10.6°C 9.0°F-12.8°C 18% 18.0 mph NW29.0 kmh NW 30.0 mph48.3 kmh 29.94 in1013.9 mb 0.00 in0.0 mm 0.00 in0.0 mm 0.00 in0.0 mm
05:06 PM 51.0°F10.6°C 9.0°F-12.8°C 18% 24.0 mph NW38.6 kmh NW 49.0 mph78.9 kmh 29.94 in1013.9 mb 0.00 in0.0 mm 0.00 in0.0 mm 0.00 in0.0 mm
05:07 PM 51.1°F10.6°C 6.5°F-14.2°C 16% 26.0 mph NW41.8 kmh NW 49.0 mph78.9 kmh 29.94 in1013.9 mb 0.00 in0.0 mm 0.00 in0.0 mm 0.00 in0.0 mm
05:08 PM 51.1°F10.6°C 6.5°F-14.2°C 16% 26.0 mph NW41.8 kmh NW 44.0 mph70.8 kmh 29.94 in1013.9 mb 0.00 in0.0 mm 0.00 in0.0 mm 0.00 in0.0 mm
05:09 PM 51.1°F10.6°C 6.5°F-14.2°C 16% 20.0 mph NW32.2 kmh NW 34.0 mph54.7 kmh 29.94 in1013.9 mb 0.00 in0.0 mm 0.00 in0.0 mm 0.00 in0.0 mm
05:10 PM 51.1°F10.6°C 7.3°F-13.7°C 17% 23.0 mph NW37.0 kmh NW 35.0 mph56.3 kmh 29.95 in1014.2 mb 0.00 in0.0 mm 0.00 in0.0 mm 0.00 in0.0 mm
05:11 PM 51.1°F10.6°C 7.8°F-13.4°C 17% 14.0 mph WNW22.5 kmh WNW 35.0 mph56.3 kmh 29.95 in1014.2 mb 0.00 in0.0 mm 0.00 in0.0 mm 0.00 in0.0 mm
05:12 PM 51.1°F10.6°C 7.8°F-13.4°C 17% 17.0 mph NW27.4 kmh NW 30.0 mph48.3 kmh 29.94 in1013.9 mb 0.00 in0.0 mm 0.00 in0.0 mm 0.00 in0.0 mm
05:13 PM 51.1°F10.6°C 7.6°F-13.6°C 17% 17.0 mph NW27.4 kmh NW 31.0 mph49.9 kmh 29.95 in1014.2 mb 0.00 in0.0 mm 0.00 in0.0 mm 0.00 in0.0 mm
05:14 PM 51.1°F10.6°C 6.2°F-14.3°C 16% 20.0 mph NW32.2 kmh NW 33.0 mph53.1 kmh 29.95 in1014.2 mb 0.00 in0.0 mm 0.00 in0.0 mm 0.00 in0.0 mm
05:15 PM 51.1°F10.6°C 5.1°F-14.9°C 15% 29.0 mph NW46.7 kmh NW 41.0 mph66.0 kmh 29.95 in1014.2 mb 0.00 in0.0 mm 0.00 in0.0 mm 0.00 in0.0 mm
05:16 PM 51.1°F10.6°C 5.1°F-14.9°C 15% 19.0 mph NW30.6 kmh NW 41.0 mph66.0 kmh 29.95 in1014.2 mb 0.00 in0.0 mm 0.00 in0.0 mm 0.00 in0.0 mm
05:17 PM 51.0°F10.6°C 6.1°F-14.4°C 16% 23.0 mph WNW37.0 kmh WNW 44.0 mph70.8 kmh 29.94 in1013.9 mb 0.00 in0.0 mm 0.00 in0.0 mm 0.00 in0.0 mm
05:18 PM 51.0°F10.6°C 5.1°F-14.9°C 15% 23.0 mph NW37.0 kmh NW 44.0 mph70.8 kmh 29.95 in1014.2 mb 0.00 in0.0 mm 0.00 in0.0 mm 0.00 in0.0 mm
05:19 PM 51.0°F10.6°C 5.0°F-15.0°C 15% 23.0 mph NW37.0 kmh NW 38.0 mph61.2 kmh 29.95 in1014.2 mb 0.00 in0.0 mm 0.00 in0.0 mm 0.00 in0.0 mm
05:20 PM 51.0°F10.6°C 5.5°F-14.7°C 15% 20.0 mph NW32.2 kmh NW 38.0 mph61.2 kmh 29.95 in1014.2 mb 0.00 in0.0 mm 0.00 in0.0 mm 0.00 in0.0 mm
05:21 PM 51.0°F10.6°C 6.4°F-14.2°C 16% 18.0 mph NW29.0 kmh NW 35.0 mph56.3 kmh 29.95 in1014.2 mb 0.00 in0.0 mm 0.00 in0.0 mm 0.00 in0.0 mm
05:22 PM 50.9°F10.5°C 6.3°F-14.3°C 16% 16.0 mph NW25.7 kmh NW 35.0 mph56.3 kmh 29.95 in1014.2 mb 0.00 in0.0 mm 0.00 in0.0 mm 0.00 in0.0 mm
05:23 PM 50.9°F10.5°C 6.3°F-14.3°C 16% 15.0 mph WNW24.1 kmh WNW 28.0 mph45.1 kmh 29.95 in1014.2 mb 0.00 in0.0 mm 0.00 in0.0 mm 0.00 in0.0 mm
05:24 PM 50.9°F10.5°C 6.3°F-14.3°C 16% 17.0 mph NW27.4 kmh NW 29.0 mph46.7 kmh 29.95 in1014.2 mb 0.00 in0.0 mm 0.00 in0.0 mm 0.00 in0.0 mm
05:25 PM 50.9°F10.5°C 6.3°F-14.3°C 16% 23.0 mph NW37.0 kmh NW 34.0 mph54.7 kmh 29.95 in1014.2 mb 0.00 in0.0 mm 0.00 in0.0 mm 0.00 in0.0 mm
05:26 PM 50.8°F10.4°C 6.8°F-14.0°C 16% 22.0 mph NW35.4 kmh NW 34.0 mph54.7 kmh 29.96 in1014.6 mb 0.00 in0.0 mm 0.00 in0.0 mm 0.00 in0.0 mm
05:27 PM 50.8°F10.4°C 6.9°F-13.9°C 16% 14.0 mph NW22.5 kmh NW 34.0 mph54.7 kmh 29.96 in1014.6 mb 0.00 in0.0 mm 0.00 in0.0 mm 0.00 in0.0 mm
05:28 PM 50.8°F10.4°C 6.3°F-14.3°C 16% 19.0 mph NW30.6 kmh NW 32.0 mph51.5 kmh 29.96 in1014.6 mb 0.00 in0.0 mm 0.00 in0.0 mm 0.00 in0.0 mm
05:29 PM 50.7°F10.4°C 6.2°F-14.3°C 16% 15.0 mph NW24.1 kmh NW 32.0 mph51.5 kmh 29.96 in1014.6 mb 0.00 in0.0 mm 0.00 in0.0 mm 0.00 in0.0 mm
05:30 PM 50.7°F10.4°C 6.1°F-14.4°C 16% 22.0 mph NW35.4 kmh NW 35.0 mph56.3 kmh 29.97 in1014.9 mb 0.00 in0.0 mm 0.00 in0.0 mm 0.00 in0.0 mm
05:31 PM 50.6°F10.3°C 5.7°F-14.6°C 16% 23.0 mph NW37.0 kmh NW 35.0 mph56.3 kmh 29.97 in1014.9 mb 0.00 in0.0 mm 0.00 in0.0 mm 0.00 in0.0 mm
05:32 PM 50.5°F10.3°C 4.6°F-15.2°C 15% 15.0 mph NW24.1 kmh NW 30.0 mph48.3 kmh 29.96 in1014.6 mb 0.00 in0.0 mm 0.00 in0.0 mm 0.00 in0.0 mm
05:33 PM 50.4°F10.2°C 4.5°F-15.3°C 15% 10.0 mph NNW16.1 kmh NNW 27.0 mph43.5 kmh 29.96 in1014.6 mb 0.00 in0.0 mm 0.00 in0.0 mm 0.00 in0.0 mm
05:34 PM 50.4°F10.2°C 4.5°F-15.3°C 15% 18.0 mph NW29.0 kmh NW 27.0 mph43.5 kmh 29.96 in1014.6 mb 0.00 in0.0 mm 0.00 in0.0 mm 0.00 in0.0 mm
05:35 PM 50.4°F10.2°C 4.5°F-15.3°C 15% 14.0 mph NW22.5 kmh NW 27.0 mph43.5 kmh 29.97 in1014.9 mb 0.00 in0.0 mm 0.00 in0.0 mm 0.00 in0.0 mm
05:36 PM 50.4°F10.2°C 4.5°F-15.3°C 15% 9.0 mph NW14.5 kmh NW 22.0 mph35.4 kmh 29.97 in1014.9 mb 0.00 in0.0 mm 0.00 in0.0 mm 0.00 in0.0 mm
05:37 PM 50.4°F10.2°C 4.9°F-15.1°C 15% 7.0 mph NW11.3 kmh NW 16.0 mph25.7 kmh 29.96 in1014.6 mb 0.00 in0.0 mm 0.00 in0.0 mm 0.00 in0.0 mm
05:38 PM 50.3°F10.2°C 5.9°F-14.5°C 16% 16.0 mph N25.7 kmh N 29.0 mph46.7 kmh 29.97 in1014.9 mb 0.00 in0.0 mm 0.00 in0.0 mm 0.00 in0.0 mm
05:39 PM 50.3°F10.2°C 5.8°F-14.6°C 16% 20.0 mph NW32.2 kmh NW 36.0 mph57.9 kmh 29.97 in1014.9 mb 0.00 in0.0 mm 0.00 in0.0 mm 0.00 in0.0 mm
05:40 PM 50.3°F10.2°C 5.8°F-14.6°C 16% 10.0 mph NW16.1 kmh NW 36.0 mph57.9 kmh 29.97 in1014.9 mb 0.00 in0.0 mm 0.00 in0.0 mm 0.00 in0.0 mm
05:41 PM 50.3°F10.2°C 5.9°F-14.5°C 16% 10.0 mph NW16.1 kmh NW 16.0 mph25.7 kmh 29.97 in1014.9 mb 0.00 in0.0 mm 0.00 in0.0 mm 0.00 in0.0 mm
05:42 PM 50.3°F10.2°C 7.0°F-13.9°C 17% 13.0 mph NW20.9 kmh NW 26.0 mph41.8 kmh 29.97 in1014.9 mb 0.00 in0.0 mm 0.00 in0.0 mm 0.00 in0.0 mm
05:43 PM 50.3°F10.2°C 5.8°F-14.6°C 16% 17.0 mph NW27.4 kmh NW 29.0 mph46.7 kmh 29.97 in1014.9 mb 0.00 in0.0 mm 0.00 in0.0 mm 0.00 in0.0 mm
05:44 PM 50.2°F10.1°C 6.4°F-14.2°C 16% 11.0 mph NW17.7 kmh NW 29.0 mph46.7 kmh 29.97 in1014.9 mb 0.00 in0.0 mm 0.00 in0.0 mm 0.00 in0.0 mm
05:45 PM 50.2°F10.1°C 7.1°F-13.8°C 17% 12.0 mph NW19.3 kmh NW 21.0 mph33.8 kmh 29.97 in1014.9 mb 0.00 in0.0 mm 0.00 in0.0 mm 0.00 in0.0 mm
05:46 PM 50.2°F10.1°C 7.1°F-13.8°C 17% 16.0 mph NW25.7 kmh NW 21.0 mph33.8 kmh 29.97 in1014.9 mb 0.00 in0.0 mm 0.00 in0.0 mm 0.00 in0.0 mm
05:47 PM 50.1°F10.1°C 8.2°F-13.2°C 18% 8.0 mph NW12.9 kmh NW 21.0 mph33.8 kmh 29.97 in1014.9 mb 0.00 in0.0 mm 0.00 in0.0 mm 0.00 in0.0 mm
05:48 PM 50.1°F10.1°C 8.3°F-13.2°C 18% 10.0 mph NW16.1 kmh NW 22.0 mph35.4 kmh 29.97 in1014.9 mb 0.00 in0.0 mm 0.00 in0.0 mm 0.00 in0.0 mm
05:49 PM 50.1°F10.1°C 8.3°F-13.2°C 18% 12.0 mph NW19.3 kmh NW 22.0 mph35.4 kmh 29.97 in1014.9 mb 0.00 in0.0 mm 0.00 in0.0 mm 0.00 in0.0 mm
05:50 PM 50.0°F10.0°C 8.2°F-13.2°C 18% 12.0 mph NW19.3 kmh NW 22.0 mph35.4 kmh 29.97 in1014.9 mb 0.00 in0.0 mm 0.00 in0.0 mm 0.00 in0.0 mm
05:51 PM 50.0°F10.0°C 8.2°F-13.2°C 18% 12.0 mph NW19.3 kmh NW 30.0 mph48.3 kmh 29.97 in1014.9 mb 0.00 in0.0 mm 0.00 in0.0 mm 0.00 in0.0 mm
05:52 PM 50.0°F10.0°C 8.2°F-13.2°C 18% 16.0 mph NW25.7 kmh NW 30.0 mph48.3 kmh 29.98 in1015.2 mb 0.00 in0.0 mm 0.00 in0.0 mm 0.00 in0.0 mm
05:53 PM 49.9°F9.9°C 8.1°F-13.3°C 18% 12.0 mph NW19.3 kmh NW 24.0 mph38.6 kmh 29.98 in1015.2 mb 0.00 in0.0 mm 0.00 in0.0 mm 0.00 in0.0 mm
05:54 PM 49.9°F9.9°C 8.1°F-13.3°C 18% 9.0 mph N14.5 kmh N 18.0 mph29.0 kmh 29.98 in1015.2 mb 0.00 in0.0 mm 0.00 in0.0 mm 0.00 in0.0 mm
05:55 PM 49.9°F9.9°C 8.5°F-13.1°C 18% 7.0 mph NW11.3 kmh NW 18.0 mph29.0 kmh 29.98 in1015.2 mb 0.00 in0.0 mm 0.00 in0.0 mm 0.00 in0.0 mm
05:56 PM 49.8°F9.9°C 9.2°F-12.7°C 19% 9.0 mph NW14.5 kmh NW 15.0 mph24.1 kmh 29.98 in1015.2 mb 0.00 in0.0 mm 0.00 in0.0 mm 0.00 in0.0 mm
05:57 PM 49.8°F9.9°C 9.2°F-12.7°C 19% 9.0 mph NW14.5 kmh NW 15.0 mph24.1 kmh 29.98 in1015.2 mb 0.00 in0.0 mm 0.00 in0.0 mm 0.00 in0.0 mm
05:58 PM 49.8°F9.9°C 9.2°F-12.7°C 19% 9.0 mph NW14.5 kmh NW 13.0 mph20.9 kmh 29.98 in1015.2 mb 0.00 in0.0 mm 0.00 in0.0 mm 0.00 in0.0 mm
05:59 PM 49.8°F9.9°C 9.1°F-12.7°C 19% 11.0 mph NW17.7 kmh NW 19.0 mph30.6 kmh 29.98 in1015.2 mb 0.00 in0.0 mm 0.00 in0.0 mm 0.00 in0.0 mm
06:00 PM 49.7°F9.8°C 7.7°F-13.5°C 18% 6.0 mph NW9.7 kmh NW 19.0 mph30.6 kmh 29.98 in1015.2 mb 0.00 in0.0 mm 0.00 in0.0 mm 0.00 in0.0 mm
06:01 PM 49.7°F9.8°C 6.7°F-14.1°C 17% 9.0 mph NW14.5 kmh NW 18.0 mph29.0 kmh 29.98 in1015.2 mb 0.00 in0.0 mm 0.00 in0.0 mm 0.00 in0.0 mm
06:02 PM 49.7°F9.8°C 6.7°F-14.1°C 17% 11.0 mph NW17.7 kmh NW 18.0 mph29.0 kmh 29.98 in1015.2 mb 0.00 in0.0 mm 0.00 in0.0 mm 0.00 in0.0 mm
06:03 PM 49.7°F9.8°C 6.7°F-14.1°C 17% 14.0 mph NW22.5 kmh NW 20.0 mph32.2 kmh 29.98 in1015.2 mb 0.00 in0.0 mm 0.00 in0.0 mm 0.00 in0.0 mm
06:04 PM 49.6°F9.8°C 6.6°F-14.1°C 17% 12.0 mph NW19.3 kmh NW 20.0 mph32.2 kmh 29.98 in1015.2 mb 0.00 in0.0 mm 0.00 in0.0 mm 0.00 in0.0 mm
06:05 PM 49.5°F9.7°C 6.7°F-14.1°C 17% 10.0 mph NW16.1 kmh NW 18.0 mph29.0 kmh 29.99 in1015.6 mb 0.00 in0.0 mm 0.00 in0.0 mm 0.00 in0.0 mm
06:06 PM 49.5°F9.7°C 7.8°F-13.4°C 18% 8.0 mph NW12.9 kmh NW 16.0 mph25.7 kmh 29.99 in1015.6 mb 0.00 in0.0 mm 0.00 in0.0 mm 0.00 in0.0 mm
06:07 PM 49.4°F9.7°C 7.7°F-13.5°C 18% 9.0 mph NW14.5 kmh NW 16.0 mph25.7 kmh 29.99 in1015.6 mb 0.00 in0.0 mm 0.00 in0.0 mm 0.00 in0.0 mm
06:08 PM 49.3°F9.6°C 7.6°F-13.6°C 18% 9.0 mph NW14.5 kmh NW 19.0 mph30.6 kmh 29.99 in1015.6 mb 0.00 in0.0 mm 0.00 in0.0 mm 0.00 in0.0 mm
06:09 PM 49.2°F9.6°C 7.5°F-13.6°C 18% 12.0 mph NW19.3 kmh NW 19.0 mph30.6 kmh 29.99 in1015.6 mb 0.00 in0.0 mm 0.00 in0.0 mm 0.00 in0.0 mm
06:10 PM 49.0°F9.4°C 6.4°F-14.2°C 17% 14.0 mph NNW22.5 kmh NNW 23.0 mph37.0 kmh 29.99 in1015.6 mb 0.00 in0.0 mm 0.00 in0.0 mm 0.00 in0.0 mm
06:11 PM 49.0°F9.4°C 7.1°F-13.8°C 18% 13.0 mph NNW20.9 kmh NNW 24.0 mph38.6 kmh 29.99 in1015.6 mb 0.00 in0.0 mm 0.00 in0.0 mm 0.00 in0.0 mm
06:12 PM 48.8°F9.3°C 6.0°F-14.4°C 17% 15.0 mph NNW24.1 kmh NNW 24.0 mph38.6 kmh 29.99 in1015.6 mb 0.00 in0.0 mm 0.00 in0.0 mm 0.00 in0.0 mm
06:13 PM 48.8°F9.3°C 5.9°F-14.5°C 17% 12.0 mph NNW19.3 kmh NNW 20.0 mph32.2 kmh 29.99 in1015.6 mb 0.00 in0.0 mm 0.00 in0.0 mm 0.00 in0.0 mm
06:14 PM 48.7°F9.3°C 5.9°F-14.5°C 17% 11.0 mph NW17.7 kmh NW 16.0 mph25.7 kmh 29.99 in1015.6 mb 0.00 in0.0 mm 0.00 in0.0 mm 0.00 in0.0 mm
06:15 PM 48.6°F9.2°C 6.7°F-14.1°C 18% 12.0 mph NW19.3 kmh NW 16.0 mph25.7 kmh 30.00 in1015.9 mb 0.00 in0.0 mm 0.00 in0.0 mm 0.00 in0.0 mm
06:16 PM 48.5°F9.2°C 7.0°F-13.9°C 18% 15.0 mph NW24.1 kmh NW 21.0 mph33.8 kmh 30.00 in1015.9 mb 0.00 in0.0 mm 0.00 in0.0 mm 0.00 in0.0 mm
06:17 PM 48.5°F9.2°C 7.0°F-13.9°C 18% 14.0 mph NW22.5 kmh NW 21.0 mph33.8 kmh 30.00 in1015.9 mb 0.00 in0.0 mm 0.00 in0.0 mm 0.00 in0.0 mm
06:18 PM 48.4°F9.1°C 6.9°F-13.9°C 18% 12.0 mph NW19.3 kmh NW 19.0 mph30.6 kmh 30.00 in1015.9 mb 0.00 in0.0 mm 0.00 in0.0 mm 0.00 in0.0 mm
06:19 PM 48.4°F9.1°C 6.9°F-13.9°C 18% 11.0 mph NNW17.7 kmh NNW 18.0 mph29.0 kmh 30.00 in1015.9 mb 0.00 in0.0 mm 0.00 in0.0 mm 0.00 in0.0 mm
06:20 PM 48.4°F9.1°C 6.9°F-13.9°C 18% 7.0 mph NW11.3 kmh NW 16.0 mph25.7 kmh 30.00 in1015.9 mb 0.00 in0.0 mm 0.00 in0.0 mm 0.00 in0.0 mm
06:21 PM 48.4°F9.1°C 6.9°F-13.9°C 18% 8.0 mph NNW12.9 kmh NNW 14.0 mph22.5 kmh 30.00 in1015.9 mb 0.00 in0.0 mm 0.00 in0.0 mm 0.00 in0.0 mm
06:22 PM 48.4°F9.1°C 6.9°F-13.9°C 18% 8.0 mph NNW12.9 kmh NNW 13.0 mph20.9 kmh 30.01 in1016.3 mb 0.00 in0.0 mm 0.00 in0.0 mm 0.00 in0.0 mm
06:23 PM 48.3°F9.1°C 8.0°F-13.3°C 19% 8.0 mph NW12.9 kmh NW 17.0 mph27.4 kmh 30.01 in1016.3 mb 0.00 in0.0 mm 0.00 in0.0 mm 0.00 in0.0 mm
06:24 PM 48.3°F9.1°C 7.8°F-13.4°C 19% 14.0 mph NW22.5 kmh NW 20.0 mph32.2 kmh 30.01 in1016.3 mb 0.00 in0.0 mm 0.00 in0.0 mm 0.00 in0.0 mm
06:25 PM 48.3°F9.1°C 7.3°F-13.7°C 18% 11.0 mph NW17.7 kmh NW 20.0 mph32.2 kmh 30.01 in1016.3 mb 0.00 in0.0 mm 0.00 in0.0 mm 0.00 in0.0 mm
06:26 PM 48.2°F9.0°C 7.9°F-13.4°C 19% 7.0 mph NW11.3 kmh NW 14.0 mph22.5 kmh 30.01 in1016.3 mb 0.00 in0.0 mm 0.00 in0.0 mm 0.00 in0.0 mm
06:27 PM 48.1°F8.9°C 7.8°F-13.4°C 19% 12.0 mph NW19.3 kmh NW 20.0 mph32.2 kmh 30.01 in1016.3 mb 0.00 in0.0 mm 0.00 in0.0 mm 0.00 in0.0 mm
06:28 PM 48.1°F8.9°C 7.8°F-13.4°C 19% 10.0 mph NW16.1 kmh NW 20.0 mph32.2 kmh 30.01 in1016.3 mb 0.00 in0.0 mm 0.00 in0.0 mm 0.00 in0.0 mm
06:29 PM 48.0°F8.9°C 7.8°F-13.4°C 19% 10.0 mph NW16.1 kmh NW 16.0 mph25.7 kmh 30.01 in1016.3 mb 0.00 in0.0 mm 0.00 in0.0 mm 0.00 in0.0 mm
06:30 PM 48.0°F8.9°C 7.7°F-13.5°C 19% 10.0 mph NW16.1 kmh NW 15.0 mph24.1 kmh 30.01 in1016.3 mb 0.00 in0.0 mm 0.00 in0.0 mm 0.00 in0.0 mm
06:31 PM 47.9°F8.8°C 7.7°F-13.5°C 19% 8.0 mph NW12.9 kmh NW 15.0 mph24.1 kmh 30.01 in1016.3 mb 0.00 in0.0 mm 0.00 in0.0 mm 0.00 in0.0 mm
06:32 PM 47.9°F8.8°C 7.7°F-13.5°C 19% 9.0 mph NW14.5 kmh NW 16.0 mph25.7 kmh 30.01 in1016.3 mb 0.00 in0.0 mm 0.00 in0.0 mm 0.00 in0.0 mm
06:33 PM 47.9°F8.8°C 7.7°F-13.5°C 19% 8.0 mph NW12.9 kmh NW 16.0 mph25.7 kmh 30.01 in1016.3 mb 0.00 in0.0 mm 0.00 in0.0 mm 0.00 in0.0 mm
06:34 PM 47.9°F8.8°C 7.6°F-13.6°C 19% 9.0 mph NW14.5 kmh NW 13.0 mph20.9 kmh 30.01 in1016.3 mb 0.00 in0.0 mm 0.00 in0.0 mm 0.00 in0.0 mm
06:35 PM 47.8°F8.8°C 7.6°F-13.6°C 19% 10.0 mph NW16.1 kmh NW 17.0 mph27.4 kmh 30.02 in1016.6 mb 0.00 in0.0 mm 0.00 in0.0 mm 0.00 in0.0 mm
06:36 PM 47.8°F8.8°C 7.8°F-13.4°C 19% 12.0 mph NNW19.3 kmh NNW 23.0 mph37.0 kmh 30.02 in1016.6 mb 0.00 in0.0 mm 0.00 in0.0 mm 0.00 in0.0 mm
06:37 PM 47.8°F8.8°C 8.7°F-12.9°C 20% 12.0 mph NW19.3 kmh NW 23.0 mph37.0 kmh 30.02 in1016.6 mb 0.00 in0.0 mm 0.00 in0.0 mm 0.00 in0.0 mm
06:38 PM 47.7°F8.7°C 8.6°F-13.0°C 20% 14.0 mph NW22.5 kmh NW 22.0 mph35.4 kmh 30.02 in1016.6 mb 0.00 in0.0 mm 0.00 in0.0 mm 0.00 in0.0 mm
06:39 PM 47.7°F8.7°C 7.7°F-13.5°C 19% 6.0 mph NW9.7 kmh NW 22.0 mph35.4 kmh 30.02 in1016.6 mb 0.00 in0.0 mm 0.00 in0.0 mm 0.00 in0.0 mm
06:40 PM 47.7°F8.7°C 7.5°F-13.6°C 19% 9.0 mph NW14.5 kmh NW 16.0 mph25.7 kmh 30.02 in1016.6 mb 0.00 in0.0 mm 0.00 in0.0 mm 0.00 in0.0 mm
06:41 PM 47.7°F8.7°C 7.5°F-13.6°C 19% 8.0 mph NW12.9 kmh NW 16.0 mph25.7 kmh 30.02 in1016.6 mb 0.00 in0.0 mm 0.00 in0.0 mm 0.00 in0.0 mm
06:42 PM 47.7°F8.7°C 7.9°F-13.4°C 19% 6.0 mph NW9.7 kmh NW 13.0 mph20.9 kmh 30.02 in1016.6 mb 0.00 in0.0 mm 0.00 in0.0 mm 0.00 in0.0 mm
06:43 PM 47.7°F8.7°C 8.6°F-13.0°C 20% 6.0 mph NW9.7 kmh NW 12.0 mph19.3 kmh 30.02 in1016.6 mb 0.00 in0.0 mm 0.00 in0.0 mm 0.00 in0.0 mm
06:44 PM 47.6°F8.7°C 8.5°F-13.1°C 20% 9.0 mph NNW14.5 kmh NNW 14.0 mph22.5 kmh 30.02 in1016.6 mb 0.00 in0.0 mm 0.00 in0.0 mm 0.00 in0.0 mm
06:45 PM 47.6°F8.7°C 8.5°F-13.1°C 20% 11.0 mph N17.7 kmh N 17.0 mph27.4 kmh 30.02 in1016.6 mb 0.00 in0.0 mm 0.00 in0.0 mm 0.00 in0.0 mm
06:46 PM 47.6°F8.7°C 8.5°F-13.1°C 20% 16.0 mph N25.7 kmh N 22.0 mph35.4 kmh 30.02 in1016.6 mb 0.00 in0.0 mm 0.00 in0.0 mm 0.00 in0.0 mm
06:47 PM 47.6°F8.7°C 8.5°F-13.1°C 20% 15.0 mph NW24.1 kmh NW 23.0 mph37.0 kmh 30.02 in1016.6 mb 0.00 in0.0 mm 0.00 in0.0 mm 0.00 in0.0 mm
06:48 PM 47.6°F8.7°C 8.5°F-13.1°C 20% 10.0 mph NW16.1 kmh NW 23.0 mph37.0 kmh 30.03 in1016.9 mb 0.00 in0.0 mm 0.00 in0.0 mm 0.00 in0.0 mm
06:49 PM 47.6°F8.7°C 8.5°F-13.1°C 20% 8.0 mph NW12.9 kmh NW 15.0 mph24.1 kmh 30.03 in1016.9 mb 0.00 in0.0 mm 0.00 in0.0 mm 0.00 in0.0 mm
06:50 PM 47.6°F8.7°C 9.3°F-12.6°C 21% 8.0 mph NW12.9 kmh NW 14.0 mph22.5 kmh 30.03 in1016.9 mb 0.00 in0.0 mm 0.00 in0.0 mm 0.00 in0.0 mm
06:51 PM 47.6°F8.7°C 9.6°F-12.4°C 21% 8.0 mph NW12.9 kmh NW 14.0 mph22.5 kmh 30.03 in1016.9 mb 0.00 in0.0 mm 0.00 in0.0 mm 0.00 in0.0 mm
06:52 PM 47.5°F8.6°C 9.5°F-12.5°C 21% 6.0 mph NW9.7 kmh NW 12.0 mph19.3 kmh 30.03 in1016.9 mb 0.00 in0.0 mm 0.00 in0.0 mm 0.00 in0.0 mm
06:53 PM 47.4°F8.6°C 9.5°F-12.5°C 21% 4.0 mph NW6.4 kmh NW 12.0 mph19.3 kmh 30.03 in1016.9 mb 0.00 in0.0 mm 0.00 in0.0 mm 0.00 in0.0 mm
06:54 PM 47.4°F8.6°C 9.4°F-12.6°C 21% 8.0 mph NW12.9 kmh NW 13.0 mph20.9 kmh 30.03 in1016.9 mb 0.00 in0.0 mm 0.00 in0.0 mm 0.00 in0.0 mm
06:55 PM 47.3°F8.5°C 9.4°F-12.6°C 21% 5.0 mph NW8.0 kmh NW 13.0 mph20.9 kmh 30.04 in1017.3 mb 0.00 in0.0 mm 0.00 in0.0 mm 0.00 in0.0 mm
06:56 PM 47.2°F8.4°C 9.3°F-12.6°C 21% 6.0 mph NW9.7 kmh NW 11.0 mph17.7 kmh 30.04 in1017.3 mb 0.00 in0.0 mm 0.00 in0.0 mm 0.00 in0.0 mm
06:57 PM 47.2°F8.4°C 9.3°F-12.6°C 21% 6.0 mph NW9.7 kmh NW 11.0 mph17.7 kmh 30.03 in1016.9 mb 0.00 in0.0 mm 0.00 in0.0 mm 0.00 in0.0 mm
06:58 PM 47.1°F8.4°C 9.2°F-12.7°C 21% 6.0 mph NW9.7 kmh NW 11.0 mph17.7 kmh 30.04 in1017.3 mb 0.00 in0.0 mm 0.00 in0.0 mm 0.00 in0.0 mm
06:59 PM 47.1°F8.4°C 9.9°F-12.3°C 22% 11.0 mph NW17.7 kmh NW 18.0 mph29.0 kmh 30.04 in1017.3 mb 0.00 in0.0 mm 0.00 in0.0 mm 0.00 in0.0 mm
07:00 PM 47.0°F8.3°C 9.1°F-12.7°C 21% 14.0 mph NW22.5 kmh NW 23.0 mph37.0 kmh 30.04 in1017.3 mb 0.00 in0.0 mm 0.00 in0.0 mm 0.00 in0.0 mm
07:01 PM 47.0°F8.3°C 9.1°F-12.7°C 21% 12.0 mph NW19.3 kmh NW 23.0 mph37.0 kmh 30.04 in1017.3 mb 0.00 in0.0 mm 0.00 in0.0 mm 0.00 in0.0 mm
07:02 PM 47.0°F8.3°C 9.2°F-12.7°C 21% 10.0 mph NNW16.1 kmh NNW 20.0 mph32.2 kmh 30.04 in1017.3 mb 0.00 in0.0 mm 0.00 in0.0 mm 0.00 in0.0 mm
07:03 PM 47.1°F8.4°C 9.2°F-12.7°C 21% 7.0 mph NW11.3 kmh NW 20.0 mph32.2 kmh 30.04 in1017.3 mb 0.00 in0.0 mm 0.00 in0.0 mm 0.00 in0.0 mm
07:04 PM 47.1°F8.4°C 9.2°F-12.7°C 21% 8.0 mph NW12.9 kmh NW 15.0 mph24.1 kmh 30.04 in1017.3 mb 0.00 in0.0 mm 0.00 in0.0 mm 0.00 in0.0 mm
07:05 PM 47.1°F8.4°C 9.2°F-12.7°C 21% 8.0 mph NW12.9 kmh NW 16.0 mph25.7 kmh 30.04 in1017.3 mb 0.00 in0.0 mm 0.00 in0.0 mm 0.00 in0.0 mm
07:06 PM 47.1°F8.4°C 9.2°F-12.7°C 21% 7.0 mph NW11.3 kmh NW 16.0 mph25.7 kmh 30.04 in1017.3 mb 0.00 in0.0 mm 0.00 in0.0 mm 0.00 in0.0 mm
07:07 PM 47.1°F8.4°C 9.8°F-12.3°C 22% 8.0 mph NW12.9 kmh NW 16.0 mph25.7 kmh 30.04 in1017.3 mb 0.00 in0.0 mm 0.00 in0.0 mm 0.00 in0.0 mm
07:08 PM 47.1°F8.4°C 10.2°F-12.1°C 22% 9.0 mph NW14.5 kmh NW 14.0 mph22.5 kmh 30.05 in1017.6 mb 0.00 in0.0 mm 0.00 in0.0 mm 0.00 in0.0 mm
07:09 PM 47.1°F8.4°C 10.2°F-12.1°C 22% 7.0 mph NW11.3 kmh NW 14.0 mph22.5 kmh 30.05 in1017.6 mb 0.00 in0.0 mm 0.00 in0.0 mm 0.00 in0.0 mm
07:10 PM 47.0°F8.3°C 10.2°F-12.1°C 22% 5.0 mph NW8.0 kmh NW 11.0 mph17.7 kmh 30.05 in1017.6 mb 0.00 in0.0 mm 0.00 in0.0 mm 0.00 in0.0 mm
07:11 PM 47.0°F8.3°C 10.5°F-11.9°C 22% 5.0 mph NW8.0 kmh NW 8.0 mph12.9 kmh 30.05 in1017.6 mb 0.00 in0.0 mm 0.00 in0.0 mm 0.00 in0.0 mm
07:12 PM 46.9°F8.3°C 10.6°F-11.9°C 23% 5.0 mph NW8.0 kmh NW 9.0 mph14.5 kmh 30.05 in1017.6 mb 0.00 in0.0 mm 0.00 in0.0 mm 0.00 in0.0 mm
07:13 PM 46.9°F8.3°C 10.6°F-11.9°C 23% 9.0 mph NW14.5 kmh NW 13.0 mph20.9 kmh 30.05 in1017.6 mb 0.00 in0.0 mm 0.00 in0.0 mm 0.00 in0.0 mm
07:14 PM 46.8°F8.2°C 11.0°F-11.7°C 23% 7.0 mph NW11.3 kmh NW 13.0 mph20.9 kmh 30.05 in1017.6 mb 0.00 in0.0 mm 0.00 in0.0 mm 0.00 in0.0 mm
07:15 PM 46.7°F8.2°C 10.9°F-11.7°C 23% 5.0 mph NW8.0 kmh NW 11.0 mph17.7 kmh 30.05 in1017.6 mb 0.00 in0.0 mm 0.00 in0.0 mm 0.00 in0.0 mm
07:16 PM 46.7°F8.2°C 10.9°F-11.7°C 23% 8.0 mph NW12.9 kmh NW 14.0 mph22.5 kmh 30.05 in1017.6 mb 0.00 in0.0 mm 0.00 in0.0 mm 0.00 in0.0 mm
07:17 PM 46.6°F8.1°C 10.8°F-11.8°C 23% 8.0 mph NW12.9 kmh NW 14.0 mph22.5 kmh 30.05 in1017.6 mb 0.00 in0.0 mm 0.00 in0.0 mm 0.00 in0.0 mm
07:18 PM 46.6°F8.1°C 10.8°F-11.8°C 23% 7.0 mph NW11.3 kmh NW 11.0 mph17.7 kmh 30.05 in1017.6 mb 0.00 in0.0 mm 0.00 in0.0 mm 0.00 in0.0 mm
07:19 PM 46.6°F8.1°C 10.8°F-11.8°C 23% 8.0 mph NW12.9 kmh NW 14.0 mph22.5 kmh 30.05 in1017.6 mb 0.00 in0.0 mm 0.00 in0.0 mm 0.00 in0.0 mm
07:20 PM 46.6°F8.1°C 10.8°F-11.8°C 23% 7.0 mph NNW11.3 kmh NNW 14.0 mph22.5 kmh 30.06 in1017.9 mb 0.00 in0.0 mm 0.00 in0.0 mm 0.00 in0.0 mm
07:21 PM 46.5°F8.1°C 10.7°F-11.8°C 23% 10.0 mph NW16.1 kmh NW 13.0 mph20.9 kmh 30.06 in1017.9 mb 0.00 in0.0 mm 0.00 in0.0 mm 0.00 in0.0 mm
07:22 PM 46.5°F8.1°C 10.7°F-11.8°C 23% 5.0 mph NW8.0 kmh NW 13.0 mph20.9 kmh 30.06 in1017.9 mb 0.00 in0.0 mm 0.00 in0.0 mm 0.00 in0.0 mm
07:23 PM 46.5°F8.1°C 10.7°F-11.8°C 23% 7.0 mph NW11.3 kmh NW 14.0 mph22.5 kmh 30.06 in1017.9 mb 0.00 in0.0 mm 0.00 in0.0 mm 0.00 in0.0 mm
07:24 PM 46.5°F8.1°C 11.2°F-11.6°C 23% 6.0 mph NW9.7 kmh NW 14.0 mph22.5 kmh 30.06 in1017.9 mb 0.00 in0.0 mm 0.00 in0.0 mm 0.00 in0.0 mm
07:25 PM 46.4°F8.0°C 11.6°F-11.3°C 24% 9.0 mph NW14.5 kmh NW 14.0 mph22.5 kmh 30.06 in1017.9 mb 0.00 in0.0 mm 0.00 in0.0 mm 0.00 in0.0 mm
07:26 PM 46.4°F8.0°C 11.6°F-11.3°C 24% 9.0 mph NW14.5 kmh NW 14.0 mph22.5 kmh 30.06 in1017.9 mb 0.00 in0.0 mm 0.00 in0.0 mm 0.00 in0.0 mm
07:27 PM 46.3°F7.9°C 11.5°F-11.4°C 24% 5.0 mph NNW8.0 kmh NNW 14.0 mph22.5 kmh 30.06 in1017.9 mb 0.00 in0.0 mm 0.00 in0.0 mm 0.00 in0.0 mm
07:28 PM 46.3°F7.9°C 11.5°F-11.4°C 24% 7.0 mph NW11.3 kmh NW 14.0 mph22.5 kmh 30.06 in1017.9 mb 0.00 in0.0 mm 0.00 in0.0 mm 0.00 in0.0 mm
07:29 PM 46.3°F7.9°C 11.8°F-11.2°C 24% 8.0 mph NW12.9 kmh NW 12.0 mph19.3 kmh 30.06 in1017.9 mb 0.00 in0.0 mm 0.00 in0.0 mm 0.00 in0.0 mm
07:30 PM 46.3°F7.9°C 12.4°F-10.9°C 25% 3.0 mph NNW4.8 kmh NNW 11.0 mph17.7 kmh 30.06 in1017.9 mb 0.00 in0.0 mm 0.00 in0.0 mm 0.00 in0.0 mm
07:31 PM 46.3°F7.9°C 12.4°F-10.9°C 25% 6.0 mph NW9.7 kmh NW 9.0 mph14.5 kmh 30.06 in1017.9 mb 0.00 in0.0 mm 0.00 in0.0 mm 0.00 in0.0 mm
07:32 PM 46.3°F7.9°C 12.4°F-10.9°C 25% 7.0 mph NW11.3 kmh NW 13.0 mph20.9 kmh 30.06 in1017.9 mb 0.00 in0.0 mm 0.00 in0.0 mm 0.00 in0.0 mm
07:33 PM 46.2°F7.9°C 11.5°F-11.4°C 24% 6.0 mph NW9.7 kmh NW 13.0 mph20.9 kmh 30.06 in1017.9